<?xml version="1.0" encoding="UTF-8" standalone="no" ?>
<gpx xmlns="http://www.topografix.com/GPX/1/1" xmlns:xsi="http://www.w3.org/2001/XMLSchema-instance" xsi:schemaLocation="http://www.topografix.com/GPX/1/1 http://www.topografix.com/GPX/1/1/gpx.xsd" version="1.1" creator="VisuGPX - https://www.visugpx.com">
  <metadata>
    <name>Tour au dessus de Pierre Percée</name>
    <desc><![CDATA[Pierre percée, Vierge Clarisse, Grotte des Poilus, Rocher de la Soye, ...]]></desc>
  </metadata>
  <trk>
    <name><![CDATA[01-JAN-16 04:19:38 PM]]></name>
    <trkseg>
      <trkpt lat="48.46908" lon="6.932">
        <ele>424.56</ele>
        <time>2016-01-01T12:58:09Z</time>
      </trkpt>
      <trkpt lat="48.46908" lon="6.932">
        <ele>424.08</ele>
        <time>2016-01-01T12:58:10Z</time>
      </trkpt>
      <trkpt lat="48.46908" lon="6.932">
        <ele>424.08</ele>
        <time>2016-01-01T12:58:11Z</time>
      </trkpt>
      <trkpt lat="48.46908" lon="6.932">
        <ele>410.62</ele>
        <time>2016-01-01T12:58:17Z</time>
      </trkpt>
      <trkpt lat="48.46908" lon="6.932">
        <ele>423.12</ele>
        <time>2016-01-01T12:58:18Z</time>
      </trkpt>
      <trkpt lat="48.46908" lon="6.932">
        <ele>418.79</ele>
        <time>2016-01-01T12:58:19Z</time>
      </trkpt>
      <trkpt lat="48.46908" lon="6.932">
        <ele>425.04</ele>
        <time>2016-01-01T12:58:20Z</time>
      </trkpt>
      <trkpt lat="48.46908" lon="6.93199">
        <ele>422.64</ele>
        <time>2016-01-01T12:58:29Z</time>
      </trkpt>
      <trkpt lat="48.46909" lon="6.932">
        <ele>427.44</ele>
        <time>2016-01-01T12:58:34Z</time>
      </trkpt>
      <trkpt lat="48.46909" lon="6.932">
        <ele>423.6</ele>
        <time>2016-01-01T12:58:35Z</time>
      </trkpt>
      <trkpt lat="48.46909" lon="6.93201">
        <ele>423.6</ele>
        <time>2016-01-01T12:58:46Z</time>
      </trkpt>
      <trkpt lat="48.46909" lon="6.93201">
        <ele>424.08</ele>
        <time>2016-01-01T12:58:52Z</time>
      </trkpt>
      <trkpt lat="48.46911" lon="6.93202">
        <ele>423.6</ele>
        <time>2016-01-01T12:58:56Z</time>
      </trkpt>
      <trkpt lat="48.46912" lon="6.93203">
        <ele>425.04</ele>
        <time>2016-01-01T12:59:06Z</time>
      </trkpt>
      <trkpt lat="48.46913" lon="6.93203">
        <ele>428.4</ele>
        <time>2016-01-01T12:59:16Z</time>
      </trkpt>
      <trkpt lat="48.46914" lon="6.93203">
        <ele>425.52</ele>
        <time>2016-01-01T12:59:17Z</time>
      </trkpt>
      <trkpt lat="48.46919" lon="6.93206">
        <ele>426</ele>
        <time>2016-01-01T12:59:30Z</time>
      </trkpt>
      <trkpt lat="48.46922" lon="6.93207">
        <ele>423.12</ele>
        <time>2016-01-01T12:59:35Z</time>
      </trkpt>
      <trkpt lat="48.46922" lon="6.93207">
        <ele>426</ele>
        <time>2016-01-01T12:59:36Z</time>
      </trkpt>
      <trkpt lat="48.46927" lon="6.93208">
        <ele>426.48</ele>
        <time>2016-01-01T12:59:44Z</time>
      </trkpt>
      <trkpt lat="48.46928" lon="6.93208">
        <ele>426</ele>
        <time>2016-01-01T12:59:45Z</time>
      </trkpt>
      <trkpt lat="48.4693" lon="6.93208">
        <ele>426</ele>
        <time>2016-01-01T12:59:46Z</time>
      </trkpt>
      <trkpt lat="48.46931" lon="6.93207">
        <ele>426</ele>
        <time>2016-01-01T12:59:47Z</time>
      </trkpt>
      <trkpt lat="48.46932" lon="6.93207">
        <ele>426.48</ele>
        <time>2016-01-01T12:59:48Z</time>
      </trkpt>
      <trkpt lat="48.46934" lon="6.93208">
        <ele>426.96</ele>
        <time>2016-01-01T12:59:49Z</time>
      </trkpt>
      <trkpt lat="48.46935" lon="6.93209">
        <ele>426.48</ele>
        <time>2016-01-01T12:59:50Z</time>
      </trkpt>
      <trkpt lat="48.46937" lon="6.93209">
        <ele>426.96</ele>
        <time>2016-01-01T12:59:51Z</time>
      </trkpt>
      <trkpt lat="48.46952" lon="6.9322">
        <ele>428.4</ele>
        <time>2016-01-01T13:00:04Z</time>
      </trkpt>
      <trkpt lat="48.46953" lon="6.93222">
        <ele>428.4</ele>
        <time>2016-01-01T13:00:05Z</time>
      </trkpt>
      <trkpt lat="48.46954" lon="6.93224">
        <ele>427.92</ele>
        <time>2016-01-01T13:00:07Z</time>
      </trkpt>
      <trkpt lat="48.46956" lon="6.93222">
        <ele>428.89</ele>
        <time>2016-01-01T13:00:09Z</time>
      </trkpt>
      <trkpt lat="48.46962" lon="6.93218">
        <ele>429.37</ele>
        <time>2016-01-01T13:00:14Z</time>
      </trkpt>
      <trkpt lat="48.46965" lon="6.93217">
        <ele>429.85</ele>
        <time>2016-01-01T13:00:16Z</time>
      </trkpt>
      <trkpt lat="48.46973" lon="6.93216">
        <ele>432.25</ele>
        <time>2016-01-01T13:00:24Z</time>
      </trkpt>
      <trkpt lat="48.46978" lon="6.93218">
        <ele>432.73</ele>
        <time>2016-01-01T13:00:29Z</time>
      </trkpt>
      <trkpt lat="48.46979" lon="6.93219">
        <ele>432.73</ele>
        <time>2016-01-01T13:00:30Z</time>
      </trkpt>
      <trkpt lat="48.46981" lon="6.93218">
        <ele>433.21</ele>
        <time>2016-01-01T13:00:32Z</time>
      </trkpt>
      <trkpt lat="48.46983" lon="6.93216">
        <ele>433.69</ele>
        <time>2016-01-01T13:00:34Z</time>
      </trkpt>
      <trkpt lat="48.46984" lon="6.93217">
        <ele>434.65</ele>
        <time>2016-01-01T13:00:35Z</time>
      </trkpt>
      <trkpt lat="48.46991" lon="6.93213">
        <ele>436.1</ele>
        <time>2016-01-01T13:00:44Z</time>
      </trkpt>
      <trkpt lat="48.46999" lon="6.93212">
        <ele>438.02</ele>
        <time>2016-01-01T13:00:53Z</time>
      </trkpt>
      <trkpt lat="48.47" lon="6.93212">
        <ele>438.02</ele>
        <time>2016-01-01T13:00:54Z</time>
      </trkpt>
      <trkpt lat="48.47003" lon="6.93213">
        <ele>439.46</ele>
        <time>2016-01-01T13:00:58Z</time>
      </trkpt>
      <trkpt lat="48.47007" lon="6.93211">
        <ele>440.9</ele>
        <time>2016-01-01T13:01:03Z</time>
      </trkpt>
      <trkpt lat="48.47009" lon="6.93211">
        <ele>441.86</ele>
        <time>2016-01-01T13:01:06Z</time>
      </trkpt>
      <trkpt lat="48.47016" lon="6.93207">
        <ele>444.27</ele>
        <time>2016-01-01T13:01:16Z</time>
      </trkpt>
      <trkpt lat="48.47021" lon="6.93208">
        <ele>445.71</ele>
        <time>2016-01-01T13:01:26Z</time>
      </trkpt>
      <trkpt lat="48.47028" lon="6.93208">
        <ele>448.59</ele>
        <time>2016-01-01T13:01:38Z</time>
      </trkpt>
      <trkpt lat="48.47029" lon="6.93208">
        <ele>448.11</ele>
        <time>2016-01-01T13:01:43Z</time>
      </trkpt>
      <trkpt lat="48.47028" lon="6.93207">
        <ele>448.11</ele>
        <time>2016-01-01T13:01:53Z</time>
      </trkpt>
      <trkpt lat="48.47028" lon="6.93207">
        <ele>448.11</ele>
        <time>2016-01-01T13:01:54Z</time>
      </trkpt>
      <trkpt lat="48.47028" lon="6.93205">
        <ele>449.07</ele>
        <time>2016-01-01T13:02:03Z</time>
      </trkpt>
      <trkpt lat="48.4703" lon="6.93207">
        <ele>449.55</ele>
        <time>2016-01-01T13:02:20Z</time>
      </trkpt>
      <trkpt lat="48.47033" lon="6.93206">
        <ele>451</ele>
        <time>2016-01-01T13:02:39Z</time>
      </trkpt>
      <trkpt lat="48.47038" lon="6.93204">
        <ele>454.36</ele>
        <time>2016-01-01T13:02:47Z</time>
      </trkpt>
      <trkpt lat="48.47044" lon="6.93207">
        <ele>457.72</ele>
        <time>2016-01-01T13:02:56Z</time>
      </trkpt>
      <trkpt lat="48.47054" lon="6.93213">
        <ele>459.65</ele>
        <time>2016-01-01T13:03:07Z</time>
      </trkpt>
      <trkpt lat="48.47065" lon="6.93214">
        <ele>461.57</ele>
        <time>2016-01-01T13:03:16Z</time>
      </trkpt>
      <trkpt lat="48.47067" lon="6.93214">
        <ele>461.09</ele>
        <time>2016-01-01T13:03:17Z</time>
      </trkpt>
      <trkpt lat="48.47082" lon="6.93213">
        <ele>463.01</ele>
        <time>2016-01-01T13:03:28Z</time>
      </trkpt>
      <trkpt lat="48.47093" lon="6.93211">
        <ele>465.42</ele>
        <time>2016-01-01T13:03:40Z</time>
      </trkpt>
      <trkpt lat="48.47107" lon="6.93213">
        <ele>467.34</ele>
        <time>2016-01-01T13:03:54Z</time>
      </trkpt>
      <trkpt lat="48.47113" lon="6.93211">
        <ele>469.26</ele>
        <time>2016-01-01T13:04:05Z</time>
      </trkpt>
      <trkpt lat="48.47119" lon="6.93209">
        <ele>470.7</ele>
        <time>2016-01-01T13:04:13Z</time>
      </trkpt>
      <trkpt lat="48.47118" lon="6.93207">
        <ele>470.7</ele>
        <time>2016-01-01T13:04:14Z</time>
      </trkpt>
      <trkpt lat="48.47118" lon="6.93205">
        <ele>471.18</ele>
        <time>2016-01-01T13:04:15Z</time>
      </trkpt>
      <trkpt lat="48.47118" lon="6.93204">
        <ele>471.18</ele>
        <time>2016-01-01T13:04:16Z</time>
      </trkpt>
      <trkpt lat="48.47117" lon="6.93197">
        <ele>471.66</ele>
        <time>2016-01-01T13:04:20Z</time>
      </trkpt>
      <trkpt lat="48.47117" lon="6.93196">
        <ele>471.18</ele>
        <time>2016-01-01T13:04:21Z</time>
      </trkpt>
      <trkpt lat="48.47116" lon="6.93194">
        <ele>471.18</ele>
        <time>2016-01-01T13:04:22Z</time>
      </trkpt>
      <trkpt lat="48.47115" lon="6.93188">
        <ele>471.66</ele>
        <time>2016-01-01T13:04:33Z</time>
      </trkpt>
      <trkpt lat="48.47117" lon="6.93193">
        <ele>472.14</ele>
        <time>2016-01-01T13:04:39Z</time>
      </trkpt>
      <trkpt lat="48.47117" lon="6.93195">
        <ele>471.66</ele>
        <time>2016-01-01T13:04:40Z</time>
      </trkpt>
      <trkpt lat="48.47117" lon="6.93197">
        <ele>471.66</ele>
        <time>2016-01-01T13:04:41Z</time>
      </trkpt>
      <trkpt lat="48.47119" lon="6.93199">
        <ele>471.18</ele>
        <time>2016-01-01T13:04:43Z</time>
      </trkpt>
      <trkpt lat="48.4712" lon="6.93201">
        <ele>471.18</ele>
        <time>2016-01-01T13:04:44Z</time>
      </trkpt>
      <trkpt lat="48.47123" lon="6.93206">
        <ele>471.18</ele>
        <time>2016-01-01T13:04:49Z</time>
      </trkpt>
      <trkpt lat="48.47125" lon="6.93209">
        <ele>472.14</ele>
        <time>2016-01-01T13:04:52Z</time>
      </trkpt>
      <trkpt lat="48.47126" lon="6.93211">
        <ele>471.18</ele>
        <time>2016-01-01T13:04:53Z</time>
      </trkpt>
      <trkpt lat="48.47127" lon="6.93212">
        <ele>471.66</ele>
        <time>2016-01-01T13:04:54Z</time>
      </trkpt>
      <trkpt lat="48.47128" lon="6.93214">
        <ele>471.66</ele>
        <time>2016-01-01T13:04:55Z</time>
      </trkpt>
      <trkpt lat="48.47129" lon="6.93216">
        <ele>472.14</ele>
        <time>2016-01-01T13:04:56Z</time>
      </trkpt>
      <trkpt lat="48.4713" lon="6.93217">
        <ele>471.66</ele>
        <time>2016-01-01T13:04:57Z</time>
      </trkpt>
      <trkpt lat="48.47138" lon="6.93227">
        <ele>472.14</ele>
        <time>2016-01-01T13:05:07Z</time>
      </trkpt>
      <trkpt lat="48.47142" lon="6.93235">
        <ele>473.11</ele>
        <time>2016-01-01T13:05:19Z</time>
      </trkpt>
      <trkpt lat="48.47144" lon="6.93237">
        <ele>473.59</ele>
        <time>2016-01-01T13:05:21Z</time>
      </trkpt>
      <trkpt lat="48.47151" lon="6.93239">
        <ele>474.07</ele>
        <time>2016-01-01T13:05:27Z</time>
      </trkpt>
      <trkpt lat="48.47153" lon="6.93241">
        <ele>475.03</ele>
        <time>2016-01-01T13:05:29Z</time>
      </trkpt>
      <trkpt lat="48.47158" lon="6.93248">
        <ele>476.47</ele>
        <time>2016-01-01T13:05:38Z</time>
      </trkpt>
      <trkpt lat="48.4717" lon="6.9326">
        <ele>478.39</ele>
        <time>2016-01-01T13:05:49Z</time>
      </trkpt>
      <trkpt lat="48.47177" lon="6.93268">
        <ele>478.39</ele>
        <time>2016-01-01T13:06:02Z</time>
      </trkpt>
      <trkpt lat="48.4718" lon="6.93271">
        <ele>480.32</ele>
        <time>2016-01-01T13:06:07Z</time>
      </trkpt>
      <trkpt lat="48.47186" lon="6.93273">
        <ele>480.8</ele>
        <time>2016-01-01T13:06:19Z</time>
      </trkpt>
      <trkpt lat="48.47194" lon="6.93272">
        <ele>479.84</ele>
        <time>2016-01-01T13:06:31Z</time>
      </trkpt>
      <trkpt lat="48.47196" lon="6.9327">
        <ele>479.35</ele>
        <time>2016-01-01T13:06:45Z</time>
      </trkpt>
      <trkpt lat="48.47198" lon="6.93267">
        <ele>479.35</ele>
        <time>2016-01-01T13:07:13Z</time>
      </trkpt>
      <trkpt lat="48.47198" lon="6.93264">
        <ele>479.84</ele>
        <time>2016-01-01T13:07:32Z</time>
      </trkpt>
      <trkpt lat="48.47198" lon="6.93265">
        <ele>479.84</ele>
        <time>2016-01-01T13:07:44Z</time>
      </trkpt>
      <trkpt lat="48.47195" lon="6.93266">
        <ele>480.8</ele>
        <time>2016-01-01T13:07:54Z</time>
      </trkpt>
      <trkpt lat="48.47184" lon="6.93266">
        <ele>478.87</ele>
        <time>2016-01-01T13:08:05Z</time>
      </trkpt>
      <trkpt lat="48.47178" lon="6.93256">
        <ele>475.99</ele>
        <time>2016-01-01T13:08:16Z</time>
      </trkpt>
      <trkpt lat="48.47169" lon="6.9325">
        <ele>476.47</ele>
        <time>2016-01-01T13:08:24Z</time>
      </trkpt>
      <trkpt lat="48.4716" lon="6.93244">
        <ele>470.7</ele>
        <time>2016-01-01T13:08:33Z</time>
      </trkpt>
      <trkpt lat="48.4716" lon="6.93244">
        <ele>476.47</ele>
        <time>2016-01-01T13:08:34Z</time>
      </trkpt>
      <trkpt lat="48.47156" lon="6.9324">
        <ele>473.11</ele>
        <time>2016-01-01T13:08:38Z</time>
      </trkpt>
      <trkpt lat="48.47148" lon="6.93235">
        <ele>472.14</ele>
        <time>2016-01-01T13:08:46Z</time>
      </trkpt>
      <trkpt lat="48.47148" lon="6.93234">
        <ele>472.63</ele>
        <time>2016-01-01T13:08:47Z</time>
      </trkpt>
      <trkpt lat="48.47145" lon="6.93232">
        <ele>473.59</ele>
        <time>2016-01-01T13:08:50Z</time>
      </trkpt>
      <trkpt lat="48.47144" lon="6.93231">
        <ele>471.66</ele>
        <time>2016-01-01T13:08:51Z</time>
      </trkpt>
      <trkpt lat="48.47143" lon="6.9323">
        <ele>471.66</ele>
        <time>2016-01-01T13:08:52Z</time>
      </trkpt>
      <trkpt lat="48.47136" lon="6.93233">
        <ele>470.7</ele>
        <time>2016-01-01T13:09:05Z</time>
      </trkpt>
      <trkpt lat="48.47136" lon="6.9324">
        <ele>469.74</ele>
        <time>2016-01-01T13:09:11Z</time>
      </trkpt>
      <trkpt lat="48.47136" lon="6.93243">
        <ele>469.26</ele>
        <time>2016-01-01T13:09:13Z</time>
      </trkpt>
      <trkpt lat="48.47136" lon="6.93245">
        <ele>468.78</ele>
        <time>2016-01-01T13:09:14Z</time>
      </trkpt>
      <trkpt lat="48.47137" lon="6.93248">
        <ele>468.78</ele>
        <time>2016-01-01T13:09:15Z</time>
      </trkpt>
      <trkpt lat="48.47138" lon="6.93251">
        <ele>468.78</ele>
        <time>2016-01-01T13:09:17Z</time>
      </trkpt>
      <trkpt lat="48.47139" lon="6.93253">
        <ele>468.3</ele>
        <time>2016-01-01T13:09:18Z</time>
      </trkpt>
      <trkpt lat="48.4714" lon="6.93255">
        <ele>468.78</ele>
        <time>2016-01-01T13:09:19Z</time>
      </trkpt>
      <trkpt lat="48.4714" lon="6.93257">
        <ele>467.82</ele>
        <time>2016-01-01T13:09:20Z</time>
      </trkpt>
      <trkpt lat="48.47142" lon="6.93268">
        <ele>466.86</ele>
        <time>2016-01-01T13:09:28Z</time>
      </trkpt>
      <trkpt lat="48.47144" lon="6.93274">
        <ele>465.42</ele>
        <time>2016-01-01T13:09:32Z</time>
      </trkpt>
      <trkpt lat="48.47145" lon="6.93275">
        <ele>464.93</ele>
        <time>2016-01-01T13:09:33Z</time>
      </trkpt>
      <trkpt lat="48.47148" lon="6.93283">
        <ele>463.97</ele>
        <time>2016-01-01T13:09:38Z</time>
      </trkpt>
      <trkpt lat="48.47153" lon="6.93303">
        <ele>463.01</ele>
        <time>2016-01-01T13:09:48Z</time>
      </trkpt>
      <trkpt lat="48.47155" lon="6.93305">
        <ele>461.57</ele>
        <time>2016-01-01T13:09:50Z</time>
      </trkpt>
      <trkpt lat="48.47158" lon="6.9331">
        <ele>460.61</ele>
        <time>2016-01-01T13:09:54Z</time>
      </trkpt>
      <trkpt lat="48.47162" lon="6.93317">
        <ele>460.13</ele>
        <time>2016-01-01T13:09:58Z</time>
      </trkpt>
      <trkpt lat="48.47167" lon="6.93326">
        <ele>458.69</ele>
        <time>2016-01-01T13:10:03Z</time>
      </trkpt>
      <trkpt lat="48.47168" lon="6.93329">
        <ele>458.21</ele>
        <time>2016-01-01T13:10:04Z</time>
      </trkpt>
      <trkpt lat="48.4717" lon="6.93335">
        <ele>458.21</ele>
        <time>2016-01-01T13:10:07Z</time>
      </trkpt>
      <trkpt lat="48.47171" lon="6.93337">
        <ele>457.72</ele>
        <time>2016-01-01T13:10:08Z</time>
      </trkpt>
      <trkpt lat="48.47172" lon="6.93338">
        <ele>457.24</ele>
        <time>2016-01-01T13:10:09Z</time>
      </trkpt>
      <trkpt lat="48.47174" lon="6.93342">
        <ele>457.24</ele>
        <time>2016-01-01T13:10:12Z</time>
      </trkpt>
      <trkpt lat="48.47174" lon="6.93344">
        <ele>456.28</ele>
        <time>2016-01-01T13:10:13Z</time>
      </trkpt>
      <trkpt lat="48.47174" lon="6.93346">
        <ele>456.28</ele>
        <time>2016-01-01T13:10:14Z</time>
      </trkpt>
      <trkpt lat="48.47175" lon="6.93349">
        <ele>456.28</ele>
        <time>2016-01-01T13:10:15Z</time>
      </trkpt>
      <trkpt lat="48.47178" lon="6.93353">
        <ele>454.84</ele>
        <time>2016-01-01T13:10:19Z</time>
      </trkpt>
      <trkpt lat="48.47178" lon="6.93355">
        <ele>454.84</ele>
        <time>2016-01-01T13:10:20Z</time>
      </trkpt>
      <trkpt lat="48.47179" lon="6.93358">
        <ele>454.84</ele>
        <time>2016-01-01T13:10:21Z</time>
      </trkpt>
      <trkpt lat="48.47181" lon="6.93361">
        <ele>453.88</ele>
        <time>2016-01-01T13:10:23Z</time>
      </trkpt>
      <trkpt lat="48.47184" lon="6.93367">
        <ele>453.88</ele>
        <time>2016-01-01T13:10:26Z</time>
      </trkpt>
      <trkpt lat="48.47188" lon="6.93382">
        <ele>450.52</ele>
        <time>2016-01-01T13:10:36Z</time>
      </trkpt>
      <trkpt lat="48.47192" lon="6.9339">
        <ele>449.55</ele>
        <time>2016-01-01T13:10:41Z</time>
      </trkpt>
      <trkpt lat="48.47194" lon="6.93396">
        <ele>448.11</ele>
        <time>2016-01-01T13:10:44Z</time>
      </trkpt>
      <trkpt lat="48.47198" lon="6.93408">
        <ele>447.15</ele>
        <time>2016-01-01T13:10:49Z</time>
      </trkpt>
      <trkpt lat="48.47199" lon="6.93411">
        <ele>446.67</ele>
        <time>2016-01-01T13:10:51Z</time>
      </trkpt>
      <trkpt lat="48.47207" lon="6.93428">
        <ele>444.27</ele>
        <time>2016-01-01T13:11:01Z</time>
      </trkpt>
      <trkpt lat="48.47209" lon="6.93437">
        <ele>441.86</ele>
        <time>2016-01-01T13:11:09Z</time>
      </trkpt>
      <trkpt lat="48.47212" lon="6.93444">
        <ele>441.86</ele>
        <time>2016-01-01T13:11:12Z</time>
      </trkpt>
      <trkpt lat="48.47215" lon="6.93456">
        <ele>442.82</ele>
        <time>2016-01-01T13:11:20Z</time>
      </trkpt>
      <trkpt lat="48.47222" lon="6.9347">
        <ele>442.82</ele>
        <time>2016-01-01T13:11:27Z</time>
      </trkpt>
      <trkpt lat="48.47225" lon="6.93476">
        <ele>443.31</ele>
        <time>2016-01-01T13:11:30Z</time>
      </trkpt>
      <trkpt lat="48.47232" lon="6.93486">
        <ele>444.27</ele>
        <time>2016-01-01T13:11:35Z</time>
      </trkpt>
      <trkpt lat="48.47241" lon="6.93494">
        <ele>444.27</ele>
        <time>2016-01-01T13:11:41Z</time>
      </trkpt>
      <trkpt lat="48.47261" lon="6.93511">
        <ele>445.71</ele>
        <time>2016-01-01T13:11:54Z</time>
      </trkpt>
      <trkpt lat="48.47263" lon="6.93512">
        <ele>445.23</ele>
        <time>2016-01-01T13:11:56Z</time>
      </trkpt>
      <trkpt lat="48.47269" lon="6.93516">
        <ele>445.71</ele>
        <time>2016-01-01T13:11:59Z</time>
      </trkpt>
      <trkpt lat="48.47282" lon="6.93527">
        <ele>446.67</ele>
        <time>2016-01-01T13:12:07Z</time>
      </trkpt>
      <trkpt lat="48.47296" lon="6.93539">
        <ele>448.11</ele>
        <time>2016-01-01T13:12:20Z</time>
      </trkpt>
      <trkpt lat="48.47297" lon="6.93541">
        <ele>448.11</ele>
        <time>2016-01-01T13:12:22Z</time>
      </trkpt>
      <trkpt lat="48.47307" lon="6.93546">
        <ele>448.59</ele>
        <time>2016-01-01T13:12:28Z</time>
      </trkpt>
      <trkpt lat="48.47318" lon="6.93558">
        <ele>449.55</ele>
        <time>2016-01-01T13:12:35Z</time>
      </trkpt>
      <trkpt lat="48.4733" lon="6.93566">
        <ele>450.52</ele>
        <time>2016-01-01T13:12:42Z</time>
      </trkpt>
      <trkpt lat="48.47341" lon="6.93573">
        <ele>451</ele>
        <time>2016-01-01T13:12:49Z</time>
      </trkpt>
      <trkpt lat="48.47347" lon="6.93576">
        <ele>451.48</ele>
        <time>2016-01-01T13:12:52Z</time>
      </trkpt>
      <trkpt lat="48.47359" lon="6.93581">
        <ele>451.96</ele>
        <time>2016-01-01T13:12:57Z</time>
      </trkpt>
      <trkpt lat="48.47363" lon="6.93583">
        <ele>452.44</ele>
        <time>2016-01-01T13:13:00Z</time>
      </trkpt>
      <trkpt lat="48.47368" lon="6.93586">
        <ele>453.4</ele>
        <time>2016-01-01T13:13:05Z</time>
      </trkpt>
      <trkpt lat="48.47379" lon="6.93595">
        <ele>453.88</ele>
        <time>2016-01-01T13:13:10Z</time>
      </trkpt>
      <trkpt lat="48.47384" lon="6.93597">
        <ele>453.88</ele>
        <time>2016-01-01T13:13:12Z</time>
      </trkpt>
      <trkpt lat="48.4739" lon="6.93603">
        <ele>455.32</ele>
        <time>2016-01-01T13:13:18Z</time>
      </trkpt>
      <trkpt lat="48.47398" lon="6.93605">
        <ele>455.8</ele>
        <time>2016-01-01T13:13:23Z</time>
      </trkpt>
      <trkpt lat="48.47403" lon="6.93605">
        <ele>456.28</ele>
        <time>2016-01-01T13:13:26Z</time>
      </trkpt>
      <trkpt lat="48.47406" lon="6.93607">
        <ele>456.76</ele>
        <time>2016-01-01T13:13:29Z</time>
      </trkpt>
      <trkpt lat="48.47412" lon="6.93607">
        <ele>456.76</ele>
        <time>2016-01-01T13:13:33Z</time>
      </trkpt>
      <trkpt lat="48.47417" lon="6.93606">
        <ele>457.72</ele>
        <time>2016-01-01T13:13:39Z</time>
      </trkpt>
      <trkpt lat="48.47423" lon="6.93604">
        <ele>457.72</ele>
        <time>2016-01-01T13:13:42Z</time>
      </trkpt>
      <trkpt lat="48.4744" lon="6.93595">
        <ele>458.69</ele>
        <time>2016-01-01T13:13:54Z</time>
      </trkpt>
      <trkpt lat="48.47443" lon="6.93591">
        <ele>459.17</ele>
        <time>2016-01-01T13:13:56Z</time>
      </trkpt>
      <trkpt lat="48.47464" lon="6.93565">
        <ele>458.69</ele>
        <time>2016-01-01T13:14:12Z</time>
      </trkpt>
      <trkpt lat="48.47468" lon="6.93562">
        <ele>458.21</ele>
        <time>2016-01-01T13:14:14Z</time>
      </trkpt>
      <trkpt lat="48.4748" lon="6.93546">
        <ele>456.28</ele>
        <time>2016-01-01T13:14:26Z</time>
      </trkpt>
      <trkpt lat="48.47496" lon="6.93532">
        <ele>453.88</ele>
        <time>2016-01-01T13:14:39Z</time>
      </trkpt>
      <trkpt lat="48.47497" lon="6.9353">
        <ele>452.92</ele>
        <time>2016-01-01T13:14:41Z</time>
      </trkpt>
      <trkpt lat="48.47506" lon="6.93524">
        <ele>451.48</ele>
        <time>2016-01-01T13:14:47Z</time>
      </trkpt>
      <trkpt lat="48.47521" lon="6.93515">
        <ele>449.07</ele>
        <time>2016-01-01T13:14:56Z</time>
      </trkpt>
      <trkpt lat="48.47526" lon="6.93513">
        <ele>448.11</ele>
        <time>2016-01-01T13:15:00Z</time>
      </trkpt>
      <trkpt lat="48.47551" lon="6.93504">
        <ele>445.23</ele>
        <time>2016-01-01T13:15:14Z</time>
      </trkpt>
      <trkpt lat="48.4756" lon="6.935">
        <ele>443.79</ele>
        <time>2016-01-01T13:15:20Z</time>
      </trkpt>
      <trkpt lat="48.47576" lon="6.93498">
        <ele>440.42</ele>
        <time>2016-01-01T13:15:31Z</time>
      </trkpt>
      <trkpt lat="48.47588" lon="6.93497">
        <ele>436.1</ele>
        <time>2016-01-01T13:15:42Z</time>
      </trkpt>
      <trkpt lat="48.47589" lon="6.93497">
        <ele>438.98</ele>
        <time>2016-01-01T13:15:43Z</time>
      </trkpt>
      <trkpt lat="48.47595" lon="6.93498">
        <ele>435.13</ele>
        <time>2016-01-01T13:15:50Z</time>
      </trkpt>
      <trkpt lat="48.47596" lon="6.93497">
        <ele>438.98</ele>
        <time>2016-01-01T13:15:51Z</time>
      </trkpt>
      <trkpt lat="48.47597" lon="6.93496">
        <ele>435.13</ele>
        <time>2016-01-01T13:15:52Z</time>
      </trkpt>
      <trkpt lat="48.4761" lon="6.93495">
        <ele>435.61</ele>
        <time>2016-01-01T13:16:06Z</time>
      </trkpt>
      <trkpt lat="48.47634" lon="6.93491">
        <ele>433.21</ele>
        <time>2016-01-01T13:16:17Z</time>
      </trkpt>
      <trkpt lat="48.4764" lon="6.9349">
        <ele>431.77</ele>
        <time>2016-01-01T13:16:21Z</time>
      </trkpt>
      <trkpt lat="48.4765" lon="6.9349">
        <ele>431.29</ele>
        <time>2016-01-01T13:16:27Z</time>
      </trkpt>
      <trkpt lat="48.47654" lon="6.93492">
        <ele>430.33</ele>
        <time>2016-01-01T13:16:29Z</time>
      </trkpt>
      <trkpt lat="48.4766" lon="6.93498">
        <ele>429.85</ele>
        <time>2016-01-01T13:16:35Z</time>
      </trkpt>
      <trkpt lat="48.47662" lon="6.935">
        <ele>429.37</ele>
        <time>2016-01-01T13:16:37Z</time>
      </trkpt>
      <trkpt lat="48.47672" lon="6.93512">
        <ele>426.48</ele>
        <time>2016-01-01T13:16:48Z</time>
      </trkpt>
      <trkpt lat="48.47675" lon="6.9352">
        <ele>425.52</ele>
        <time>2016-01-01T13:16:51Z</time>
      </trkpt>
      <trkpt lat="48.47677" lon="6.93527">
        <ele>424.56</ele>
        <time>2016-01-01T13:16:55Z</time>
      </trkpt>
      <trkpt lat="48.47679" lon="6.93531">
        <ele>424.56</ele>
        <time>2016-01-01T13:16:57Z</time>
      </trkpt>
      <trkpt lat="48.47688" lon="6.93541">
        <ele>423.6</ele>
        <time>2016-01-01T13:17:02Z</time>
      </trkpt>
      <trkpt lat="48.477" lon="6.93549">
        <ele>423.6</ele>
        <time>2016-01-01T13:17:08Z</time>
      </trkpt>
      <trkpt lat="48.47705" lon="6.93559">
        <ele>423.6</ele>
        <time>2016-01-01T13:17:13Z</time>
      </trkpt>
      <trkpt lat="48.47715" lon="6.93569">
        <ele>424.56</ele>
        <time>2016-01-01T13:17:20Z</time>
      </trkpt>
      <trkpt lat="48.47715" lon="6.93571">
        <ele>424.56</ele>
        <time>2016-01-01T13:17:22Z</time>
      </trkpt>
      <trkpt lat="48.4772" lon="6.93572">
        <ele>424.56</ele>
        <time>2016-01-01T13:17:27Z</time>
      </trkpt>
      <trkpt lat="48.47726" lon="6.93582">
        <ele>425.04</ele>
        <time>2016-01-01T13:17:37Z</time>
      </trkpt>
      <trkpt lat="48.47727" lon="6.93585">
        <ele>424.56</ele>
        <time>2016-01-01T13:17:40Z</time>
      </trkpt>
      <trkpt lat="48.47728" lon="6.93589">
        <ele>425.04</ele>
        <time>2016-01-01T13:17:42Z</time>
      </trkpt>
      <trkpt lat="48.47727" lon="6.93601">
        <ele>424.56</ele>
        <time>2016-01-01T13:17:47Z</time>
      </trkpt>
      <trkpt lat="48.47726" lon="6.93628">
        <ele>423.12</ele>
        <time>2016-01-01T13:17:59Z</time>
      </trkpt>
      <trkpt lat="48.47728" lon="6.93656">
        <ele>424.08</ele>
        <time>2016-01-01T13:18:10Z</time>
      </trkpt>
      <trkpt lat="48.47728" lon="6.93659">
        <ele>423.6</ele>
        <time>2016-01-01T13:18:11Z</time>
      </trkpt>
      <trkpt lat="48.47729" lon="6.93676">
        <ele>424.56</ele>
        <time>2016-01-01T13:18:20Z</time>
      </trkpt>
      <trkpt lat="48.47729" lon="6.93683">
        <ele>425.52</ele>
        <time>2016-01-01T13:18:23Z</time>
      </trkpt>
      <trkpt lat="48.4773" lon="6.93688">
        <ele>426</ele>
        <time>2016-01-01T13:18:26Z</time>
      </trkpt>
      <trkpt lat="48.4773" lon="6.93694">
        <ele>426</ele>
        <time>2016-01-01T13:18:29Z</time>
      </trkpt>
      <trkpt lat="48.47732" lon="6.93698">
        <ele>426</ele>
        <time>2016-01-01T13:18:31Z</time>
      </trkpt>
      <trkpt lat="48.47733" lon="6.93706">
        <ele>426</ele>
        <time>2016-01-01T13:18:34Z</time>
      </trkpt>
      <trkpt lat="48.47734" lon="6.93714">
        <ele>426.96</ele>
        <time>2016-01-01T13:18:39Z</time>
      </trkpt>
      <trkpt lat="48.47736" lon="6.93723">
        <ele>426.48</ele>
        <time>2016-01-01T13:18:45Z</time>
      </trkpt>
      <trkpt lat="48.47737" lon="6.93749">
        <ele>426.48</ele>
        <time>2016-01-01T13:18:55Z</time>
      </trkpt>
      <trkpt lat="48.47738" lon="6.93791">
        <ele>426.96</ele>
        <time>2016-01-01T13:19:04Z</time>
      </trkpt>
      <trkpt lat="48.47747" lon="6.93819">
        <ele>427.92</ele>
        <time>2016-01-01T13:19:17Z</time>
      </trkpt>
      <trkpt lat="48.47762" lon="6.93839">
        <ele>428.89</ele>
        <time>2016-01-01T13:19:29Z</time>
      </trkpt>
      <trkpt lat="48.47768" lon="6.93847">
        <ele>429.37</ele>
        <time>2016-01-01T13:19:34Z</time>
      </trkpt>
      <trkpt lat="48.47782" lon="6.93857">
        <ele>430.33</ele>
        <time>2016-01-01T13:19:44Z</time>
      </trkpt>
      <trkpt lat="48.47793" lon="6.93871">
        <ele>430.33</ele>
        <time>2016-01-01T13:19:53Z</time>
      </trkpt>
      <trkpt lat="48.47812" lon="6.93886">
        <ele>430.81</ele>
        <time>2016-01-01T13:20:05Z</time>
      </trkpt>
      <trkpt lat="48.47819" lon="6.93895">
        <ele>430.33</ele>
        <time>2016-01-01T13:20:11Z</time>
      </trkpt>
      <trkpt lat="48.47825" lon="6.939">
        <ele>429.85</ele>
        <time>2016-01-01T13:20:15Z</time>
      </trkpt>
      <trkpt lat="48.47828" lon="6.93902">
        <ele>429.37</ele>
        <time>2016-01-01T13:20:17Z</time>
      </trkpt>
      <trkpt lat="48.47842" lon="6.93915">
        <ele>428.4</ele>
        <time>2016-01-01T13:20:27Z</time>
      </trkpt>
      <trkpt lat="48.47849" lon="6.9392">
        <ele>427.92</ele>
        <time>2016-01-01T13:20:32Z</time>
      </trkpt>
      <trkpt lat="48.47852" lon="6.93921">
        <ele>427.44</ele>
        <time>2016-01-01T13:20:34Z</time>
      </trkpt>
      <trkpt lat="48.47867" lon="6.9393">
        <ele>427.44</ele>
        <time>2016-01-01T13:20:45Z</time>
      </trkpt>
      <trkpt lat="48.47885" lon="6.93933">
        <ele>426.96</ele>
        <time>2016-01-01T13:20:57Z</time>
      </trkpt>
      <trkpt lat="48.47887" lon="6.93933">
        <ele>427.44</ele>
        <time>2016-01-01T13:20:58Z</time>
      </trkpt>
      <trkpt lat="48.4789" lon="6.93934">
        <ele>427.92</ele>
        <time>2016-01-01T13:21:00Z</time>
      </trkpt>
      <trkpt lat="48.47897" lon="6.93932">
        <ele>427.92</ele>
        <time>2016-01-01T13:21:04Z</time>
      </trkpt>
      <trkpt lat="48.47918" lon="6.93932">
        <ele>427.92</ele>
        <time>2016-01-01T13:21:15Z</time>
      </trkpt>
      <trkpt lat="48.47922" lon="6.93934">
        <ele>428.4</ele>
        <time>2016-01-01T13:21:18Z</time>
      </trkpt>
      <trkpt lat="48.47929" lon="6.93932">
        <ele>428.4</ele>
        <time>2016-01-01T13:21:22Z</time>
      </trkpt>
      <trkpt lat="48.47933" lon="6.9393">
        <ele>428.4</ele>
        <time>2016-01-01T13:21:25Z</time>
      </trkpt>
      <trkpt lat="48.47937" lon="6.93929">
        <ele>428.4</ele>
        <time>2016-01-01T13:21:28Z</time>
      </trkpt>
      <trkpt lat="48.47951" lon="6.93924">
        <ele>426.96</ele>
        <time>2016-01-01T13:21:35Z</time>
      </trkpt>
      <trkpt lat="48.4796" lon="6.93922">
        <ele>426.96</ele>
        <time>2016-01-01T13:21:40Z</time>
      </trkpt>
      <trkpt lat="48.47981" lon="6.93925">
        <ele>425.04</ele>
        <time>2016-01-01T13:21:53Z</time>
      </trkpt>
      <trkpt lat="48.47984" lon="6.93926">
        <ele>424.56</ele>
        <time>2016-01-01T13:21:55Z</time>
      </trkpt>
      <trkpt lat="48.47991" lon="6.93929">
        <ele>423.6</ele>
        <time>2016-01-01T13:21:59Z</time>
      </trkpt>
      <trkpt lat="48.48004" lon="6.9393">
        <ele>422.64</ele>
        <time>2016-01-01T13:22:10Z</time>
      </trkpt>
      <trkpt lat="48.48012" lon="6.93928">
        <ele>424.56</ele>
        <time>2016-01-01T13:22:17Z</time>
      </trkpt>
      <trkpt lat="48.48031" lon="6.93919">
        <ele>426.48</ele>
        <time>2016-01-01T13:22:30Z</time>
      </trkpt>
      <trkpt lat="48.48033" lon="6.93917">
        <ele>426.96</ele>
        <time>2016-01-01T13:22:31Z</time>
      </trkpt>
      <trkpt lat="48.48043" lon="6.93913">
        <ele>427.92</ele>
        <time>2016-01-01T13:22:37Z</time>
      </trkpt>
      <trkpt lat="48.48058" lon="6.93909">
        <ele>429.85</ele>
        <time>2016-01-01T13:22:48Z</time>
      </trkpt>
      <trkpt lat="48.48061" lon="6.93907">
        <ele>430.81</ele>
        <time>2016-01-01T13:22:50Z</time>
      </trkpt>
      <trkpt lat="48.48076" lon="6.93901">
        <ele>432.73</ele>
        <time>2016-01-01T13:23:02Z</time>
      </trkpt>
      <trkpt lat="48.48078" lon="6.93901">
        <ele>433.21</ele>
        <time>2016-01-01T13:23:03Z</time>
      </trkpt>
      <trkpt lat="48.48085" lon="6.939">
        <ele>433.21</ele>
        <time>2016-01-01T13:23:08Z</time>
      </trkpt>
      <trkpt lat="48.48105" lon="6.93896">
        <ele>435.61</ele>
        <time>2016-01-01T13:23:21Z</time>
      </trkpt>
      <trkpt lat="48.48122" lon="6.93896">
        <ele>438.5</ele>
        <time>2016-01-01T13:23:35Z</time>
      </trkpt>
      <trkpt lat="48.48124" lon="6.93896">
        <ele>438.5</ele>
        <time>2016-01-01T13:23:37Z</time>
      </trkpt>
      <trkpt lat="48.48138" lon="6.93894">
        <ele>440.9</ele>
        <time>2016-01-01T13:23:48Z</time>
      </trkpt>
      <trkpt lat="48.48153" lon="6.93891">
        <ele>443.79</ele>
        <time>2016-01-01T13:24:01Z</time>
      </trkpt>
      <trkpt lat="48.48168" lon="6.93891">
        <ele>445.23</ele>
        <time>2016-01-01T13:24:12Z</time>
      </trkpt>
      <trkpt lat="48.48185" lon="6.93892">
        <ele>446.67</ele>
        <time>2016-01-01T13:24:25Z</time>
      </trkpt>
      <trkpt lat="48.48195" lon="6.93895">
        <ele>448.59</ele>
        <time>2016-01-01T13:24:34Z</time>
      </trkpt>
      <trkpt lat="48.48207" lon="6.93894">
        <ele>450.03</ele>
        <time>2016-01-01T13:24:43Z</time>
      </trkpt>
      <trkpt lat="48.48217" lon="6.93893">
        <ele>451</ele>
        <time>2016-01-01T13:24:49Z</time>
      </trkpt>
      <trkpt lat="48.48226" lon="6.93896">
        <ele>452.92</ele>
        <time>2016-01-01T13:24:59Z</time>
      </trkpt>
      <trkpt lat="48.48239" lon="6.93893">
        <ele>454.84</ele>
        <time>2016-01-01T13:25:07Z</time>
      </trkpt>
      <trkpt lat="48.48251" lon="6.93888">
        <ele>454.84</ele>
        <time>2016-01-01T13:25:15Z</time>
      </trkpt>
      <trkpt lat="48.48256" lon="6.93891">
        <ele>455.32</ele>
        <time>2016-01-01T13:25:20Z</time>
      </trkpt>
      <trkpt lat="48.48272" lon="6.93895">
        <ele>458.21</ele>
        <time>2016-01-01T13:25:33Z</time>
      </trkpt>
      <trkpt lat="48.48284" lon="6.93903">
        <ele>460.13</ele>
        <time>2016-01-01T13:25:45Z</time>
      </trkpt>
      <trkpt lat="48.48291" lon="6.9391">
        <ele>461.57</ele>
        <time>2016-01-01T13:25:51Z</time>
      </trkpt>
      <trkpt lat="48.48298" lon="6.93929">
        <ele>463.49</ele>
        <time>2016-01-01T13:26:03Z</time>
      </trkpt>
      <trkpt lat="48.48298" lon="6.9393">
        <ele>463.97</ele>
        <time>2016-01-01T13:26:04Z</time>
      </trkpt>
      <trkpt lat="48.48308" lon="6.93946">
        <ele>466.86</ele>
        <time>2016-01-01T13:26:17Z</time>
      </trkpt>
      <trkpt lat="48.48309" lon="6.93945">
        <ele>466.86</ele>
        <time>2016-01-01T13:26:18Z</time>
      </trkpt>
      <trkpt lat="48.4831" lon="6.9394">
        <ele>467.34</ele>
        <time>2016-01-01T13:26:22Z</time>
      </trkpt>
      <trkpt lat="48.48312" lon="6.93934">
        <ele>467.82</ele>
        <time>2016-01-01T13:26:25Z</time>
      </trkpt>
      <trkpt lat="48.48314" lon="6.93931">
        <ele>468.78</ele>
        <time>2016-01-01T13:26:28Z</time>
      </trkpt>
      <trkpt lat="48.48317" lon="6.93915">
        <ele>470.22</ele>
        <time>2016-01-01T13:26:38Z</time>
      </trkpt>
      <trkpt lat="48.48317" lon="6.93911">
        <ele>470.22</ele>
        <time>2016-01-01T13:26:40Z</time>
      </trkpt>
      <trkpt lat="48.48318" lon="6.93906">
        <ele>471.18</ele>
        <time>2016-01-01T13:26:44Z</time>
      </trkpt>
      <trkpt lat="48.48318" lon="6.93886">
        <ele>473.11</ele>
        <time>2016-01-01T13:26:56Z</time>
      </trkpt>
      <trkpt lat="48.48319" lon="6.93878">
        <ele>474.55</ele>
        <time>2016-01-01T13:27:01Z</time>
      </trkpt>
      <trkpt lat="48.48321" lon="6.93871">
        <ele>475.51</ele>
        <time>2016-01-01T13:27:06Z</time>
      </trkpt>
      <trkpt lat="48.48326" lon="6.93857">
        <ele>476.95</ele>
        <time>2016-01-01T13:27:17Z</time>
      </trkpt>
      <trkpt lat="48.4833" lon="6.93851">
        <ele>477.91</ele>
        <time>2016-01-01T13:27:21Z</time>
      </trkpt>
      <trkpt lat="48.48334" lon="6.93848">
        <ele>477.91</ele>
        <time>2016-01-01T13:27:25Z</time>
      </trkpt>
      <trkpt lat="48.48346" lon="6.9384">
        <ele>478.39</ele>
        <time>2016-01-01T13:27:33Z</time>
      </trkpt>
      <trkpt lat="48.48351" lon="6.93829">
        <ele>478.39</ele>
        <time>2016-01-01T13:27:39Z</time>
      </trkpt>
      <trkpt lat="48.4836" lon="6.93835">
        <ele>479.35</ele>
        <time>2016-01-01T13:27:50Z</time>
      </trkpt>
      <trkpt lat="48.48364" lon="6.9384">
        <ele>479.84</ele>
        <time>2016-01-01T13:28:05Z</time>
      </trkpt>
      <trkpt lat="48.48365" lon="6.93842">
        <ele>480.32</ele>
        <time>2016-01-01T13:28:17Z</time>
      </trkpt>
      <trkpt lat="48.48364" lon="6.93853">
        <ele>480.8</ele>
        <time>2016-01-01T13:28:30Z</time>
      </trkpt>
      <trkpt lat="48.48364" lon="6.93853">
        <ele>480.32</ele>
        <time>2016-01-01T13:28:55Z</time>
      </trkpt>
      <trkpt lat="48.48366" lon="6.93851">
        <ele>479.84</ele>
        <time>2016-01-01T13:29:12Z</time>
      </trkpt>
      <trkpt lat="48.48367" lon="6.93851">
        <ele>480.32</ele>
        <time>2016-01-01T13:29:21Z</time>
      </trkpt>
      <trkpt lat="48.4837" lon="6.93858">
        <ele>480.8</ele>
        <time>2016-01-01T13:29:36Z</time>
      </trkpt>
      <trkpt lat="48.48372" lon="6.93864">
        <ele>480.8</ele>
        <time>2016-01-01T13:29:41Z</time>
      </trkpt>
      <trkpt lat="48.48379" lon="6.9388">
        <ele>481.28</ele>
        <time>2016-01-01T13:29:54Z</time>
      </trkpt>
      <trkpt lat="48.48379" lon="6.93879">
        <ele>480.8</ele>
        <time>2016-01-01T13:29:56Z</time>
      </trkpt>
      <trkpt lat="48.4838" lon="6.93883">
        <ele>481.28</ele>
        <time>2016-01-01T13:29:59Z</time>
      </trkpt>
      <trkpt lat="48.48382" lon="6.9389">
        <ele>481.76</ele>
        <time>2016-01-01T13:30:03Z</time>
      </trkpt>
      <trkpt lat="48.48385" lon="6.93896">
        <ele>481.76</ele>
        <time>2016-01-01T13:30:07Z</time>
      </trkpt>
      <trkpt lat="48.48388" lon="6.93916">
        <ele>482.24</ele>
        <time>2016-01-01T13:30:17Z</time>
      </trkpt>
      <trkpt lat="48.48388" lon="6.93928">
        <ele>482.24</ele>
        <time>2016-01-01T13:30:22Z</time>
      </trkpt>
      <trkpt lat="48.48386" lon="6.93954">
        <ele>483.2</ele>
        <time>2016-01-01T13:30:34Z</time>
      </trkpt>
      <trkpt lat="48.48386" lon="6.93956">
        <ele>483.2</ele>
        <time>2016-01-01T13:30:35Z</time>
      </trkpt>
      <trkpt lat="48.48386" lon="6.93966">
        <ele>483.2</ele>
        <time>2016-01-01T13:30:40Z</time>
      </trkpt>
      <trkpt lat="48.48387" lon="6.93975">
        <ele>483.68</ele>
        <time>2016-01-01T13:30:44Z</time>
      </trkpt>
      <trkpt lat="48.48387" lon="6.93979">
        <ele>483.2</ele>
        <time>2016-01-01T13:30:46Z</time>
      </trkpt>
      <trkpt lat="48.48383" lon="6.9401">
        <ele>487.05</ele>
        <time>2016-01-01T13:31:01Z</time>
      </trkpt>
      <trkpt lat="48.48384" lon="6.94024">
        <ele>485.6</ele>
        <time>2016-01-01T13:31:07Z</time>
      </trkpt>
      <trkpt lat="48.48386" lon="6.94053">
        <ele>487.05</ele>
        <time>2016-01-01T13:31:20Z</time>
      </trkpt>
      <trkpt lat="48.48386" lon="6.94059">
        <ele>487.53</ele>
        <time>2016-01-01T13:31:23Z</time>
      </trkpt>
      <trkpt lat="48.48388" lon="6.94077">
        <ele>488.49</ele>
        <time>2016-01-01T13:31:32Z</time>
      </trkpt>
      <trkpt lat="48.48389" lon="6.94101">
        <ele>489.45</ele>
        <time>2016-01-01T13:31:42Z</time>
      </trkpt>
      <trkpt lat="48.48389" lon="6.94103">
        <ele>488.97</ele>
        <time>2016-01-01T13:31:43Z</time>
      </trkpt>
      <trkpt lat="48.48387" lon="6.9413">
        <ele>489.93</ele>
        <time>2016-01-01T13:31:56Z</time>
      </trkpt>
      <trkpt lat="48.48387" lon="6.94135">
        <ele>489.45</ele>
        <time>2016-01-01T13:31:58Z</time>
      </trkpt>
      <trkpt lat="48.48386" lon="6.94145">
        <ele>489.45</ele>
        <time>2016-01-01T13:32:03Z</time>
      </trkpt>
      <trkpt lat="48.48382" lon="6.9417">
        <ele>489.93</ele>
        <time>2016-01-01T13:32:14Z</time>
      </trkpt>
      <trkpt lat="48.48379" lon="6.94183">
        <ele>490.89</ele>
        <time>2016-01-01T13:32:20Z</time>
      </trkpt>
      <trkpt lat="48.48379" lon="6.94187">
        <ele>490.41</ele>
        <time>2016-01-01T13:32:22Z</time>
      </trkpt>
      <trkpt lat="48.48379" lon="6.94195">
        <ele>490.89</ele>
        <time>2016-01-01T13:32:26Z</time>
      </trkpt>
      <trkpt lat="48.48378" lon="6.94207">
        <ele>491.37</ele>
        <time>2016-01-01T13:32:31Z</time>
      </trkpt>
      <trkpt lat="48.48377" lon="6.94219">
        <ele>491.85</ele>
        <time>2016-01-01T13:32:35Z</time>
      </trkpt>
      <trkpt lat="48.48375" lon="6.94232">
        <ele>492.81</ele>
        <time>2016-01-01T13:32:41Z</time>
      </trkpt>
      <trkpt lat="48.48372" lon="6.94249">
        <ele>492.81</ele>
        <time>2016-01-01T13:32:51Z</time>
      </trkpt>
      <trkpt lat="48.48371" lon="6.94256">
        <ele>493.29</ele>
        <time>2016-01-01T13:32:54Z</time>
      </trkpt>
      <trkpt lat="48.48365" lon="6.94291">
        <ele>493.77</ele>
        <time>2016-01-01T13:33:08Z</time>
      </trkpt>
      <trkpt lat="48.48364" lon="6.943">
        <ele>493.77</ele>
        <time>2016-01-01T13:33:13Z</time>
      </trkpt>
      <trkpt lat="48.48361" lon="6.94314">
        <ele>494.26</ele>
        <time>2016-01-01T13:33:20Z</time>
      </trkpt>
      <trkpt lat="48.48358" lon="6.94325">
        <ele>494.26</ele>
        <time>2016-01-01T13:33:25Z</time>
      </trkpt>
      <trkpt lat="48.48345" lon="6.94339">
        <ele>494.26</ele>
        <time>2016-01-01T13:33:37Z</time>
      </trkpt>
      <trkpt lat="48.48339" lon="6.94344">
        <ele>494.26</ele>
        <time>2016-01-01T13:33:41Z</time>
      </trkpt>
      <trkpt lat="48.4832" lon="6.94359">
        <ele>495.22</ele>
        <time>2016-01-01T13:33:53Z</time>
      </trkpt>
      <trkpt lat="48.48305" lon="6.9437">
        <ele>497.14</ele>
        <time>2016-01-01T13:34:05Z</time>
      </trkpt>
      <trkpt lat="48.48291" lon="6.94378">
        <ele>498.1</ele>
        <time>2016-01-01T13:34:16Z</time>
      </trkpt>
      <trkpt lat="48.48272" lon="6.94374">
        <ele>497.62</ele>
        <time>2016-01-01T13:34:27Z</time>
      </trkpt>
      <trkpt lat="48.48267" lon="6.94371">
        <ele>497.62</ele>
        <time>2016-01-01T13:34:30Z</time>
      </trkpt>
      <trkpt lat="48.48249" lon="6.94362">
        <ele>497.62</ele>
        <time>2016-01-01T13:34:43Z</time>
      </trkpt>
      <trkpt lat="48.48248" lon="6.94361">
        <ele>497.14</ele>
        <time>2016-01-01T13:34:44Z</time>
      </trkpt>
      <trkpt lat="48.4824" lon="6.94348">
        <ele>496.66</ele>
        <time>2016-01-01T13:34:51Z</time>
      </trkpt>
      <trkpt lat="48.48238" lon="6.94344">
        <ele>491.85</ele>
        <time>2016-01-01T13:34:54Z</time>
      </trkpt>
      <trkpt lat="48.48237" lon="6.94343">
        <ele>496.66</ele>
        <time>2016-01-01T13:34:55Z</time>
      </trkpt>
      <trkpt lat="48.48225" lon="6.94326">
        <ele>490.41</ele>
        <time>2016-01-01T13:35:08Z</time>
      </trkpt>
      <trkpt lat="48.48224" lon="6.94324">
        <ele>494.26</ele>
        <time>2016-01-01T13:35:09Z</time>
      </trkpt>
      <trkpt lat="48.48219" lon="6.94319">
        <ele>489.93</ele>
        <time>2016-01-01T13:35:13Z</time>
      </trkpt>
      <trkpt lat="48.48218" lon="6.94318">
        <ele>496.18</ele>
        <time>2016-01-01T13:35:14Z</time>
      </trkpt>
      <trkpt lat="48.48215" lon="6.94316">
        <ele>486.08</ele>
        <time>2016-01-01T13:35:16Z</time>
      </trkpt>
      <trkpt lat="48.48214" lon="6.94314">
        <ele>493.29</ele>
        <time>2016-01-01T13:35:17Z</time>
      </trkpt>
      <trkpt lat="48.4821" lon="6.94312">
        <ele>493.29</ele>
        <time>2016-01-01T13:35:20Z</time>
      </trkpt>
      <trkpt lat="48.48208" lon="6.94312">
        <ele>494.26</ele>
        <time>2016-01-01T13:35:22Z</time>
      </trkpt>
      <trkpt lat="48.48202" lon="6.94313">
        <ele>493.29</ele>
        <time>2016-01-01T13:35:28Z</time>
      </trkpt>
      <trkpt lat="48.48194" lon="6.94323">
        <ele>491.85</ele>
        <time>2016-01-01T13:35:39Z</time>
      </trkpt>
      <trkpt lat="48.48193" lon="6.94327">
        <ele>490.41</ele>
        <time>2016-01-01T13:35:49Z</time>
      </trkpt>
      <trkpt lat="48.48191" lon="6.94332">
        <ele>488.01</ele>
        <time>2016-01-01T13:36:07Z</time>
      </trkpt>
      <trkpt lat="48.48188" lon="6.94346">
        <ele>484.64</ele>
        <time>2016-01-01T13:36:15Z</time>
      </trkpt>
      <trkpt lat="48.48186" lon="6.94354">
        <ele>482.72</ele>
        <time>2016-01-01T13:36:23Z</time>
      </trkpt>
      <trkpt lat="48.48187" lon="6.94363">
        <ele>482.24</ele>
        <time>2016-01-01T13:36:38Z</time>
      </trkpt>
      <trkpt lat="48.48189" lon="6.94363">
        <ele>481.28</ele>
        <time>2016-01-01T13:36:50Z</time>
      </trkpt>
      <trkpt lat="48.48191" lon="6.94373">
        <ele>481.28</ele>
        <time>2016-01-01T13:37:03Z</time>
      </trkpt>
      <trkpt lat="48.48195" lon="6.94374">
        <ele>483.2</ele>
        <time>2016-01-01T13:37:09Z</time>
      </trkpt>
      <trkpt lat="48.48197" lon="6.94382">
        <ele>484.64</ele>
        <time>2016-01-01T13:37:21Z</time>
      </trkpt>
      <trkpt lat="48.48197" lon="6.94387">
        <ele>485.12</ele>
        <time>2016-01-01T13:37:40Z</time>
      </trkpt>
      <trkpt lat="48.48198" lon="6.94388">
        <ele>484.64</ele>
        <time>2016-01-01T13:37:57Z</time>
      </trkpt>
      <trkpt lat="48.48198" lon="6.94386">
        <ele>484.64</ele>
        <time>2016-01-01T13:38:15Z</time>
      </trkpt>
      <trkpt lat="48.48198" lon="6.94386">
        <ele>485.12</ele>
        <time>2016-01-01T13:38:43Z</time>
      </trkpt>
      <trkpt lat="48.48199" lon="6.94399">
        <ele>483.68</ele>
        <time>2016-01-01T13:38:53Z</time>
      </trkpt>
      <trkpt lat="48.48201" lon="6.94405">
        <ele>481.76</ele>
        <time>2016-01-01T13:38:57Z</time>
      </trkpt>
      <trkpt lat="48.48211" lon="6.94418">
        <ele>485.12</ele>
        <time>2016-01-01T13:39:09Z</time>
      </trkpt>
      <trkpt lat="48.48211" lon="6.9442">
        <ele>485.12</ele>
        <time>2016-01-01T13:39:10Z</time>
      </trkpt>
      <trkpt lat="48.48211" lon="6.94425">
        <ele>484.64</ele>
        <time>2016-01-01T13:39:12Z</time>
      </trkpt>
      <trkpt lat="48.48219" lon="6.94437">
        <ele>486.56</ele>
        <time>2016-01-01T13:39:21Z</time>
      </trkpt>
      <trkpt lat="48.48222" lon="6.94449">
        <ele>487.53</ele>
        <time>2016-01-01T13:39:28Z</time>
      </trkpt>
      <trkpt lat="48.48226" lon="6.94466">
        <ele>490.41</ele>
        <time>2016-01-01T13:39:39Z</time>
      </trkpt>
      <trkpt lat="48.48231" lon="6.94485">
        <ele>489.93</ele>
        <time>2016-01-01T13:39:48Z</time>
      </trkpt>
      <trkpt lat="48.48236" lon="6.94509">
        <ele>488.97</ele>
        <time>2016-01-01T13:39:59Z</time>
      </trkpt>
      <trkpt lat="48.48244" lon="6.94521">
        <ele>488.01</ele>
        <time>2016-01-01T13:40:09Z</time>
      </trkpt>
      <trkpt lat="48.48247" lon="6.94529">
        <ele>487.05</ele>
        <time>2016-01-01T13:40:14Z</time>
      </trkpt>
      <trkpt lat="48.48245" lon="6.94551">
        <ele>484.64</ele>
        <time>2016-01-01T13:40:24Z</time>
      </trkpt>
      <trkpt lat="48.48247" lon="6.94555">
        <ele>483.68</ele>
        <time>2016-01-01T13:40:29Z</time>
      </trkpt>
      <trkpt lat="48.48253" lon="6.94562">
        <ele>483.2</ele>
        <time>2016-01-01T13:40:38Z</time>
      </trkpt>
      <trkpt lat="48.48258" lon="6.94591">
        <ele>484.16</ele>
        <time>2016-01-01T13:40:52Z</time>
      </trkpt>
      <trkpt lat="48.48266" lon="6.94596">
        <ele>487.53</ele>
        <time>2016-01-01T13:41:03Z</time>
      </trkpt>
      <trkpt lat="48.48268" lon="6.94596">
        <ele>488.01</ele>
        <time>2016-01-01T13:41:07Z</time>
      </trkpt>
      <trkpt lat="48.48272" lon="6.94601">
        <ele>490.41</ele>
        <time>2016-01-01T13:41:14Z</time>
      </trkpt>
      <trkpt lat="48.48272" lon="6.94603">
        <ele>490.41</ele>
        <time>2016-01-01T13:41:15Z</time>
      </trkpt>
      <trkpt lat="48.48274" lon="6.94605">
        <ele>490.89</ele>
        <time>2016-01-01T13:41:17Z</time>
      </trkpt>
      <trkpt lat="48.48276" lon="6.94613">
        <ele>490.89</ele>
        <time>2016-01-01T13:41:20Z</time>
      </trkpt>
      <trkpt lat="48.48277" lon="6.94629">
        <ele>490.41</ele>
        <time>2016-01-01T13:41:26Z</time>
      </trkpt>
      <trkpt lat="48.48277" lon="6.94636">
        <ele>490.89</ele>
        <time>2016-01-01T13:41:29Z</time>
      </trkpt>
      <trkpt lat="48.48274" lon="6.94652">
        <ele>492.33</ele>
        <time>2016-01-01T13:41:35Z</time>
      </trkpt>
      <trkpt lat="48.48278" lon="6.94663">
        <ele>491.85</ele>
        <time>2016-01-01T13:41:40Z</time>
      </trkpt>
      <trkpt lat="48.48281" lon="6.94677">
        <ele>490.89</ele>
        <time>2016-01-01T13:41:48Z</time>
      </trkpt>
      <trkpt lat="48.48284" lon="6.94681">
        <ele>490.89</ele>
        <time>2016-01-01T13:41:51Z</time>
      </trkpt>
      <trkpt lat="48.48284" lon="6.94688">
        <ele>489.45</ele>
        <time>2016-01-01T13:41:54Z</time>
      </trkpt>
      <trkpt lat="48.48283" lon="6.94696">
        <ele>488.49</ele>
        <time>2016-01-01T13:41:58Z</time>
      </trkpt>
      <trkpt lat="48.48282" lon="6.94699">
        <ele>487.53</ele>
        <time>2016-01-01T13:42:00Z</time>
      </trkpt>
      <trkpt lat="48.48286" lon="6.94707">
        <ele>487.05</ele>
        <time>2016-01-01T13:42:03Z</time>
      </trkpt>
      <trkpt lat="48.48294" lon="6.94726">
        <ele>487.53</ele>
        <time>2016-01-01T13:42:15Z</time>
      </trkpt>
      <trkpt lat="48.48298" lon="6.94737">
        <ele>487.53</ele>
        <time>2016-01-01T13:42:23Z</time>
      </trkpt>
      <trkpt lat="48.48299" lon="6.94749">
        <ele>486.56</ele>
        <time>2016-01-01T13:42:28Z</time>
      </trkpt>
      <trkpt lat="48.48302" lon="6.9476">
        <ele>488.49</ele>
        <time>2016-01-01T13:42:36Z</time>
      </trkpt>
      <trkpt lat="48.48305" lon="6.94768">
        <ele>488.01</ele>
        <time>2016-01-01T13:42:40Z</time>
      </trkpt>
      <trkpt lat="48.48309" lon="6.94774">
        <ele>488.49</ele>
        <time>2016-01-01T13:42:44Z</time>
      </trkpt>
      <trkpt lat="48.48317" lon="6.94791">
        <ele>488.97</ele>
        <time>2016-01-01T13:42:53Z</time>
      </trkpt>
      <trkpt lat="48.48319" lon="6.94794">
        <ele>488.97</ele>
        <time>2016-01-01T13:42:55Z</time>
      </trkpt>
      <trkpt lat="48.48321" lon="6.94798">
        <ele>489.93</ele>
        <time>2016-01-01T13:42:57Z</time>
      </trkpt>
      <trkpt lat="48.48322" lon="6.94801">
        <ele>490.41</ele>
        <time>2016-01-01T13:42:59Z</time>
      </trkpt>
      <trkpt lat="48.48324" lon="6.9481">
        <ele>490.89</ele>
        <time>2016-01-01T13:43:03Z</time>
      </trkpt>
      <trkpt lat="48.48328" lon="6.94814">
        <ele>492.33</ele>
        <time>2016-01-01T13:43:06Z</time>
      </trkpt>
      <trkpt lat="48.48329" lon="6.94808">
        <ele>493.77</ele>
        <time>2016-01-01T13:43:11Z</time>
      </trkpt>
      <trkpt lat="48.48336" lon="6.94813">
        <ele>497.14</ele>
        <time>2016-01-01T13:43:20Z</time>
      </trkpt>
      <trkpt lat="48.48336" lon="6.94814">
        <ele>497.62</ele>
        <time>2016-01-01T13:43:21Z</time>
      </trkpt>
      <trkpt lat="48.48346" lon="6.94835">
        <ele>499.06</ele>
        <time>2016-01-01T13:43:32Z</time>
      </trkpt>
      <trkpt lat="48.48351" lon="6.94838">
        <ele>500.98</ele>
        <time>2016-01-01T13:43:37Z</time>
      </trkpt>
      <trkpt lat="48.48351" lon="6.94839">
        <ele>501.46</ele>
        <time>2016-01-01T13:43:38Z</time>
      </trkpt>
      <trkpt lat="48.48352" lon="6.94843">
        <ele>501.46</ele>
        <time>2016-01-01T13:43:39Z</time>
      </trkpt>
      <trkpt lat="48.48357" lon="6.94856">
        <ele>501.46</ele>
        <time>2016-01-01T13:43:44Z</time>
      </trkpt>
      <trkpt lat="48.48363" lon="6.94865">
        <ele>501.46</ele>
        <time>2016-01-01T13:43:49Z</time>
      </trkpt>
      <trkpt lat="48.48371" lon="6.9488">
        <ele>504.35</ele>
        <time>2016-01-01T13:44:01Z</time>
      </trkpt>
      <trkpt lat="48.48377" lon="6.94888">
        <ele>503.87</ele>
        <time>2016-01-01T13:44:11Z</time>
      </trkpt>
      <trkpt lat="48.48377" lon="6.94888">
        <ele>504.35</ele>
        <time>2016-01-01T13:44:13Z</time>
      </trkpt>
      <trkpt lat="48.48382" lon="6.94897">
        <ele>502.91</ele>
        <time>2016-01-01T13:44:25Z</time>
      </trkpt>
      <trkpt lat="48.48385" lon="6.94914">
        <ele>502.91</ele>
        <time>2016-01-01T13:44:36Z</time>
      </trkpt>
      <trkpt lat="48.48386" lon="6.94919">
        <ele>503.39</ele>
        <time>2016-01-01T13:44:46Z</time>
      </trkpt>
      <trkpt lat="48.48391" lon="6.94925">
        <ele>505.31</ele>
        <time>2016-01-01T13:45:00Z</time>
      </trkpt>
      <trkpt lat="48.48393" lon="6.94929">
        <ele>506.27</ele>
        <time>2016-01-01T13:45:04Z</time>
      </trkpt>
      <trkpt lat="48.48397" lon="6.94935">
        <ele>508.67</ele>
        <time>2016-01-01T13:45:16Z</time>
      </trkpt>
      <trkpt lat="48.48399" lon="6.94939">
        <ele>508.19</ele>
        <time>2016-01-01T13:45:25Z</time>
      </trkpt>
      <trkpt lat="48.48398" lon="6.94946">
        <ele>509.64</ele>
        <time>2016-01-01T13:45:28Z</time>
      </trkpt>
      <trkpt lat="48.48401" lon="6.94955">
        <ele>513</ele>
        <time>2016-01-01T13:45:39Z</time>
      </trkpt>
      <trkpt lat="48.48403" lon="6.94954">
        <ele>513.48</ele>
        <time>2016-01-01T13:45:55Z</time>
      </trkpt>
      <trkpt lat="48.48407" lon="6.94956">
        <ele>514.44</ele>
        <time>2016-01-01T13:46:04Z</time>
      </trkpt>
      <trkpt lat="48.48405" lon="6.94962">
        <ele>514.44</ele>
        <time>2016-01-01T13:46:14Z</time>
      </trkpt>
      <trkpt lat="48.48404" lon="6.94969">
        <ele>514.44</ele>
        <time>2016-01-01T13:46:18Z</time>
      </trkpt>
      <trkpt lat="48.48401" lon="6.94982">
        <ele>515.4</ele>
        <time>2016-01-01T13:46:26Z</time>
      </trkpt>
      <trkpt lat="48.48399" lon="6.94985">
        <ele>516.37</ele>
        <time>2016-01-01T13:46:28Z</time>
      </trkpt>
      <trkpt lat="48.48396" lon="6.94995">
        <ele>516.37</ele>
        <time>2016-01-01T13:46:34Z</time>
      </trkpt>
      <trkpt lat="48.4839" lon="6.95007">
        <ele>517.81</ele>
        <time>2016-01-01T13:46:42Z</time>
      </trkpt>
      <trkpt lat="48.4838" lon="6.95033">
        <ele>518.29</ele>
        <time>2016-01-01T13:46:54Z</time>
      </trkpt>
      <trkpt lat="48.48373" lon="6.95058">
        <ele>520.21</ele>
        <time>2016-01-01T13:47:06Z</time>
      </trkpt>
      <trkpt lat="48.48369" lon="6.95079">
        <ele>521.65</ele>
        <time>2016-01-01T13:47:16Z</time>
      </trkpt>
      <trkpt lat="48.48369" lon="6.95077">
        <ele>521.17</ele>
        <time>2016-01-01T13:47:21Z</time>
      </trkpt>
      <trkpt lat="48.4837" lon="6.95076">
        <ele>521.65</ele>
        <time>2016-01-01T13:47:26Z</time>
      </trkpt>
      <trkpt lat="48.48377" lon="6.95079">
        <ele>521.65</ele>
        <time>2016-01-01T13:47:36Z</time>
      </trkpt>
      <trkpt lat="48.4838" lon="6.95087">
        <ele>523.09</ele>
        <time>2016-01-01T13:47:48Z</time>
      </trkpt>
      <trkpt lat="48.48382" lon="6.95089">
        <ele>523.09</ele>
        <time>2016-01-01T13:47:50Z</time>
      </trkpt>
      <trkpt lat="48.48386" lon="6.95095">
        <ele>523.09</ele>
        <time>2016-01-01T13:47:54Z</time>
      </trkpt>
      <trkpt lat="48.48389" lon="6.95101">
        <ele>524.06</ele>
        <time>2016-01-01T13:48:05Z</time>
      </trkpt>
      <trkpt lat="48.48387" lon="6.95102">
        <ele>523.58</ele>
        <time>2016-01-01T13:48:21Z</time>
      </trkpt>
      <trkpt lat="48.48386" lon="6.95103">
        <ele>523.58</ele>
        <time>2016-01-01T13:48:23Z</time>
      </trkpt>
      <trkpt lat="48.48379" lon="6.95107">
        <ele>523.58</ele>
        <time>2016-01-01T13:48:28Z</time>
      </trkpt>
      <trkpt lat="48.48371" lon="6.9511">
        <ele>519.73</ele>
        <time>2016-01-01T13:48:34Z</time>
      </trkpt>
      <trkpt lat="48.48369" lon="6.95111">
        <ele>523.58</ele>
        <time>2016-01-01T13:48:35Z</time>
      </trkpt>
      <trkpt lat="48.48358" lon="6.95118">
        <ele>525.5</ele>
        <time>2016-01-01T13:48:44Z</time>
      </trkpt>
      <trkpt lat="48.48352" lon="6.9512">
        <ele>523.58</ele>
        <time>2016-01-01T13:48:49Z</time>
      </trkpt>
      <trkpt lat="48.48348" lon="6.9512">
        <ele>524.06</ele>
        <time>2016-01-01T13:48:53Z</time>
      </trkpt>
      <trkpt lat="48.48337" lon="6.95136">
        <ele>524.06</ele>
        <time>2016-01-01T13:49:04Z</time>
      </trkpt>
      <trkpt lat="48.48335" lon="6.95138">
        <ele>524.06</ele>
        <time>2016-01-01T13:49:06Z</time>
      </trkpt>
      <trkpt lat="48.4833" lon="6.95145">
        <ele>524.54</ele>
        <time>2016-01-01T13:49:11Z</time>
      </trkpt>
      <trkpt lat="48.48315" lon="6.95161">
        <ele>525.02</ele>
        <time>2016-01-01T13:49:24Z</time>
      </trkpt>
      <trkpt lat="48.48311" lon="6.95164">
        <ele>530.3</ele>
        <time>2016-01-01T13:49:27Z</time>
      </trkpt>
      <trkpt lat="48.4831" lon="6.95166">
        <ele>524.54</ele>
        <time>2016-01-01T13:49:28Z</time>
      </trkpt>
      <trkpt lat="48.48306" lon="6.95169">
        <ele>525.5</ele>
        <time>2016-01-01T13:49:34Z</time>
      </trkpt>
      <trkpt lat="48.48294" lon="6.95175">
        <ele>525.98</ele>
        <time>2016-01-01T13:49:46Z</time>
      </trkpt>
      <trkpt lat="48.48287" lon="6.95181">
        <ele>525.98</ele>
        <time>2016-01-01T13:49:50Z</time>
      </trkpt>
      <trkpt lat="48.48268" lon="6.95197">
        <ele>525.98</ele>
        <time>2016-01-01T13:50:00Z</time>
      </trkpt>
      <trkpt lat="48.48257" lon="6.95207">
        <ele>525.02</ele>
        <time>2016-01-01T13:50:06Z</time>
      </trkpt>
      <trkpt lat="48.4824" lon="6.95206">
        <ele>522.61</ele>
        <time>2016-01-01T13:50:16Z</time>
      </trkpt>
      <trkpt lat="48.48228" lon="6.95202">
        <ele>521.17</ele>
        <time>2016-01-01T13:50:24Z</time>
      </trkpt>
      <trkpt lat="48.48217" lon="6.95198">
        <ele>520.69</ele>
        <time>2016-01-01T13:50:32Z</time>
      </trkpt>
      <trkpt lat="48.48211" lon="6.95198">
        <ele>519.73</ele>
        <time>2016-01-01T13:50:38Z</time>
      </trkpt>
      <trkpt lat="48.48208" lon="6.952">
        <ele>519.73</ele>
        <time>2016-01-01T13:50:41Z</time>
      </trkpt>
      <trkpt lat="48.48205" lon="6.95205">
        <ele>518.77</ele>
        <time>2016-01-01T13:50:46Z</time>
      </trkpt>
      <trkpt lat="48.482" lon="6.95223">
        <ele>518.29</ele>
        <time>2016-01-01T13:50:58Z</time>
      </trkpt>
      <trkpt lat="48.48197" lon="6.9523">
        <ele>517.33</ele>
        <time>2016-01-01T13:51:02Z</time>
      </trkpt>
      <trkpt lat="48.48192" lon="6.95237">
        <ele>515.88</ele>
        <time>2016-01-01T13:51:10Z</time>
      </trkpt>
      <trkpt lat="48.48189" lon="6.9524">
        <ele>515.88</ele>
        <time>2016-01-01T13:51:12Z</time>
      </trkpt>
      <trkpt lat="48.48179" lon="6.95248">
        <ele>514.92</ele>
        <time>2016-01-01T13:51:18Z</time>
      </trkpt>
      <trkpt lat="48.48167" lon="6.95255">
        <ele>514.44</ele>
        <time>2016-01-01T13:51:25Z</time>
      </trkpt>
      <trkpt lat="48.48159" lon="6.9526">
        <ele>513.96</ele>
        <time>2016-01-01T13:51:31Z</time>
      </trkpt>
      <trkpt lat="48.48148" lon="6.95266">
        <ele>513.48</ele>
        <time>2016-01-01T13:51:37Z</time>
      </trkpt>
      <trkpt lat="48.48144" lon="6.95263">
        <ele>513.48</ele>
        <time>2016-01-01T13:51:54Z</time>
      </trkpt>
      <trkpt lat="48.48143" lon="6.95267">
        <ele>513.48</ele>
        <time>2016-01-01T13:52:07Z</time>
      </trkpt>
      <trkpt lat="48.48144" lon="6.95272">
        <ele>513</ele>
        <time>2016-01-01T13:52:11Z</time>
      </trkpt>
      <trkpt lat="48.48142" lon="6.95274">
        <ele>513</ele>
        <time>2016-01-01T13:52:13Z</time>
      </trkpt>
      <trkpt lat="48.4814" lon="6.95276">
        <ele>512.52</ele>
        <time>2016-01-01T13:52:15Z</time>
      </trkpt>
      <trkpt lat="48.4814" lon="6.95276">
        <ele>507.71</ele>
        <time>2016-01-01T13:52:19Z</time>
      </trkpt>
      <trkpt lat="48.4814" lon="6.95276">
        <ele>513.48</ele>
        <time>2016-01-01T13:52:20Z</time>
      </trkpt>
      <trkpt lat="48.4814" lon="6.95277">
        <ele>510.12</ele>
        <time>2016-01-01T13:52:25Z</time>
      </trkpt>
      <trkpt lat="48.4814" lon="6.95277">
        <ele>514.44</ele>
        <time>2016-01-01T13:52:26Z</time>
      </trkpt>
      <trkpt lat="48.48139" lon="6.95276">
        <ele>512.52</ele>
        <time>2016-01-01T13:53:18Z</time>
      </trkpt>
      <trkpt lat="48.48141" lon="6.95267">
        <ele>514.44</ele>
        <time>2016-01-01T13:53:31Z</time>
      </trkpt>
      <trkpt lat="48.4814" lon="6.95267">
        <ele>513.48</ele>
        <time>2016-01-01T13:53:34Z</time>
      </trkpt>
      <trkpt lat="48.48143" lon="6.95266">
        <ele>513.48</ele>
        <time>2016-01-01T13:53:44Z</time>
      </trkpt>
      <trkpt lat="48.48141" lon="6.95264">
        <ele>508.19</ele>
        <time>2016-01-01T13:54:04Z</time>
      </trkpt>
      <trkpt lat="48.48141" lon="6.95263">
        <ele>513.96</ele>
        <time>2016-01-01T13:54:05Z</time>
      </trkpt>
      <trkpt lat="48.48143" lon="6.95262">
        <ele>510.12</ele>
        <time>2016-01-01T13:54:19Z</time>
      </trkpt>
      <trkpt lat="48.48143" lon="6.95262">
        <ele>513.48</ele>
        <time>2016-01-01T13:54:20Z</time>
      </trkpt>
      <trkpt lat="48.48143" lon="6.95262">
        <ele>507.23</ele>
        <time>2016-01-01T13:54:38Z</time>
      </trkpt>
      <trkpt lat="48.48143" lon="6.95262">
        <ele>513.48</ele>
        <time>2016-01-01T13:54:39Z</time>
      </trkpt>
      <trkpt lat="48.48143" lon="6.9526">
        <ele>508.67</ele>
        <time>2016-01-01T13:55:09Z</time>
      </trkpt>
      <trkpt lat="48.48143" lon="6.9526">
        <ele>513.96</ele>
        <time>2016-01-01T13:55:10Z</time>
      </trkpt>
      <trkpt lat="48.48143" lon="6.95261">
        <ele>509.64</ele>
        <time>2016-01-01T13:55:19Z</time>
      </trkpt>
      <trkpt lat="48.48142" lon="6.95261">
        <ele>513.96</ele>
        <time>2016-01-01T13:55:20Z</time>
      </trkpt>
      <trkpt lat="48.48141" lon="6.9526">
        <ele>513.48</ele>
        <time>2016-01-01T13:55:44Z</time>
      </trkpt>
      <trkpt lat="48.48141" lon="6.9526">
        <ele>510.12</ele>
        <time>2016-01-01T13:55:54Z</time>
      </trkpt>
      <trkpt lat="48.48141" lon="6.9526">
        <ele>514.44</ele>
        <time>2016-01-01T13:55:55Z</time>
      </trkpt>
      <trkpt lat="48.48144" lon="6.95266">
        <ele>514.44</ele>
        <time>2016-01-01T13:56:43Z</time>
      </trkpt>
      <trkpt lat="48.48143" lon="6.95269">
        <ele>513.96</ele>
        <time>2016-01-01T13:56:51Z</time>
      </trkpt>
      <trkpt lat="48.48143" lon="6.95269">
        <ele>508.67</ele>
        <time>2016-01-01T13:56:55Z</time>
      </trkpt>
      <trkpt lat="48.48143" lon="6.95269">
        <ele>513.96</ele>
        <time>2016-01-01T13:56:56Z</time>
      </trkpt>
      <trkpt lat="48.48144" lon="6.95268">
        <ele>510.6</ele>
        <time>2016-01-01T13:57:04Z</time>
      </trkpt>
      <trkpt lat="48.48144" lon="6.95268">
        <ele>514.44</ele>
        <time>2016-01-01T13:57:05Z</time>
      </trkpt>
      <trkpt lat="48.48145" lon="6.95269">
        <ele>513</ele>
        <time>2016-01-01T13:57:09Z</time>
      </trkpt>
      <trkpt lat="48.48145" lon="6.95269">
        <ele>514.44</ele>
        <time>2016-01-01T13:57:11Z</time>
      </trkpt>
      <trkpt lat="48.48145" lon="6.95269">
        <ele>513.48</ele>
        <time>2016-01-01T13:57:15Z</time>
      </trkpt>
      <trkpt lat="48.48144" lon="6.95273">
        <ele>517.33</ele>
        <time>2016-01-01T13:57:31Z</time>
      </trkpt>
      <trkpt lat="48.48144" lon="6.95274">
        <ele>520.69</ele>
        <time>2016-01-01T13:57:32Z</time>
      </trkpt>
      <trkpt lat="48.48143" lon="6.95274">
        <ele>505.31</ele>
        <time>2016-01-01T13:57:33Z</time>
      </trkpt>
      <trkpt lat="48.48143" lon="6.95274">
        <ele>506.75</ele>
        <time>2016-01-01T13:57:34Z</time>
      </trkpt>
      <trkpt lat="48.48143" lon="6.95274">
        <ele>513</ele>
        <time>2016-01-01T13:57:36Z</time>
      </trkpt>
      <trkpt lat="48.48143" lon="6.95273">
        <ele>513</ele>
        <time>2016-01-01T13:57:37Z</time>
      </trkpt>
      <trkpt lat="48.48143" lon="6.95273">
        <ele>515.88</ele>
        <time>2016-01-01T13:57:38Z</time>
      </trkpt>
      <trkpt lat="48.48143" lon="6.95273">
        <ele>514.92</ele>
        <time>2016-01-01T13:57:39Z</time>
      </trkpt>
      <trkpt lat="48.48143" lon="6.95273">
        <ele>508.19</ele>
        <time>2016-01-01T13:57:43Z</time>
      </trkpt>
      <trkpt lat="48.48143" lon="6.95273">
        <ele>514.92</ele>
        <time>2016-01-01T13:57:44Z</time>
      </trkpt>
      <trkpt lat="48.48143" lon="6.95272">
        <ele>515.88</ele>
        <time>2016-01-01T13:57:46Z</time>
      </trkpt>
      <trkpt lat="48.48143" lon="6.95272">
        <ele>504.83</ele>
        <time>2016-01-01T13:57:47Z</time>
      </trkpt>
      <trkpt lat="48.48143" lon="6.95272">
        <ele>509.16</ele>
        <time>2016-01-01T13:57:48Z</time>
      </trkpt>
      <trkpt lat="48.48143" lon="6.95273">
        <ele>514.92</ele>
        <time>2016-01-01T13:57:52Z</time>
      </trkpt>
      <trkpt lat="48.48142" lon="6.95273">
        <ele>510.6</ele>
        <time>2016-01-01T13:57:53Z</time>
      </trkpt>
      <trkpt lat="48.48142" lon="6.95273">
        <ele>513.96</ele>
        <time>2016-01-01T13:57:54Z</time>
      </trkpt>
      <trkpt lat="48.48143" lon="6.95273">
        <ele>513.96</ele>
        <time>2016-01-01T13:58:52Z</time>
      </trkpt>
      <trkpt lat="48.48143" lon="6.95273">
        <ele>515.4</ele>
        <time>2016-01-01T13:59:03Z</time>
      </trkpt>
      <trkpt lat="48.48143" lon="6.95273">
        <ele>514.92</ele>
        <time>2016-01-01T13:59:11Z</time>
      </trkpt>
      <trkpt lat="48.48143" lon="6.95273">
        <ele>513.96</ele>
        <time>2016-01-01T13:59:13Z</time>
      </trkpt>
      <trkpt lat="48.48143" lon="6.95273">
        <ele>514.44</ele>
        <time>2016-01-01T13:59:14Z</time>
      </trkpt>
      <trkpt lat="48.48143" lon="6.95273">
        <ele>515.4</ele>
        <time>2016-01-01T13:59:31Z</time>
      </trkpt>
      <trkpt lat="48.48143" lon="6.95272">
        <ele>513.96</ele>
        <time>2016-01-01T13:59:40Z</time>
      </trkpt>
      <trkpt lat="48.48143" lon="6.95274">
        <ele>514.44</ele>
        <time>2016-01-01T13:59:52Z</time>
      </trkpt>
      <trkpt lat="48.48135" lon="6.9528">
        <ele>512.52</ele>
        <time>2016-01-01T14:00:05Z</time>
      </trkpt>
      <trkpt lat="48.48128" lon="6.95286">
        <ele>508.67</ele>
        <time>2016-01-01T14:00:10Z</time>
      </trkpt>
      <trkpt lat="48.48127" lon="6.95287">
        <ele>512.52</ele>
        <time>2016-01-01T14:00:11Z</time>
      </trkpt>
      <trkpt lat="48.48108" lon="6.95312">
        <ele>510.6</ele>
        <time>2016-01-01T14:00:23Z</time>
      </trkpt>
      <trkpt lat="48.48106" lon="6.95313">
        <ele>507.23</ele>
        <time>2016-01-01T14:00:24Z</time>
      </trkpt>
      <trkpt lat="48.48101" lon="6.95315">
        <ele>502.43</ele>
        <time>2016-01-01T14:00:28Z</time>
      </trkpt>
      <trkpt lat="48.481" lon="6.95315">
        <ele>509.64</ele>
        <time>2016-01-01T14:00:29Z</time>
      </trkpt>
      <trkpt lat="48.48099" lon="6.95315">
        <ele>510.12</ele>
        <time>2016-01-01T14:00:30Z</time>
      </trkpt>
      <trkpt lat="48.48097" lon="6.95317">
        <ele>511.08</ele>
        <time>2016-01-01T14:00:32Z</time>
      </trkpt>
      <trkpt lat="48.48095" lon="6.95318">
        <ele>505.79</ele>
        <time>2016-01-01T14:00:33Z</time>
      </trkpt>
      <trkpt lat="48.48093" lon="6.9532">
        <ele>510.6</ele>
        <time>2016-01-01T14:00:34Z</time>
      </trkpt>
      <trkpt lat="48.48078" lon="6.95337">
        <ele>510.12</ele>
        <time>2016-01-01T14:00:46Z</time>
      </trkpt>
      <trkpt lat="48.48067" lon="6.95351">
        <ele>509.16</ele>
        <time>2016-01-01T14:00:57Z</time>
      </trkpt>
      <trkpt lat="48.48062" lon="6.95357">
        <ele>511.08</ele>
        <time>2016-01-01T14:01:03Z</time>
      </trkpt>
      <trkpt lat="48.4806" lon="6.95362">
        <ele>505.31</ele>
        <time>2016-01-01T14:01:06Z</time>
      </trkpt>
      <trkpt lat="48.48059" lon="6.95363">
        <ele>510.6</ele>
        <time>2016-01-01T14:01:07Z</time>
      </trkpt>
      <trkpt lat="48.48058" lon="6.95364">
        <ele>508.19</ele>
        <time>2016-01-01T14:01:08Z</time>
      </trkpt>
      <trkpt lat="48.48053" lon="6.9537">
        <ele>511.08</ele>
        <time>2016-01-01T14:01:16Z</time>
      </trkpt>
      <trkpt lat="48.48053" lon="6.95371">
        <ele>507.71</ele>
        <time>2016-01-01T14:01:17Z</time>
      </trkpt>
      <trkpt lat="48.48052" lon="6.95374">
        <ele>509.64</ele>
        <time>2016-01-01T14:01:19Z</time>
      </trkpt>
      <trkpt lat="48.48041" lon="6.95405">
        <ele>506.27</ele>
        <time>2016-01-01T14:01:30Z</time>
      </trkpt>
      <trkpt lat="48.48038" lon="6.95412">
        <ele>494.74</ele>
        <time>2016-01-01T14:01:34Z</time>
      </trkpt>
      <trkpt lat="48.48038" lon="6.95414">
        <ele>507.71</ele>
        <time>2016-01-01T14:01:35Z</time>
      </trkpt>
      <trkpt lat="48.48037" lon="6.95418">
        <ele>503.39</ele>
        <time>2016-01-01T14:01:37Z</time>
      </trkpt>
      <trkpt lat="48.48036" lon="6.95422">
        <ele>506.75</ele>
        <time>2016-01-01T14:01:39Z</time>
      </trkpt>
      <trkpt lat="48.48035" lon="6.95424">
        <ele>506.75</ele>
        <time>2016-01-01T14:01:40Z</time>
      </trkpt>
      <trkpt lat="48.48029" lon="6.95437">
        <ele>501.46</ele>
        <time>2016-01-01T14:01:47Z</time>
      </trkpt>
      <trkpt lat="48.48028" lon="6.95438">
        <ele>506.27</ele>
        <time>2016-01-01T14:01:48Z</time>
      </trkpt>
      <trkpt lat="48.48028" lon="6.9544">
        <ele>506.27</ele>
        <time>2016-01-01T14:01:49Z</time>
      </trkpt>
      <trkpt lat="48.48021" lon="6.95452">
        <ele>503.87</ele>
        <time>2016-01-01T14:01:55Z</time>
      </trkpt>
      <trkpt lat="48.48" lon="6.95481">
        <ele>502.43</ele>
        <time>2016-01-01T14:02:16Z</time>
      </trkpt>
      <trkpt lat="48.47998" lon="6.95485">
        <ele>502.91</ele>
        <time>2016-01-01T14:02:18Z</time>
      </trkpt>
      <trkpt lat="48.47966" lon="6.95524">
        <ele>504.35</ele>
        <time>2016-01-01T14:02:47Z</time>
      </trkpt>
      <trkpt lat="48.47955" lon="6.95539">
        <ele>509.64</ele>
        <time>2016-01-01T14:02:55Z</time>
      </trkpt>
      <trkpt lat="48.47954" lon="6.95541">
        <ele>502.43</ele>
        <time>2016-01-01T14:02:56Z</time>
      </trkpt>
      <trkpt lat="48.47952" lon="6.95542">
        <ele>505.79</ele>
        <time>2016-01-01T14:02:57Z</time>
      </trkpt>
      <trkpt lat="48.47931" lon="6.95559">
        <ele>504.83</ele>
        <time>2016-01-01T14:03:13Z</time>
      </trkpt>
      <trkpt lat="48.47914" lon="6.95569">
        <ele>508.67</ele>
        <time>2016-01-01T14:03:22Z</time>
      </trkpt>
      <trkpt lat="48.47912" lon="6.95569">
        <ele>501.95</ele>
        <time>2016-01-01T14:03:24Z</time>
      </trkpt>
      <trkpt lat="48.47911" lon="6.9557">
        <ele>501.95</ele>
        <time>2016-01-01T14:03:25Z</time>
      </trkpt>
      <trkpt lat="48.4791" lon="6.95569">
        <ele>513</ele>
        <time>2016-01-01T14:03:26Z</time>
      </trkpt>
      <trkpt lat="48.47909" lon="6.95569">
        <ele>509.64</ele>
        <time>2016-01-01T14:03:27Z</time>
      </trkpt>
      <trkpt lat="48.47908" lon="6.95569">
        <ele>505.79</ele>
        <time>2016-01-01T14:03:28Z</time>
      </trkpt>
      <trkpt lat="48.47906" lon="6.9557">
        <ele>500.5</ele>
        <time>2016-01-01T14:03:29Z</time>
      </trkpt>
      <trkpt lat="48.47905" lon="6.9557">
        <ele>508.67</ele>
        <time>2016-01-01T14:03:30Z</time>
      </trkpt>
      <trkpt lat="48.47901" lon="6.9557">
        <ele>509.64</ele>
        <time>2016-01-01T14:03:32Z</time>
      </trkpt>
      <trkpt lat="48.479" lon="6.9557">
        <ele>513.96</ele>
        <time>2016-01-01T14:03:33Z</time>
      </trkpt>
      <trkpt lat="48.47898" lon="6.95571">
        <ele>509.64</ele>
        <time>2016-01-01T14:03:34Z</time>
      </trkpt>
      <trkpt lat="48.4789" lon="6.95572">
        <ele>502.91</ele>
        <time>2016-01-01T14:03:40Z</time>
      </trkpt>
      <trkpt lat="48.47886" lon="6.95574">
        <ele>494.74</ele>
        <time>2016-01-01T14:03:42Z</time>
      </trkpt>
      <trkpt lat="48.47883" lon="6.95575">
        <ele>514.92</ele>
        <time>2016-01-01T14:03:43Z</time>
      </trkpt>
      <trkpt lat="48.4788" lon="6.95576">
        <ele>497.62</ele>
        <time>2016-01-01T14:03:44Z</time>
      </trkpt>
      <trkpt lat="48.47879" lon="6.95576">
        <ele>508.67</ele>
        <time>2016-01-01T14:03:45Z</time>
      </trkpt>
      <trkpt lat="48.47877" lon="6.95577">
        <ele>510.6</ele>
        <time>2016-01-01T14:03:46Z</time>
      </trkpt>
      <trkpt lat="48.47875" lon="6.95582">
        <ele>510.12</ele>
        <time>2016-01-01T14:03:50Z</time>
      </trkpt>
      <trkpt lat="48.47871" lon="6.95587">
        <ele>506.27</ele>
        <time>2016-01-01T14:04:01Z</time>
      </trkpt>
      <trkpt lat="48.47869" lon="6.95586">
        <ele>509.64</ele>
        <time>2016-01-01T14:04:03Z</time>
      </trkpt>
      <trkpt lat="48.47867" lon="6.95585">
        <ele>510.12</ele>
        <time>2016-01-01T14:04:05Z</time>
      </trkpt>
      <trkpt lat="48.47858" lon="6.95583">
        <ele>511.56</ele>
        <time>2016-01-01T14:04:18Z</time>
      </trkpt>
      <trkpt lat="48.47857" lon="6.95583">
        <ele>497.62</ele>
        <time>2016-01-01T14:04:19Z</time>
      </trkpt>
      <trkpt lat="48.47856" lon="6.95583">
        <ele>510.6</ele>
        <time>2016-01-01T14:04:20Z</time>
      </trkpt>
      <trkpt lat="48.47848" lon="6.95589">
        <ele>508.67</ele>
        <time>2016-01-01T14:04:27Z</time>
      </trkpt>
      <trkpt lat="48.47846" lon="6.95591">
        <ele>511.08</ele>
        <time>2016-01-01T14:04:28Z</time>
      </trkpt>
      <trkpt lat="48.4783" lon="6.95596">
        <ele>506.75</ele>
        <time>2016-01-01T14:04:37Z</time>
      </trkpt>
      <trkpt lat="48.47829" lon="6.95596">
        <ele>510.6</ele>
        <time>2016-01-01T14:04:38Z</time>
      </trkpt>
      <trkpt lat="48.47827" lon="6.95595">
        <ele>511.56</ele>
        <time>2016-01-01T14:04:40Z</time>
      </trkpt>
      <trkpt lat="48.4782" lon="6.95597">
        <ele>506.27</ele>
        <time>2016-01-01T14:04:45Z</time>
      </trkpt>
      <trkpt lat="48.47818" lon="6.95597">
        <ele>511.56</ele>
        <time>2016-01-01T14:04:46Z</time>
      </trkpt>
      <trkpt lat="48.47815" lon="6.95596">
        <ele>502.43</ele>
        <time>2016-01-01T14:04:48Z</time>
      </trkpt>
      <trkpt lat="48.47814" lon="6.95596">
        <ele>511.56</ele>
        <time>2016-01-01T14:04:49Z</time>
      </trkpt>
      <trkpt lat="48.47793" lon="6.95595">
        <ele>497.62</ele>
        <time>2016-01-01T14:05:04Z</time>
      </trkpt>
      <trkpt lat="48.47792" lon="6.95595">
        <ele>511.56</ele>
        <time>2016-01-01T14:05:05Z</time>
      </trkpt>
      <trkpt lat="48.47788" lon="6.95595">
        <ele>514.92</ele>
        <time>2016-01-01T14:05:08Z</time>
      </trkpt>
      <trkpt lat="48.47786" lon="6.95595">
        <ele>512.04</ele>
        <time>2016-01-01T14:05:10Z</time>
      </trkpt>
      <trkpt lat="48.47784" lon="6.95596">
        <ele>506.75</ele>
        <time>2016-01-01T14:05:12Z</time>
      </trkpt>
      <trkpt lat="48.47782" lon="6.95596">
        <ele>512.52</ele>
        <time>2016-01-01T14:05:13Z</time>
      </trkpt>
      <trkpt lat="48.47776" lon="6.95597">
        <ele>503.39</ele>
        <time>2016-01-01T14:05:17Z</time>
      </trkpt>
      <trkpt lat="48.47775" lon="6.95597">
        <ele>521.17</ele>
        <time>2016-01-01T14:05:18Z</time>
      </trkpt>
      <trkpt lat="48.47773" lon="6.95597">
        <ele>512.04</ele>
        <time>2016-01-01T14:05:19Z</time>
      </trkpt>
      <trkpt lat="48.47771" lon="6.95597">
        <ele>500.02</ele>
        <time>2016-01-01T14:05:20Z</time>
      </trkpt>
      <trkpt lat="48.47769" lon="6.95598">
        <ele>508.67</ele>
        <time>2016-01-01T14:05:21Z</time>
      </trkpt>
      <trkpt lat="48.47767" lon="6.95598">
        <ele>512.52</ele>
        <time>2016-01-01T14:05:22Z</time>
      </trkpt>
      <trkpt lat="48.47765" lon="6.95598">
        <ele>512.52</ele>
        <time>2016-01-01T14:05:23Z</time>
      </trkpt>
      <trkpt lat="48.47756" lon="6.95597">
        <ele>513</ele>
        <time>2016-01-01T14:05:28Z</time>
      </trkpt>
      <trkpt lat="48.47749" lon="6.95594">
        <ele>513</ele>
        <time>2016-01-01T14:05:33Z</time>
      </trkpt>
      <trkpt lat="48.47745" lon="6.95593">
        <ele>504.35</ele>
        <time>2016-01-01T14:05:36Z</time>
      </trkpt>
      <trkpt lat="48.47744" lon="6.95592">
        <ele>513.96</ele>
        <time>2016-01-01T14:05:37Z</time>
      </trkpt>
      <trkpt lat="48.47742" lon="6.95592">
        <ele>513</ele>
        <time>2016-01-01T14:05:38Z</time>
      </trkpt>
      <trkpt lat="48.4774" lon="6.95591">
        <ele>514.92</ele>
        <time>2016-01-01T14:05:40Z</time>
      </trkpt>
      <trkpt lat="48.47732" lon="6.95588">
        <ele>502.91</ele>
        <time>2016-01-01T14:05:46Z</time>
      </trkpt>
      <trkpt lat="48.4773" lon="6.95587">
        <ele>514.44</ele>
        <time>2016-01-01T14:05:47Z</time>
      </trkpt>
      <trkpt lat="48.47719" lon="6.95583">
        <ele>517.81</ele>
        <time>2016-01-01T14:05:53Z</time>
      </trkpt>
      <trkpt lat="48.47717" lon="6.95582">
        <ele>514.44</ele>
        <time>2016-01-01T14:05:54Z</time>
      </trkpt>
      <trkpt lat="48.47708" lon="6.95575">
        <ele>514.44</ele>
        <time>2016-01-01T14:06:00Z</time>
      </trkpt>
      <trkpt lat="48.47703" lon="6.9557">
        <ele>515.4</ele>
        <time>2016-01-01T14:06:04Z</time>
      </trkpt>
      <trkpt lat="48.47682" lon="6.95554">
        <ele>516.85</ele>
        <time>2016-01-01T14:06:18Z</time>
      </trkpt>
      <trkpt lat="48.47664" lon="6.95538">
        <ele>516.85</ele>
        <time>2016-01-01T14:06:32Z</time>
      </trkpt>
      <trkpt lat="48.47662" lon="6.95536">
        <ele>516.85</ele>
        <time>2016-01-01T14:06:33Z</time>
      </trkpt>
      <trkpt lat="48.47652" lon="6.95526">
        <ele>517.33</ele>
        <time>2016-01-01T14:06:40Z</time>
      </trkpt>
      <trkpt lat="48.47643" lon="6.95516">
        <ele>517.81</ele>
        <time>2016-01-01T14:06:46Z</time>
      </trkpt>
      <trkpt lat="48.4764" lon="6.95512">
        <ele>518.29</ele>
        <time>2016-01-01T14:06:48Z</time>
      </trkpt>
      <trkpt lat="48.47638" lon="6.95509">
        <ele>517.81</ele>
        <time>2016-01-01T14:06:50Z</time>
      </trkpt>
      <trkpt lat="48.47629" lon="6.95503">
        <ele>518.29</ele>
        <time>2016-01-01T14:06:55Z</time>
      </trkpt>
      <trkpt lat="48.47624" lon="6.95492">
        <ele>518.77</ele>
        <time>2016-01-01T14:07:01Z</time>
      </trkpt>
      <trkpt lat="48.4762" lon="6.9549">
        <ele>519.25</ele>
        <time>2016-01-01T14:07:04Z</time>
      </trkpt>
      <trkpt lat="48.47599" lon="6.9547">
        <ele>519.73</ele>
        <time>2016-01-01T14:07:19Z</time>
      </trkpt>
      <trkpt lat="48.47594" lon="6.95468">
        <ele>520.21</ele>
        <time>2016-01-01T14:07:22Z</time>
      </trkpt>
      <trkpt lat="48.47586" lon="6.95462">
        <ele>520.21</ele>
        <time>2016-01-01T14:07:28Z</time>
      </trkpt>
      <trkpt lat="48.47576" lon="6.9546">
        <ele>520.21</ele>
        <time>2016-01-01T14:07:39Z</time>
      </trkpt>
      <trkpt lat="48.47574" lon="6.95459">
        <ele>519.73</ele>
        <time>2016-01-01T14:07:41Z</time>
      </trkpt>
      <trkpt lat="48.47566" lon="6.9546">
        <ele>519.73</ele>
        <time>2016-01-01T14:07:47Z</time>
      </trkpt>
      <trkpt lat="48.47561" lon="6.95459">
        <ele>520.21</ele>
        <time>2016-01-01T14:07:50Z</time>
      </trkpt>
      <trkpt lat="48.47556" lon="6.95453">
        <ele>520.21</ele>
        <time>2016-01-01T14:07:55Z</time>
      </trkpt>
      <trkpt lat="48.47535" lon="6.95447">
        <ele>519.73</ele>
        <time>2016-01-01T14:08:09Z</time>
      </trkpt>
      <trkpt lat="48.47518" lon="6.95444">
        <ele>519.73</ele>
        <time>2016-01-01T14:08:19Z</time>
      </trkpt>
      <trkpt lat="48.47513" lon="6.95445">
        <ele>519.73</ele>
        <time>2016-01-01T14:08:22Z</time>
      </trkpt>
      <trkpt lat="48.47502" lon="6.95444">
        <ele>520.21</ele>
        <time>2016-01-01T14:08:28Z</time>
      </trkpt>
      <trkpt lat="48.47493" lon="6.95442">
        <ele>519.73</ele>
        <time>2016-01-01T14:08:34Z</time>
      </trkpt>
      <trkpt lat="48.47478" lon="6.95441">
        <ele>518.77</ele>
        <time>2016-01-01T14:08:44Z</time>
      </trkpt>
      <trkpt lat="48.47465" lon="6.9544">
        <ele>518.77</ele>
        <time>2016-01-01T14:08:52Z</time>
      </trkpt>
      <trkpt lat="48.47456" lon="6.95441">
        <ele>518.29</ele>
        <time>2016-01-01T14:08:57Z</time>
      </trkpt>
      <trkpt lat="48.4745" lon="6.95442">
        <ele>518.29</ele>
        <time>2016-01-01T14:09:00Z</time>
      </trkpt>
      <trkpt lat="48.47448" lon="6.95442">
        <ele>518.29</ele>
        <time>2016-01-01T14:09:02Z</time>
      </trkpt>
      <trkpt lat="48.47424" lon="6.95447">
        <ele>517.81</ele>
        <time>2016-01-01T14:09:16Z</time>
      </trkpt>
      <trkpt lat="48.47415" lon="6.95445">
        <ele>517.81</ele>
        <time>2016-01-01T14:09:22Z</time>
      </trkpt>
      <trkpt lat="48.47396" lon="6.95445">
        <ele>518.29</ele>
        <time>2016-01-01T14:09:32Z</time>
      </trkpt>
      <trkpt lat="48.47373" lon="6.9544">
        <ele>518.77</ele>
        <time>2016-01-01T14:09:44Z</time>
      </trkpt>
      <trkpt lat="48.47363" lon="6.95433">
        <ele>519.25</ele>
        <time>2016-01-01T14:09:56Z</time>
      </trkpt>
      <trkpt lat="48.47364" lon="6.95433">
        <ele>519.25</ele>
        <time>2016-01-01T14:10:03Z</time>
      </trkpt>
      <trkpt lat="48.47361" lon="6.95427">
        <ele>519.25</ele>
        <time>2016-01-01T14:10:07Z</time>
      </trkpt>
      <trkpt lat="48.47358" lon="6.95418">
        <ele>520.21</ele>
        <time>2016-01-01T14:10:12Z</time>
      </trkpt>
      <trkpt lat="48.47351" lon="6.95408">
        <ele>520.21</ele>
        <time>2016-01-01T14:10:18Z</time>
      </trkpt>
      <trkpt lat="48.47343" lon="6.95396">
        <ele>521.65</ele>
        <time>2016-01-01T14:10:25Z</time>
      </trkpt>
      <trkpt lat="48.47335" lon="6.95388">
        <ele>521.65</ele>
        <time>2016-01-01T14:10:31Z</time>
      </trkpt>
      <trkpt lat="48.4733" lon="6.95382">
        <ele>522.13</ele>
        <time>2016-01-01T14:10:35Z</time>
      </trkpt>
      <trkpt lat="48.47328" lon="6.95373">
        <ele>522.13</ele>
        <time>2016-01-01T14:10:39Z</time>
      </trkpt>
      <trkpt lat="48.47326" lon="6.95364">
        <ele>522.61</ele>
        <time>2016-01-01T14:10:43Z</time>
      </trkpt>
      <trkpt lat="48.47321" lon="6.95355">
        <ele>523.09</ele>
        <time>2016-01-01T14:10:47Z</time>
      </trkpt>
      <trkpt lat="48.47319" lon="6.95354">
        <ele>522.61</ele>
        <time>2016-01-01T14:10:48Z</time>
      </trkpt>
      <trkpt lat="48.47304" lon="6.95333">
        <ele>524.06</ele>
        <time>2016-01-01T14:10:58Z</time>
      </trkpt>
      <trkpt lat="48.47294" lon="6.95322">
        <ele>524.06</ele>
        <time>2016-01-01T14:11:06Z</time>
      </trkpt>
      <trkpt lat="48.47288" lon="6.95316">
        <ele>523.58</ele>
        <time>2016-01-01T14:11:11Z</time>
      </trkpt>
      <trkpt lat="48.47282" lon="6.9531">
        <ele>523.58</ele>
        <time>2016-01-01T14:11:16Z</time>
      </trkpt>
      <trkpt lat="48.47277" lon="6.95306">
        <ele>524.06</ele>
        <time>2016-01-01T14:11:20Z</time>
      </trkpt>
      <trkpt lat="48.47266" lon="6.95303">
        <ele>524.54</ele>
        <time>2016-01-01T14:11:26Z</time>
      </trkpt>
      <trkpt lat="48.47259" lon="6.95296">
        <ele>524.06</ele>
        <time>2016-01-01T14:11:31Z</time>
      </trkpt>
      <trkpt lat="48.4725" lon="6.95287">
        <ele>524.06</ele>
        <time>2016-01-01T14:11:37Z</time>
      </trkpt>
      <trkpt lat="48.47233" lon="6.95277">
        <ele>524.54</ele>
        <time>2016-01-01T14:11:48Z</time>
      </trkpt>
      <trkpt lat="48.47226" lon="6.95272">
        <ele>524.06</ele>
        <time>2016-01-01T14:11:53Z</time>
      </trkpt>
      <trkpt lat="48.47218" lon="6.95265">
        <ele>523.58</ele>
        <time>2016-01-01T14:11:58Z</time>
      </trkpt>
      <trkpt lat="48.47207" lon="6.95252">
        <ele>523.58</ele>
        <time>2016-01-01T14:12:07Z</time>
      </trkpt>
      <trkpt lat="48.47204" lon="6.95245">
        <ele>522.13</ele>
        <time>2016-01-01T14:12:11Z</time>
      </trkpt>
      <trkpt lat="48.47197" lon="6.95224">
        <ele>521.17</ele>
        <time>2016-01-01T14:12:21Z</time>
      </trkpt>
      <trkpt lat="48.47193" lon="6.95214">
        <ele>520.69</ele>
        <time>2016-01-01T14:12:27Z</time>
      </trkpt>
      <trkpt lat="48.4719" lon="6.9521">
        <ele>519.73</ele>
        <time>2016-01-01T14:12:41Z</time>
      </trkpt>
      <trkpt lat="48.47193" lon="6.95208">
        <ele>520.21</ele>
        <time>2016-01-01T14:12:48Z</time>
      </trkpt>
      <trkpt lat="48.47194" lon="6.95206">
        <ele>520.21</ele>
        <time>2016-01-01T14:12:50Z</time>
      </trkpt>
      <trkpt lat="48.47198" lon="6.952">
        <ele>520.21</ele>
        <time>2016-01-01T14:13:03Z</time>
      </trkpt>
      <trkpt lat="48.47198" lon="6.95201">
        <ele>519.73</ele>
        <time>2016-01-01T14:13:34Z</time>
      </trkpt>
      <trkpt lat="48.47201" lon="6.95195">
        <ele>515.88</ele>
        <time>2016-01-01T14:13:50Z</time>
      </trkpt>
      <trkpt lat="48.47201" lon="6.95194">
        <ele>521.65</ele>
        <time>2016-01-01T14:13:51Z</time>
      </trkpt>
      <trkpt lat="48.47202" lon="6.95193">
        <ele>521.65</ele>
        <time>2016-01-01T14:13:52Z</time>
      </trkpt>
      <trkpt lat="48.47203" lon="6.95192">
        <ele>518.77</ele>
        <time>2016-01-01T14:13:54Z</time>
      </trkpt>
      <trkpt lat="48.47203" lon="6.95191">
        <ele>515.88</ele>
        <time>2016-01-01T14:14:01Z</time>
      </trkpt>
      <trkpt lat="48.47203" lon="6.9519">
        <ele>518.77</ele>
        <time>2016-01-01T14:14:02Z</time>
      </trkpt>
      <trkpt lat="48.47202" lon="6.9519">
        <ele>513.96</ele>
        <time>2016-01-01T14:14:04Z</time>
      </trkpt>
      <trkpt lat="48.47202" lon="6.9519">
        <ele>519.25</ele>
        <time>2016-01-01T14:14:05Z</time>
      </trkpt>
      <trkpt lat="48.47202" lon="6.9519">
        <ele>513</ele>
        <time>2016-01-01T14:14:06Z</time>
      </trkpt>
      <trkpt lat="48.47202" lon="6.9519">
        <ele>518.77</ele>
        <time>2016-01-01T14:14:07Z</time>
      </trkpt>
      <trkpt lat="48.47202" lon="6.9519">
        <ele>522.61</ele>
        <time>2016-01-01T14:14:08Z</time>
      </trkpt>
      <trkpt lat="48.47202" lon="6.9519">
        <ele>518.77</ele>
        <time>2016-01-01T14:14:09Z</time>
      </trkpt>
      <trkpt lat="48.47203" lon="6.95189">
        <ele>515.4</ele>
        <time>2016-01-01T14:14:11Z</time>
      </trkpt>
      <trkpt lat="48.47203" lon="6.95189">
        <ele>518.77</ele>
        <time>2016-01-01T14:14:14Z</time>
      </trkpt>
      <trkpt lat="48.47203" lon="6.95189">
        <ele>522.61</ele>
        <time>2016-01-01T14:14:17Z</time>
      </trkpt>
      <trkpt lat="48.47203" lon="6.95189">
        <ele>518.77</ele>
        <time>2016-01-01T14:14:18Z</time>
      </trkpt>
      <trkpt lat="48.47203" lon="6.95189">
        <ele>522.13</ele>
        <time>2016-01-01T14:14:20Z</time>
      </trkpt>
      <trkpt lat="48.47203" lon="6.95189">
        <ele>518.29</ele>
        <time>2016-01-01T14:14:21Z</time>
      </trkpt>
      <trkpt lat="48.47203" lon="6.95188">
        <ele>521.65</ele>
        <time>2016-01-01T14:14:24Z</time>
      </trkpt>
      <trkpt lat="48.47204" lon="6.95188">
        <ele>512.04</ele>
        <time>2016-01-01T14:14:26Z</time>
      </trkpt>
      <trkpt lat="48.47204" lon="6.95188">
        <ele>519.25</ele>
        <time>2016-01-01T14:14:27Z</time>
      </trkpt>
      <trkpt lat="48.47204" lon="6.95188">
        <ele>515.4</ele>
        <time>2016-01-01T14:14:28Z</time>
      </trkpt>
      <trkpt lat="48.47204" lon="6.95188">
        <ele>520.21</ele>
        <time>2016-01-01T14:14:29Z</time>
      </trkpt>
      <trkpt lat="48.47204" lon="6.95188">
        <ele>512.52</ele>
        <time>2016-01-01T14:14:30Z</time>
      </trkpt>
      <trkpt lat="48.47204" lon="6.95188">
        <ele>517.33</ele>
        <time>2016-01-01T14:14:31Z</time>
      </trkpt>
      <trkpt lat="48.47205" lon="6.95186">
        <ele>519.25</ele>
        <time>2016-01-01T14:14:34Z</time>
      </trkpt>
      <trkpt lat="48.47207" lon="6.9518">
        <ele>515.88</ele>
        <time>2016-01-01T14:14:40Z</time>
      </trkpt>
      <trkpt lat="48.47208" lon="6.95176">
        <ele>523.58</ele>
        <time>2016-01-01T14:14:43Z</time>
      </trkpt>
      <trkpt lat="48.47209" lon="6.95174">
        <ele>518.29</ele>
        <time>2016-01-01T14:14:44Z</time>
      </trkpt>
      <trkpt lat="48.47209" lon="6.95172">
        <ele>514.44</ele>
        <time>2016-01-01T14:14:45Z</time>
      </trkpt>
      <trkpt lat="48.47212" lon="6.95167">
        <ele>521.17</ele>
        <time>2016-01-01T14:14:48Z</time>
      </trkpt>
      <trkpt lat="48.47214" lon="6.95161">
        <ele>515.88</ele>
        <time>2016-01-01T14:14:52Z</time>
      </trkpt>
      <trkpt lat="48.47216" lon="6.95156">
        <ele>517.33</ele>
        <time>2016-01-01T14:14:55Z</time>
      </trkpt>
      <trkpt lat="48.47218" lon="6.95151">
        <ele>502.91</ele>
        <time>2016-01-01T14:14:58Z</time>
      </trkpt>
      <trkpt lat="48.47219" lon="6.9515">
        <ele>518.29</ele>
        <time>2016-01-01T14:14:59Z</time>
      </trkpt>
      <trkpt lat="48.4722" lon="6.95147">
        <ele>519.73</ele>
        <time>2016-01-01T14:15:01Z</time>
      </trkpt>
      <trkpt lat="48.47221" lon="6.95144">
        <ele>516.37</ele>
        <time>2016-01-01T14:15:03Z</time>
      </trkpt>
      <trkpt lat="48.47222" lon="6.95142">
        <ele>521.65</ele>
        <time>2016-01-01T14:15:04Z</time>
      </trkpt>
      <trkpt lat="48.47222" lon="6.95141">
        <ele>517.81</ele>
        <time>2016-01-01T14:15:05Z</time>
      </trkpt>
      <trkpt lat="48.47223" lon="6.95138">
        <ele>517.33</ele>
        <time>2016-01-01T14:15:07Z</time>
      </trkpt>
      <trkpt lat="48.47225" lon="6.95135">
        <ele>511.56</ele>
        <time>2016-01-01T14:15:09Z</time>
      </trkpt>
      <trkpt lat="48.47226" lon="6.95133">
        <ele>516.37</ele>
        <time>2016-01-01T14:15:10Z</time>
      </trkpt>
      <trkpt lat="48.47229" lon="6.95123">
        <ele>512.04</ele>
        <time>2016-01-01T14:15:16Z</time>
      </trkpt>
      <trkpt lat="48.47229" lon="6.95121">
        <ele>520.69</ele>
        <time>2016-01-01T14:15:17Z</time>
      </trkpt>
      <trkpt lat="48.4723" lon="6.9512">
        <ele>515.88</ele>
        <time>2016-01-01T14:15:18Z</time>
      </trkpt>
      <trkpt lat="48.47233" lon="6.95114">
        <ele>519.25</ele>
        <time>2016-01-01T14:15:23Z</time>
      </trkpt>
      <trkpt lat="48.47233" lon="6.95113">
        <ele>515.4</ele>
        <time>2016-01-01T14:15:24Z</time>
      </trkpt>
      <trkpt lat="48.47239" lon="6.95091">
        <ele>509.64</ele>
        <time>2016-01-01T14:15:36Z</time>
      </trkpt>
      <trkpt lat="48.4724" lon="6.95089">
        <ele>515.4</ele>
        <time>2016-01-01T14:15:37Z</time>
      </trkpt>
      <trkpt lat="48.47243" lon="6.95075">
        <ele>505.31</ele>
        <time>2016-01-01T14:15:45Z</time>
      </trkpt>
      <trkpt lat="48.47244" lon="6.95073">
        <ele>515.88</ele>
        <time>2016-01-01T14:15:46Z</time>
      </trkpt>
      <trkpt lat="48.47245" lon="6.95069">
        <ele>509.64</ele>
        <time>2016-01-01T14:15:48Z</time>
      </trkpt>
      <trkpt lat="48.47245" lon="6.95067">
        <ele>515.88</ele>
        <time>2016-01-01T14:15:49Z</time>
      </trkpt>
      <trkpt lat="48.47247" lon="6.95061">
        <ele>509.16</ele>
        <time>2016-01-01T14:15:53Z</time>
      </trkpt>
      <trkpt lat="48.47247" lon="6.95059">
        <ele>515.4</ele>
        <time>2016-01-01T14:15:54Z</time>
      </trkpt>
      <trkpt lat="48.47248" lon="6.95055">
        <ele>509.64</ele>
        <time>2016-01-01T14:15:56Z</time>
      </trkpt>
      <trkpt lat="48.47249" lon="6.95054">
        <ele>514.44</ele>
        <time>2016-01-01T14:15:57Z</time>
      </trkpt>
      <trkpt lat="48.47249" lon="6.95052">
        <ele>507.71</ele>
        <time>2016-01-01T14:15:58Z</time>
      </trkpt>
      <trkpt lat="48.47252" lon="6.95046">
        <ele>505.31</ele>
        <time>2016-01-01T14:16:01Z</time>
      </trkpt>
      <trkpt lat="48.47252" lon="6.95043">
        <ele>515.88</ele>
        <time>2016-01-01T14:16:02Z</time>
      </trkpt>
      <trkpt lat="48.47252" lon="6.95041">
        <ele>519.25</ele>
        <time>2016-01-01T14:16:03Z</time>
      </trkpt>
      <trkpt lat="48.47253" lon="6.95039">
        <ele>514.92</ele>
        <time>2016-01-01T14:16:04Z</time>
      </trkpt>
      <trkpt lat="48.47254" lon="6.95038">
        <ele>511.56</ele>
        <time>2016-01-01T14:16:05Z</time>
      </trkpt>
      <trkpt lat="48.47255" lon="6.95037">
        <ele>514.92</ele>
        <time>2016-01-01T14:16:06Z</time>
      </trkpt>
      <trkpt lat="48.4726" lon="6.95012">
        <ele>513.48</ele>
        <time>2016-01-01T14:16:18Z</time>
      </trkpt>
      <trkpt lat="48.47263" lon="6.95005">
        <ele>513.48</ele>
        <time>2016-01-01T14:16:22Z</time>
      </trkpt>
      <trkpt lat="48.47268" lon="6.94992">
        <ele>513.96</ele>
        <time>2016-01-01T14:16:27Z</time>
      </trkpt>
      <trkpt lat="48.47276" lon="6.94967">
        <ele>514.44</ele>
        <time>2016-01-01T14:16:37Z</time>
      </trkpt>
      <trkpt lat="48.47288" lon="6.94945">
        <ele>514.92</ele>
        <time>2016-01-01T14:16:47Z</time>
      </trkpt>
      <trkpt lat="48.47298" lon="6.94911">
        <ele>514.44</ele>
        <time>2016-01-01T14:16:58Z</time>
      </trkpt>
      <trkpt lat="48.47306" lon="6.94891">
        <ele>513.96</ele>
        <time>2016-01-01T14:17:05Z</time>
      </trkpt>
      <trkpt lat="48.47312" lon="6.94884">
        <ele>513</ele>
        <time>2016-01-01T14:17:10Z</time>
      </trkpt>
      <trkpt lat="48.47315" lon="6.94872">
        <ele>512.52</ele>
        <time>2016-01-01T14:17:13Z</time>
      </trkpt>
      <trkpt lat="48.47324" lon="6.94858">
        <ele>512.04</ele>
        <time>2016-01-01T14:17:20Z</time>
      </trkpt>
      <trkpt lat="48.47341" lon="6.94831">
        <ele>510.6</ele>
        <time>2016-01-01T14:17:34Z</time>
      </trkpt>
      <trkpt lat="48.47356" lon="6.94813">
        <ele>510.12</ele>
        <time>2016-01-01T14:17:45Z</time>
      </trkpt>
      <trkpt lat="48.47359" lon="6.94813">
        <ele>510.6</ele>
        <time>2016-01-01T14:17:47Z</time>
      </trkpt>
      <trkpt lat="48.47373" lon="6.94796">
        <ele>509.16</ele>
        <time>2016-01-01T14:17:57Z</time>
      </trkpt>
      <trkpt lat="48.47379" lon="6.9479">
        <ele>508.19</ele>
        <time>2016-01-01T14:18:01Z</time>
      </trkpt>
      <trkpt lat="48.474" lon="6.94773">
        <ele>507.23</ele>
        <time>2016-01-01T14:18:13Z</time>
      </trkpt>
      <trkpt lat="48.47423" lon="6.94775">
        <ele>506.27</ele>
        <time>2016-01-01T14:18:25Z</time>
      </trkpt>
      <trkpt lat="48.47446" lon="6.9479">
        <ele>504.35</ele>
        <time>2016-01-01T14:18:39Z</time>
      </trkpt>
      <trkpt lat="48.47468" lon="6.94807">
        <ele>502.91</ele>
        <time>2016-01-01T14:18:53Z</time>
      </trkpt>
      <trkpt lat="48.47488" lon="6.9483">
        <ele>501.95</ele>
        <time>2016-01-01T14:19:08Z</time>
      </trkpt>
      <trkpt lat="48.47503" lon="6.94858">
        <ele>500.98</ele>
        <time>2016-01-01T14:19:22Z</time>
      </trkpt>
      <trkpt lat="48.4751" lon="6.94891">
        <ele>499.54</ele>
        <time>2016-01-01T14:19:36Z</time>
      </trkpt>
      <trkpt lat="48.47513" lon="6.94929">
        <ele>498.1</ele>
        <time>2016-01-01T14:19:51Z</time>
      </trkpt>
      <trkpt lat="48.47515" lon="6.94938">
        <ele>497.62</ele>
        <time>2016-01-01T14:19:55Z</time>
      </trkpt>
      <trkpt lat="48.47518" lon="6.94946">
        <ele>499.54</ele>
        <time>2016-01-01T14:19:58Z</time>
      </trkpt>
      <trkpt lat="48.47518" lon="6.94949">
        <ele>497.62</ele>
        <time>2016-01-01T14:19:59Z</time>
      </trkpt>
      <trkpt lat="48.4752" lon="6.94955">
        <ele>494.26</ele>
        <time>2016-01-01T14:20:02Z</time>
      </trkpt>
      <trkpt lat="48.47521" lon="6.94957">
        <ele>494.26</ele>
        <time>2016-01-01T14:20:03Z</time>
      </trkpt>
      <trkpt lat="48.47523" lon="6.94961">
        <ele>497.14</ele>
        <time>2016-01-01T14:20:05Z</time>
      </trkpt>
      <trkpt lat="48.47523" lon="6.94963">
        <ele>497.14</ele>
        <time>2016-01-01T14:20:06Z</time>
      </trkpt>
      <trkpt lat="48.47528" lon="6.94973">
        <ele>493.77</ele>
        <time>2016-01-01T14:20:12Z</time>
      </trkpt>
      <trkpt lat="48.47536" lon="6.94984">
        <ele>497.14</ele>
        <time>2016-01-01T14:20:19Z</time>
      </trkpt>
      <trkpt lat="48.47538" lon="6.94988">
        <ele>501.46</ele>
        <time>2016-01-01T14:20:21Z</time>
      </trkpt>
      <trkpt lat="48.47539" lon="6.94989">
        <ele>491.85</ele>
        <time>2016-01-01T14:20:22Z</time>
      </trkpt>
      <trkpt lat="48.47541" lon="6.94991">
        <ele>498.58</ele>
        <time>2016-01-01T14:20:23Z</time>
      </trkpt>
      <trkpt lat="48.47542" lon="6.94992">
        <ele>495.7</ele>
        <time>2016-01-01T14:20:24Z</time>
      </trkpt>
      <trkpt lat="48.47542" lon="6.94994">
        <ele>496.18</ele>
        <time>2016-01-01T14:20:25Z</time>
      </trkpt>
      <trkpt lat="48.47545" lon="6.94996">
        <ele>487.05</ele>
        <time>2016-01-01T14:20:27Z</time>
      </trkpt>
      <trkpt lat="48.47546" lon="6.94997">
        <ele>495.7</ele>
        <time>2016-01-01T14:20:28Z</time>
      </trkpt>
      <trkpt lat="48.47547" lon="6.94998">
        <ele>493.29</ele>
        <time>2016-01-01T14:20:29Z</time>
      </trkpt>
      <trkpt lat="48.4755" lon="6.95001">
        <ele>496.66</ele>
        <time>2016-01-01T14:20:31Z</time>
      </trkpt>
      <trkpt lat="48.47552" lon="6.95003">
        <ele>500.98</ele>
        <time>2016-01-01T14:20:33Z</time>
      </trkpt>
      <trkpt lat="48.47553" lon="6.95004">
        <ele>492.33</ele>
        <time>2016-01-01T14:20:34Z</time>
      </trkpt>
      <trkpt lat="48.47565" lon="6.95019">
        <ele>496.18</ele>
        <time>2016-01-01T14:20:44Z</time>
      </trkpt>
      <trkpt lat="48.47569" lon="6.95027">
        <ele>492.81</ele>
        <time>2016-01-01T14:20:49Z</time>
      </trkpt>
      <trkpt lat="48.4757" lon="6.95029">
        <ele>496.18</ele>
        <time>2016-01-01T14:20:50Z</time>
      </trkpt>
      <trkpt lat="48.47574" lon="6.95033">
        <ele>492.33</ele>
        <time>2016-01-01T14:20:53Z</time>
      </trkpt>
      <trkpt lat="48.47581" lon="6.95043">
        <ele>492.81</ele>
        <time>2016-01-01T14:21:00Z</time>
      </trkpt>
      <trkpt lat="48.47587" lon="6.95051">
        <ele>491.85</ele>
        <time>2016-01-01T14:21:05Z</time>
      </trkpt>
      <trkpt lat="48.4759" lon="6.95053">
        <ele>492.33</ele>
        <time>2016-01-01T14:21:07Z</time>
      </trkpt>
      <trkpt lat="48.47591" lon="6.95056">
        <ele>495.7</ele>
        <time>2016-01-01T14:21:19Z</time>
      </trkpt>
      <trkpt lat="48.47594" lon="6.95062">
        <ele>491.37</ele>
        <time>2016-01-01T14:21:25Z</time>
      </trkpt>
      <trkpt lat="48.47601" lon="6.95067">
        <ele>487.53</ele>
        <time>2016-01-01T14:21:30Z</time>
      </trkpt>
      <trkpt lat="48.47602" lon="6.95068">
        <ele>490.89</ele>
        <time>2016-01-01T14:21:31Z</time>
      </trkpt>
      <trkpt lat="48.47604" lon="6.95069">
        <ele>486.56</ele>
        <time>2016-01-01T14:21:32Z</time>
      </trkpt>
      <trkpt lat="48.47608" lon="6.95071">
        <ele>492.81</ele>
        <time>2016-01-01T14:21:34Z</time>
      </trkpt>
      <trkpt lat="48.47609" lon="6.95072">
        <ele>491.37</ele>
        <time>2016-01-01T14:21:35Z</time>
      </trkpt>
      <trkpt lat="48.47613" lon="6.95077">
        <ele>490.89</ele>
        <time>2016-01-01T14:21:38Z</time>
      </trkpt>
      <trkpt lat="48.47624" lon="6.95084">
        <ele>494.26</ele>
        <time>2016-01-01T14:21:45Z</time>
      </trkpt>
      <trkpt lat="48.47625" lon="6.95086">
        <ele>490.41</ele>
        <time>2016-01-01T14:21:46Z</time>
      </trkpt>
      <trkpt lat="48.47626" lon="6.95086">
        <ele>491.37</ele>
        <time>2016-01-01T14:21:47Z</time>
      </trkpt>
      <trkpt lat="48.47649" lon="6.95103">
        <ele>491.37</ele>
        <time>2016-01-01T14:22:01Z</time>
      </trkpt>
      <trkpt lat="48.47667" lon="6.95114">
        <ele>490.41</ele>
        <time>2016-01-01T14:22:12Z</time>
      </trkpt>
      <trkpt lat="48.4769" lon="6.95117">
        <ele>491.37</ele>
        <time>2016-01-01T14:22:26Z</time>
      </trkpt>
      <trkpt lat="48.47706" lon="6.95106">
        <ele>491.37</ele>
        <time>2016-01-01T14:22:37Z</time>
      </trkpt>
      <trkpt lat="48.47711" lon="6.95098">
        <ele>482.24</ele>
        <time>2016-01-01T14:22:42Z</time>
      </trkpt>
      <trkpt lat="48.47711" lon="6.95097">
        <ele>489.45</ele>
        <time>2016-01-01T14:22:43Z</time>
      </trkpt>
      <trkpt lat="48.47713" lon="6.95093">
        <ele>486.08</ele>
        <time>2016-01-01T14:22:46Z</time>
      </trkpt>
      <trkpt lat="48.47713" lon="6.95092">
        <ele>490.89</ele>
        <time>2016-01-01T14:22:47Z</time>
      </trkpt>
      <trkpt lat="48.47714" lon="6.95092">
        <ele>494.26</ele>
        <time>2016-01-01T14:22:51Z</time>
      </trkpt>
      <trkpt lat="48.47714" lon="6.95092">
        <ele>486.08</ele>
        <time>2016-01-01T14:22:52Z</time>
      </trkpt>
      <trkpt lat="48.47713" lon="6.95092">
        <ele>493.29</ele>
        <time>2016-01-01T14:22:53Z</time>
      </trkpt>
      <trkpt lat="48.47713" lon="6.95093">
        <ele>493.77</ele>
        <time>2016-01-01T14:22:57Z</time>
      </trkpt>
      <trkpt lat="48.47713" lon="6.95093">
        <ele>487.05</ele>
        <time>2016-01-01T14:22:58Z</time>
      </trkpt>
      <trkpt lat="48.47713" lon="6.95092">
        <ele>493.29</ele>
        <time>2016-01-01T14:22:59Z</time>
      </trkpt>
      <trkpt lat="48.47714" lon="6.95092">
        <ele>496.66</ele>
        <time>2016-01-01T14:23:04Z</time>
      </trkpt>
      <trkpt lat="48.47714" lon="6.95092">
        <ele>493.29</ele>
        <time>2016-01-01T14:23:05Z</time>
      </trkpt>
      <trkpt lat="48.47715" lon="6.95092">
        <ele>484.16</ele>
        <time>2016-01-01T14:23:14Z</time>
      </trkpt>
      <trkpt lat="48.47715" lon="6.95092">
        <ele>492.81</ele>
        <time>2016-01-01T14:23:15Z</time>
      </trkpt>
      <trkpt lat="48.47715" lon="6.95092">
        <ele>489.93</ele>
        <time>2016-01-01T14:23:16Z</time>
      </trkpt>
      <trkpt lat="48.47715" lon="6.95092">
        <ele>492.81</ele>
        <time>2016-01-01T14:23:18Z</time>
      </trkpt>
      <trkpt lat="48.47715" lon="6.95091">
        <ele>488.97</ele>
        <time>2016-01-01T14:23:22Z</time>
      </trkpt>
      <trkpt lat="48.47715" lon="6.95091">
        <ele>489.45</ele>
        <time>2016-01-01T14:23:23Z</time>
      </trkpt>
      <trkpt lat="48.47715" lon="6.95091">
        <ele>494.74</ele>
        <time>2016-01-01T14:23:24Z</time>
      </trkpt>
      <trkpt lat="48.47715" lon="6.9509">
        <ele>492.81</ele>
        <time>2016-01-01T14:23:25Z</time>
      </trkpt>
      <trkpt lat="48.47715" lon="6.9509">
        <ele>485.6</ele>
        <time>2016-01-01T14:23:29Z</time>
      </trkpt>
      <trkpt lat="48.47715" lon="6.9509">
        <ele>493.77</ele>
        <time>2016-01-01T14:23:30Z</time>
      </trkpt>
      <trkpt lat="48.47715" lon="6.9509">
        <ele>486.08</ele>
        <time>2016-01-01T14:23:33Z</time>
      </trkpt>
      <trkpt lat="48.47715" lon="6.95089">
        <ele>493.29</ele>
        <time>2016-01-01T14:23:34Z</time>
      </trkpt>
      <trkpt lat="48.47715" lon="6.95089">
        <ele>496.66</ele>
        <time>2016-01-01T14:23:43Z</time>
      </trkpt>
      <trkpt lat="48.47715" lon="6.95088">
        <ele>492.33</ele>
        <time>2016-01-01T14:23:44Z</time>
      </trkpt>
      <trkpt lat="48.47715" lon="6.95088">
        <ele>484.16</ele>
        <time>2016-01-01T14:23:47Z</time>
      </trkpt>
      <trkpt lat="48.47715" lon="6.95088">
        <ele>488.97</ele>
        <time>2016-01-01T14:23:48Z</time>
      </trkpt>
      <trkpt lat="48.47715" lon="6.95088">
        <ele>493.29</ele>
        <time>2016-01-01T14:23:49Z</time>
      </trkpt>
      <trkpt lat="48.47715" lon="6.95088">
        <ele>487.53</ele>
        <time>2016-01-01T14:23:51Z</time>
      </trkpt>
      <trkpt lat="48.47715" lon="6.95088">
        <ele>493.29</ele>
        <time>2016-01-01T14:23:52Z</time>
      </trkpt>
      <trkpt lat="48.47716" lon="6.95086">
        <ele>483.68</ele>
        <time>2016-01-01T14:24:00Z</time>
      </trkpt>
      <trkpt lat="48.47717" lon="6.95085">
        <ele>493.77</ele>
        <time>2016-01-01T14:24:01Z</time>
      </trkpt>
      <trkpt lat="48.47717" lon="6.95083">
        <ele>493.29</ele>
        <time>2016-01-01T14:24:02Z</time>
      </trkpt>
      <trkpt lat="48.47717" lon="6.95069">
        <ele>491.85</ele>
        <time>2016-01-01T14:24:14Z</time>
      </trkpt>
      <trkpt lat="48.47718" lon="6.95065">
        <ele>496.18</ele>
        <time>2016-01-01T14:24:16Z</time>
      </trkpt>
      <trkpt lat="48.47718" lon="6.95064">
        <ele>491.85</ele>
        <time>2016-01-01T14:24:17Z</time>
      </trkpt>
      <trkpt lat="48.4772" lon="6.95056">
        <ele>490.89</ele>
        <time>2016-01-01T14:24:22Z</time>
      </trkpt>
      <trkpt lat="48.47722" lon="6.95041">
        <ele>489.93</ele>
        <time>2016-01-01T14:24:28Z</time>
      </trkpt>
      <trkpt lat="48.47724" lon="6.95034">
        <ele>489.93</ele>
        <time>2016-01-01T14:24:31Z</time>
      </trkpt>
      <trkpt lat="48.47731" lon="6.95015">
        <ele>488.49</ele>
        <time>2016-01-01T14:24:38Z</time>
      </trkpt>
      <trkpt lat="48.47733" lon="6.95011">
        <ele>488.49</ele>
        <time>2016-01-01T14:24:40Z</time>
      </trkpt>
      <trkpt lat="48.47739" lon="6.94997">
        <ele>488.01</ele>
        <time>2016-01-01T14:24:47Z</time>
      </trkpt>
      <trkpt lat="48.47748" lon="6.94985">
        <ele>479.84</ele>
        <time>2016-01-01T14:24:54Z</time>
      </trkpt>
      <trkpt lat="48.47749" lon="6.94984">
        <ele>487.53</ele>
        <time>2016-01-01T14:24:55Z</time>
      </trkpt>
      <trkpt lat="48.47752" lon="6.94982">
        <ele>478.87</ele>
        <time>2016-01-01T14:24:58Z</time>
      </trkpt>
      <trkpt lat="48.47753" lon="6.94981">
        <ele>488.01</ele>
        <time>2016-01-01T14:24:59Z</time>
      </trkpt>
      <trkpt lat="48.47753" lon="6.9498">
        <ele>484.64</ele>
        <time>2016-01-01T14:25:00Z</time>
      </trkpt>
      <trkpt lat="48.47754" lon="6.9498">
        <ele>488.49</ele>
        <time>2016-01-01T14:25:01Z</time>
      </trkpt>
      <trkpt lat="48.47755" lon="6.94979">
        <ele>481.28</ele>
        <time>2016-01-01T14:25:02Z</time>
      </trkpt>
      <trkpt lat="48.47756" lon="6.94978">
        <ele>488.01</ele>
        <time>2016-01-01T14:25:03Z</time>
      </trkpt>
      <trkpt lat="48.47757" lon="6.94977">
        <ele>478.39</ele>
        <time>2016-01-01T14:25:04Z</time>
      </trkpt>
      <trkpt lat="48.47759" lon="6.94977">
        <ele>487.05</ele>
        <time>2016-01-01T14:25:05Z</time>
      </trkpt>
      <trkpt lat="48.47761" lon="6.94976">
        <ele>479.84</ele>
        <time>2016-01-01T14:25:07Z</time>
      </trkpt>
      <trkpt lat="48.47762" lon="6.94975">
        <ele>486.56</ele>
        <time>2016-01-01T14:25:08Z</time>
      </trkpt>
      <trkpt lat="48.47764" lon="6.94972">
        <ele>488.49</ele>
        <time>2016-01-01T14:25:10Z</time>
      </trkpt>
      <trkpt lat="48.47766" lon="6.94969">
        <ele>485.6</ele>
        <time>2016-01-01T14:25:12Z</time>
      </trkpt>
      <trkpt lat="48.47768" lon="6.94968">
        <ele>478.87</ele>
        <time>2016-01-01T14:25:13Z</time>
      </trkpt>
      <trkpt lat="48.47769" lon="6.94967">
        <ele>486.08</ele>
        <time>2016-01-01T14:25:14Z</time>
      </trkpt>
      <trkpt lat="48.4777" lon="6.94966">
        <ele>489.45</ele>
        <time>2016-01-01T14:25:15Z</time>
      </trkpt>
      <trkpt lat="48.47773" lon="6.94964">
        <ele>486.08</ele>
        <time>2016-01-01T14:25:17Z</time>
      </trkpt>
      <trkpt lat="48.47779" lon="6.9496">
        <ele>492.33</ele>
        <time>2016-01-01T14:25:21Z</time>
      </trkpt>
      <trkpt lat="48.4778" lon="6.94959">
        <ele>476.95</ele>
        <time>2016-01-01T14:25:22Z</time>
      </trkpt>
      <trkpt lat="48.47781" lon="6.94958">
        <ele>484.16</ele>
        <time>2016-01-01T14:25:23Z</time>
      </trkpt>
      <trkpt lat="48.47783" lon="6.94958">
        <ele>484.64</ele>
        <time>2016-01-01T14:25:24Z</time>
      </trkpt>
      <trkpt lat="48.47786" lon="6.94956">
        <ele>485.12</ele>
        <time>2016-01-01T14:25:27Z</time>
      </trkpt>
      <trkpt lat="48.47789" lon="6.94954">
        <ele>481.76</ele>
        <time>2016-01-01T14:25:29Z</time>
      </trkpt>
      <trkpt lat="48.47791" lon="6.94953">
        <ele>485.12</ele>
        <time>2016-01-01T14:25:31Z</time>
      </trkpt>
      <trkpt lat="48.47792" lon="6.94953">
        <ele>475.51</ele>
        <time>2016-01-01T14:25:32Z</time>
      </trkpt>
      <trkpt lat="48.47793" lon="6.94952">
        <ele>484.16</ele>
        <time>2016-01-01T14:25:33Z</time>
      </trkpt>
      <trkpt lat="48.47802" lon="6.9495">
        <ele>482.72</ele>
        <time>2016-01-01T14:25:40Z</time>
      </trkpt>
      <trkpt lat="48.47821" lon="6.94947">
        <ele>481.76</ele>
        <time>2016-01-01T14:25:52Z</time>
      </trkpt>
      <trkpt lat="48.47828" lon="6.94948">
        <ele>473.59</ele>
        <time>2016-01-01T14:25:56Z</time>
      </trkpt>
      <trkpt lat="48.47829" lon="6.94948">
        <ele>480.8</ele>
        <time>2016-01-01T14:25:57Z</time>
      </trkpt>
      <trkpt lat="48.47832" lon="6.94949">
        <ele>472.63</ele>
        <time>2016-01-01T14:26:00Z</time>
      </trkpt>
      <trkpt lat="48.47834" lon="6.94949">
        <ele>481.76</ele>
        <time>2016-01-01T14:26:01Z</time>
      </trkpt>
      <trkpt lat="48.47836" lon="6.94949">
        <ele>477.91</ele>
        <time>2016-01-01T14:26:03Z</time>
      </trkpt>
      <trkpt lat="48.47839" lon="6.9495">
        <ele>475.03</ele>
        <time>2016-01-01T14:26:05Z</time>
      </trkpt>
      <trkpt lat="48.47844" lon="6.94949">
        <ele>483.68</ele>
        <time>2016-01-01T14:26:09Z</time>
      </trkpt>
      <trkpt lat="48.47845" lon="6.94949">
        <ele>479.35</ele>
        <time>2016-01-01T14:26:10Z</time>
      </trkpt>
      <trkpt lat="48.47848" lon="6.94948">
        <ele>484.16</ele>
        <time>2016-01-01T14:26:12Z</time>
      </trkpt>
      <trkpt lat="48.4785" lon="6.94947">
        <ele>478.87</ele>
        <time>2016-01-01T14:26:13Z</time>
      </trkpt>
      <trkpt lat="48.47852" lon="6.94947">
        <ele>482.24</ele>
        <time>2016-01-01T14:26:14Z</time>
      </trkpt>
      <trkpt lat="48.47853" lon="6.94946">
        <ele>478.87</ele>
        <time>2016-01-01T14:26:15Z</time>
      </trkpt>
      <trkpt lat="48.4787" lon="6.94944">
        <ele>476.47</ele>
        <time>2016-01-01T14:26:26Z</time>
      </trkpt>
      <trkpt lat="48.47882" lon="6.94942">
        <ele>475.51</ele>
        <time>2016-01-01T14:26:37Z</time>
      </trkpt>
      <trkpt lat="48.47884" lon="6.94942">
        <ele>475.03</ele>
        <time>2016-01-01T14:26:39Z</time>
      </trkpt>
      <trkpt lat="48.47887" lon="6.94941">
        <ele>474.07</ele>
        <time>2016-01-01T14:26:41Z</time>
      </trkpt>
      <trkpt lat="48.47913" lon="6.94933">
        <ele>472.63</ele>
        <time>2016-01-01T14:26:53Z</time>
      </trkpt>
      <trkpt lat="48.47919" lon="6.94929">
        <ele>471.66</ele>
        <time>2016-01-01T14:26:58Z</time>
      </trkpt>
      <trkpt lat="48.47926" lon="6.94903">
        <ele>469.74</ele>
        <time>2016-01-01T14:27:08Z</time>
      </trkpt>
      <trkpt lat="48.47926" lon="6.94893">
        <ele>469.26</ele>
        <time>2016-01-01T14:27:12Z</time>
      </trkpt>
      <trkpt lat="48.4792" lon="6.94857">
        <ele>467.34</ele>
        <time>2016-01-01T14:27:24Z</time>
      </trkpt>
      <trkpt lat="48.47918" lon="6.94844">
        <ele>466.38</ele>
        <time>2016-01-01T14:27:30Z</time>
      </trkpt>
      <trkpt lat="48.47913" lon="6.94808">
        <ele>464.45</ele>
        <time>2016-01-01T14:27:45Z</time>
      </trkpt>
      <trkpt lat="48.4791" lon="6.94777">
        <ele>462.53</ele>
        <time>2016-01-01T14:27:59Z</time>
      </trkpt>
      <trkpt lat="48.47909" lon="6.94766">
        <ele>461.57</ele>
        <time>2016-01-01T14:28:03Z</time>
      </trkpt>
      <trkpt lat="48.47906" lon="6.9476">
        <ele>461.57</ele>
        <time>2016-01-01T14:28:06Z</time>
      </trkpt>
      <trkpt lat="48.47905" lon="6.94731">
        <ele>460.61</ele>
        <time>2016-01-01T14:28:19Z</time>
      </trkpt>
      <trkpt lat="48.47902" lon="6.94698">
        <ele>460.13</ele>
        <time>2016-01-01T14:28:32Z</time>
      </trkpt>
      <trkpt lat="48.47903" lon="6.94666">
        <ele>459.17</ele>
        <time>2016-01-01T14:28:45Z</time>
      </trkpt>
      <trkpt lat="48.47903" lon="6.94661">
        <ele>459.65</ele>
        <time>2016-01-01T14:28:47Z</time>
      </trkpt>
      <trkpt lat="48.47905" lon="6.94647">
        <ele>458.69</ele>
        <time>2016-01-01T14:28:54Z</time>
      </trkpt>
      <trkpt lat="48.47918" lon="6.94618">
        <ele>456.76</ele>
        <time>2016-01-01T14:29:08Z</time>
      </trkpt>
      <trkpt lat="48.4792" lon="6.94614">
        <ele>456.28</ele>
        <time>2016-01-01T14:29:11Z</time>
      </trkpt>
      <trkpt lat="48.47922" lon="6.94612">
        <ele>456.28</ele>
        <time>2016-01-01T14:29:13Z</time>
      </trkpt>
      <trkpt lat="48.4794" lon="6.94595">
        <ele>454.84</ele>
        <time>2016-01-01T14:29:26Z</time>
      </trkpt>
      <trkpt lat="48.47944" lon="6.94594">
        <ele>453.88</ele>
        <time>2016-01-01T14:29:29Z</time>
      </trkpt>
      <trkpt lat="48.47954" lon="6.94595">
        <ele>453.4</ele>
        <time>2016-01-01T14:29:37Z</time>
      </trkpt>
      <trkpt lat="48.47971" lon="6.946">
        <ele>451.96</ele>
        <time>2016-01-01T14:29:47Z</time>
      </trkpt>
      <trkpt lat="48.4798" lon="6.94604">
        <ele>451.48</ele>
        <time>2016-01-01T14:29:53Z</time>
      </trkpt>
      <trkpt lat="48.47984" lon="6.94604">
        <ele>451.48</ele>
        <time>2016-01-01T14:29:55Z</time>
      </trkpt>
      <trkpt lat="48.47995" lon="6.94609">
        <ele>449.07</ele>
        <time>2016-01-01T14:30:02Z</time>
      </trkpt>
      <trkpt lat="48.47997" lon="6.9461">
        <ele>445.23</ele>
        <time>2016-01-01T14:30:04Z</time>
      </trkpt>
      <trkpt lat="48.47997" lon="6.94609">
        <ele>450.03</ele>
        <time>2016-01-01T14:30:05Z</time>
      </trkpt>
      <trkpt lat="48.48005" lon="6.94615">
        <ele>449.55</ele>
        <time>2016-01-01T14:30:10Z</time>
      </trkpt>
      <trkpt lat="48.48011" lon="6.94624">
        <ele>448.59</ele>
        <time>2016-01-01T14:30:16Z</time>
      </trkpt>
      <trkpt lat="48.48013" lon="6.94625">
        <ele>448.59</ele>
        <time>2016-01-01T14:30:17Z</time>
      </trkpt>
      <trkpt lat="48.48016" lon="6.94626">
        <ele>452.92</ele>
        <time>2016-01-01T14:30:18Z</time>
      </trkpt>
      <trkpt lat="48.48017" lon="6.94626">
        <ele>448.59</ele>
        <time>2016-01-01T14:30:19Z</time>
      </trkpt>
      <trkpt lat="48.4803" lon="6.94634">
        <ele>443.31</ele>
        <time>2016-01-01T14:30:27Z</time>
      </trkpt>
      <trkpt lat="48.48032" lon="6.94635">
        <ele>448.11</ele>
        <time>2016-01-01T14:30:28Z</time>
      </trkpt>
      <trkpt lat="48.48051" lon="6.94651">
        <ele>446.67</ele>
        <time>2016-01-01T14:30:41Z</time>
      </trkpt>
      <trkpt lat="48.48055" lon="6.94655">
        <ele>447.15</ele>
        <time>2016-01-01T14:30:44Z</time>
      </trkpt>
      <trkpt lat="48.48075" lon="6.94673">
        <ele>445.71</ele>
        <time>2016-01-01T14:30:59Z</time>
      </trkpt>
      <trkpt lat="48.48076" lon="6.94675">
        <ele>444.27</ele>
        <time>2016-01-01T14:31:00Z</time>
      </trkpt>
      <trkpt lat="48.4808" lon="6.94678">
        <ele>447.63</ele>
        <time>2016-01-01T14:31:04Z</time>
      </trkpt>
      <trkpt lat="48.48084" lon="6.94682">
        <ele>443.31</ele>
        <time>2016-01-01T14:31:08Z</time>
      </trkpt>
      <trkpt lat="48.48086" lon="6.94685">
        <ele>445.23</ele>
        <time>2016-01-01T14:31:09Z</time>
      </trkpt>
      <trkpt lat="48.48104" lon="6.947">
        <ele>443.31</ele>
        <time>2016-01-01T14:31:22Z</time>
      </trkpt>
      <trkpt lat="48.48105" lon="6.94701">
        <ele>442.82</ele>
        <time>2016-01-01T14:31:23Z</time>
      </trkpt>
      <trkpt lat="48.48108" lon="6.94706">
        <ele>444.27</ele>
        <time>2016-01-01T14:31:26Z</time>
      </trkpt>
      <trkpt lat="48.48109" lon="6.94707">
        <ele>440.9</ele>
        <time>2016-01-01T14:31:27Z</time>
      </trkpt>
      <trkpt lat="48.4811" lon="6.94708">
        <ele>445.23</ele>
        <time>2016-01-01T14:31:28Z</time>
      </trkpt>
      <trkpt lat="48.48111" lon="6.9471">
        <ele>438.98</ele>
        <time>2016-01-01T14:31:29Z</time>
      </trkpt>
      <trkpt lat="48.48113" lon="6.94711">
        <ele>443.31</ele>
        <time>2016-01-01T14:31:30Z</time>
      </trkpt>
      <trkpt lat="48.48116" lon="6.94715">
        <ele>442.34</ele>
        <time>2016-01-01T14:31:33Z</time>
      </trkpt>
      <trkpt lat="48.48119" lon="6.94716">
        <ele>438.5</ele>
        <time>2016-01-01T14:31:35Z</time>
      </trkpt>
      <trkpt lat="48.48122" lon="6.9472">
        <ele>438.5</ele>
        <time>2016-01-01T14:31:38Z</time>
      </trkpt>
      <trkpt lat="48.48124" lon="6.94721">
        <ele>443.79</ele>
        <time>2016-01-01T14:31:39Z</time>
      </trkpt>
      <trkpt lat="48.48127" lon="6.94724">
        <ele>440.9</ele>
        <time>2016-01-01T14:31:42Z</time>
      </trkpt>
      <trkpt lat="48.48132" lon="6.94728">
        <ele>440.9</ele>
        <time>2016-01-01T14:31:47Z</time>
      </trkpt>
      <trkpt lat="48.48145" lon="6.94734">
        <ele>439.46</ele>
        <time>2016-01-01T14:31:57Z</time>
      </trkpt>
      <trkpt lat="48.4815" lon="6.94739">
        <ele>438.98</ele>
        <time>2016-01-01T14:32:01Z</time>
      </trkpt>
      <trkpt lat="48.48155" lon="6.9474">
        <ele>438.5</ele>
        <time>2016-01-01T14:32:04Z</time>
      </trkpt>
      <trkpt lat="48.48166" lon="6.9474">
        <ele>438.02</ele>
        <time>2016-01-01T14:32:14Z</time>
      </trkpt>
      <trkpt lat="48.48172" lon="6.94734">
        <ele>437.54</ele>
        <time>2016-01-01T14:32:22Z</time>
      </trkpt>
      <trkpt lat="48.48173" lon="6.94728">
        <ele>438.02</ele>
        <time>2016-01-01T14:32:26Z</time>
      </trkpt>
      <trkpt lat="48.48173" lon="6.94722">
        <ele>438.02</ele>
        <time>2016-01-01T14:32:30Z</time>
      </trkpt>
      <trkpt lat="48.48173" lon="6.94716">
        <ele>435.13</ele>
        <time>2016-01-01T14:32:33Z</time>
      </trkpt>
      <trkpt lat="48.48174" lon="6.94714">
        <ele>438.02</ele>
        <time>2016-01-01T14:32:34Z</time>
      </trkpt>
      <trkpt lat="48.48174" lon="6.94712">
        <ele>438.02</ele>
        <time>2016-01-01T14:32:36Z</time>
      </trkpt>
      <trkpt lat="48.48174" lon="6.94705">
        <ele>435.61</ele>
        <time>2016-01-01T14:32:40Z</time>
      </trkpt>
      <trkpt lat="48.48174" lon="6.94702">
        <ele>438.02</ele>
        <time>2016-01-01T14:32:41Z</time>
      </trkpt>
      <trkpt lat="48.48173" lon="6.94697">
        <ele>438.02</ele>
        <time>2016-01-01T14:32:44Z</time>
      </trkpt>
      <trkpt lat="48.48171" lon="6.94694">
        <ele>438.02</ele>
        <time>2016-01-01T14:32:47Z</time>
      </trkpt>
      <trkpt lat="48.4817" lon="6.94689">
        <ele>438.02</ele>
        <time>2016-01-01T14:32:50Z</time>
      </trkpt>
      <trkpt lat="48.48169" lon="6.94681">
        <ele>441.38</ele>
        <time>2016-01-01T14:32:54Z</time>
      </trkpt>
      <trkpt lat="48.48169" lon="6.94679">
        <ele>438.5</ele>
        <time>2016-01-01T14:32:55Z</time>
      </trkpt>
      <trkpt lat="48.48169" lon="6.94675">
        <ele>434.17</ele>
        <time>2016-01-01T14:32:57Z</time>
      </trkpt>
      <trkpt lat="48.48168" lon="6.94671">
        <ele>438.02</ele>
        <time>2016-01-01T14:33:00Z</time>
      </trkpt>
      <trkpt lat="48.48167" lon="6.94668">
        <ele>438.02</ele>
        <time>2016-01-01T14:33:02Z</time>
      </trkpt>
      <trkpt lat="48.48166" lon="6.94659">
        <ele>438.5</ele>
        <time>2016-01-01T14:33:06Z</time>
      </trkpt>
      <trkpt lat="48.48163" lon="6.94648">
        <ele>438.98</ele>
        <time>2016-01-01T14:33:11Z</time>
      </trkpt>
      <trkpt lat="48.48158" lon="6.94619">
        <ele>439.46</ele>
        <time>2016-01-01T14:33:20Z</time>
      </trkpt>
      <trkpt lat="48.48158" lon="6.94616">
        <ele>439.46</ele>
        <time>2016-01-01T14:33:21Z</time>
      </trkpt>
      <trkpt lat="48.48156" lon="6.94596">
        <ele>439.46</ele>
        <time>2016-01-01T14:33:29Z</time>
      </trkpt>
      <trkpt lat="48.4815" lon="6.94569">
        <ele>439.94</ele>
        <time>2016-01-01T14:33:40Z</time>
      </trkpt>
      <trkpt lat="48.48144" lon="6.94538">
        <ele>440.9</ele>
        <time>2016-01-01T14:33:52Z</time>
      </trkpt>
      <trkpt lat="48.48144" lon="6.94536">
        <ele>440.9</ele>
        <time>2016-01-01T14:33:53Z</time>
      </trkpt>
      <trkpt lat="48.48138" lon="6.94514">
        <ele>441.38</ele>
        <time>2016-01-01T14:34:02Z</time>
      </trkpt>
      <trkpt lat="48.48136" lon="6.94505">
        <ele>441.86</ele>
        <time>2016-01-01T14:34:06Z</time>
      </trkpt>
      <trkpt lat="48.48131" lon="6.94478">
        <ele>437.54</ele>
        <time>2016-01-01T14:34:19Z</time>
      </trkpt>
      <trkpt lat="48.4813" lon="6.94476">
        <ele>442.82</ele>
        <time>2016-01-01T14:34:20Z</time>
      </trkpt>
      <trkpt lat="48.4813" lon="6.94468">
        <ele>446.19</ele>
        <time>2016-01-01T14:34:23Z</time>
      </trkpt>
      <trkpt lat="48.4813" lon="6.94466">
        <ele>442.82</ele>
        <time>2016-01-01T14:34:24Z</time>
      </trkpt>
      <trkpt lat="48.48128" lon="6.9445">
        <ele>434.17</ele>
        <time>2016-01-01T14:34:31Z</time>
      </trkpt>
      <trkpt lat="48.48128" lon="6.94448">
        <ele>443.79</ele>
        <time>2016-01-01T14:34:32Z</time>
      </trkpt>
      <trkpt lat="48.48125" lon="6.94437">
        <ele>442.82</ele>
        <time>2016-01-01T14:34:36Z</time>
      </trkpt>
      <trkpt lat="48.48122" lon="6.94434">
        <ele>441.86</ele>
        <time>2016-01-01T14:34:38Z</time>
      </trkpt>
      <trkpt lat="48.48117" lon="6.94424">
        <ele>442.34</ele>
        <time>2016-01-01T14:34:45Z</time>
      </trkpt>
      <trkpt lat="48.48116" lon="6.94421">
        <ele>442.34</ele>
        <time>2016-01-01T14:34:47Z</time>
      </trkpt>
      <trkpt lat="48.48108" lon="6.94402">
        <ele>438.98</ele>
        <time>2016-01-01T14:34:58Z</time>
      </trkpt>
      <trkpt lat="48.48106" lon="6.94398">
        <ele>442.34</ele>
        <time>2016-01-01T14:35:00Z</time>
      </trkpt>
      <trkpt lat="48.48105" lon="6.94395">
        <ele>440.9</ele>
        <time>2016-01-01T14:35:01Z</time>
      </trkpt>
      <trkpt lat="48.48104" lon="6.94395">
        <ele>434.17</ele>
        <time>2016-01-01T14:35:02Z</time>
      </trkpt>
      <trkpt lat="48.48103" lon="6.94394">
        <ele>440.9</ele>
        <time>2016-01-01T14:35:03Z</time>
      </trkpt>
      <trkpt lat="48.481" lon="6.94386">
        <ele>437.54</ele>
        <time>2016-01-01T14:35:11Z</time>
      </trkpt>
      <trkpt lat="48.481" lon="6.94385">
        <ele>434.65</ele>
        <time>2016-01-01T14:35:12Z</time>
      </trkpt>
      <trkpt lat="48.481" lon="6.94385">
        <ele>439.94</ele>
        <time>2016-01-01T14:35:13Z</time>
      </trkpt>
      <trkpt lat="48.481" lon="6.94385">
        <ele>440.42</ele>
        <time>2016-01-01T14:35:14Z</time>
      </trkpt>
      <trkpt lat="48.481" lon="6.94383">
        <ele>439.94</ele>
        <time>2016-01-01T14:35:23Z</time>
      </trkpt>
      <trkpt lat="48.48105" lon="6.94391">
        <ele>440.42</ele>
        <time>2016-01-01T14:35:35Z</time>
      </trkpt>
      <trkpt lat="48.48105" lon="6.94389">
        <ele>441.86</ele>
        <time>2016-01-01T14:35:38Z</time>
      </trkpt>
      <trkpt lat="48.48108" lon="6.94376">
        <ele>443.79</ele>
        <time>2016-01-01T14:35:52Z</time>
      </trkpt>
      <trkpt lat="48.48106" lon="6.94365">
        <ele>438.02</ele>
        <time>2016-01-01T14:36:03Z</time>
      </trkpt>
      <trkpt lat="48.48105" lon="6.94363">
        <ele>445.23</ele>
        <time>2016-01-01T14:36:04Z</time>
      </trkpt>
      <trkpt lat="48.48106" lon="6.94356">
        <ele>445.23</ele>
        <time>2016-01-01T14:36:07Z</time>
      </trkpt>
      <trkpt lat="48.48105" lon="6.94352">
        <ele>446.67</ele>
        <time>2016-01-01T14:36:09Z</time>
      </trkpt>
      <trkpt lat="48.48103" lon="6.94333">
        <ele>448.11</ele>
        <time>2016-01-01T14:36:17Z</time>
      </trkpt>
      <trkpt lat="48.48102" lon="6.94308">
        <ele>447.63</ele>
        <time>2016-01-01T14:36:31Z</time>
      </trkpt>
      <trkpt lat="48.48103" lon="6.94297">
        <ele>448.11</ele>
        <time>2016-01-01T14:36:37Z</time>
      </trkpt>
      <trkpt lat="48.48107" lon="6.94276">
        <ele>448.11</ele>
        <time>2016-01-01T14:36:47Z</time>
      </trkpt>
      <trkpt lat="48.48108" lon="6.94269">
        <ele>449.07</ele>
        <time>2016-01-01T14:36:50Z</time>
      </trkpt>
      <trkpt lat="48.48116" lon="6.94241">
        <ele>450.52</ele>
        <time>2016-01-01T14:37:02Z</time>
      </trkpt>
      <trkpt lat="48.48118" lon="6.94236">
        <ele>451.48</ele>
        <time>2016-01-01T14:37:04Z</time>
      </trkpt>
      <trkpt lat="48.48121" lon="6.9423">
        <ele>450.52</ele>
        <time>2016-01-01T14:37:08Z</time>
      </trkpt>
      <trkpt lat="48.48126" lon="6.94224">
        <ele>451.48</ele>
        <time>2016-01-01T14:37:12Z</time>
      </trkpt>
      <trkpt lat="48.48129" lon="6.9422">
        <ele>451.48</ele>
        <time>2016-01-01T14:37:15Z</time>
      </trkpt>
      <trkpt lat="48.48133" lon="6.94217">
        <ele>451.96</ele>
        <time>2016-01-01T14:37:18Z</time>
      </trkpt>
      <trkpt lat="48.48137" lon="6.94211">
        <ele>452.92</ele>
        <time>2016-01-01T14:37:22Z</time>
      </trkpt>
      <trkpt lat="48.48154" lon="6.94191">
        <ele>453.88</ele>
        <time>2016-01-01T14:37:35Z</time>
      </trkpt>
      <trkpt lat="48.4816" lon="6.94186">
        <ele>454.36</ele>
        <time>2016-01-01T14:37:41Z</time>
      </trkpt>
      <trkpt lat="48.48177" lon="6.94177">
        <ele>454.84</ele>
        <time>2016-01-01T14:37:52Z</time>
      </trkpt>
      <trkpt lat="48.48185" lon="6.94176">
        <ele>454.84</ele>
        <time>2016-01-01T14:37:57Z</time>
      </trkpt>
      <trkpt lat="48.48193" lon="6.94173">
        <ele>455.8</ele>
        <time>2016-01-01T14:38:02Z</time>
      </trkpt>
      <trkpt lat="48.48196" lon="6.94173">
        <ele>455.8</ele>
        <time>2016-01-01T14:38:04Z</time>
      </trkpt>
      <trkpt lat="48.48212" lon="6.9417">
        <ele>456.28</ele>
        <time>2016-01-01T14:38:14Z</time>
      </trkpt>
      <trkpt lat="48.48214" lon="6.9417">
        <ele>455.8</ele>
        <time>2016-01-01T14:38:15Z</time>
      </trkpt>
      <trkpt lat="48.48229" lon="6.94171">
        <ele>456.28</ele>
        <time>2016-01-01T14:38:25Z</time>
      </trkpt>
      <trkpt lat="48.48246" lon="6.94171">
        <ele>456.28</ele>
        <time>2016-01-01T14:38:36Z</time>
      </trkpt>
      <trkpt lat="48.4826" lon="6.94168">
        <ele>457.24</ele>
        <time>2016-01-01T14:38:45Z</time>
      </trkpt>
      <trkpt lat="48.48262" lon="6.94167">
        <ele>456.76</ele>
        <time>2016-01-01T14:38:46Z</time>
      </trkpt>
      <trkpt lat="48.48274" lon="6.94146">
        <ele>459.17</ele>
        <time>2016-01-01T14:38:59Z</time>
      </trkpt>
      <trkpt lat="48.48284" lon="6.94127">
        <ele>459.65</ele>
        <time>2016-01-01T14:39:11Z</time>
      </trkpt>
      <trkpt lat="48.48285" lon="6.94097">
        <ele>460.61</ele>
        <time>2016-01-01T14:39:24Z</time>
      </trkpt>
      <trkpt lat="48.48286" lon="6.94091">
        <ele>455.8</ele>
        <time>2016-01-01T14:39:27Z</time>
      </trkpt>
      <trkpt lat="48.48286" lon="6.94089">
        <ele>460.61</ele>
        <time>2016-01-01T14:39:28Z</time>
      </trkpt>
      <trkpt lat="48.48285" lon="6.94068">
        <ele>461.57</ele>
        <time>2016-01-01T14:39:41Z</time>
      </trkpt>
      <trkpt lat="48.48284" lon="6.94063">
        <ele>459.65</ele>
        <time>2016-01-01T14:39:45Z</time>
      </trkpt>
      <trkpt lat="48.48283" lon="6.94061">
        <ele>461.57</ele>
        <time>2016-01-01T14:39:47Z</time>
      </trkpt>
      <trkpt lat="48.48279" lon="6.94049">
        <ele>455.32</ele>
        <time>2016-01-01T14:39:53Z</time>
      </trkpt>
      <trkpt lat="48.48279" lon="6.94048">
        <ele>462.53</ele>
        <time>2016-01-01T14:39:54Z</time>
      </trkpt>
      <trkpt lat="48.48279" lon="6.94047">
        <ele>456.76</ele>
        <time>2016-01-01T14:39:56Z</time>
      </trkpt>
      <trkpt lat="48.48279" lon="6.94046">
        <ele>462.05</ele>
        <time>2016-01-01T14:39:58Z</time>
      </trkpt>
      <trkpt lat="48.48279" lon="6.94045">
        <ele>466.38</ele>
        <time>2016-01-01T14:40:00Z</time>
      </trkpt>
      <trkpt lat="48.48279" lon="6.94044">
        <ele>458.21</ele>
        <time>2016-01-01T14:40:01Z</time>
      </trkpt>
      <trkpt lat="48.48279" lon="6.94042">
        <ele>458.69</ele>
        <time>2016-01-01T14:40:02Z</time>
      </trkpt>
      <trkpt lat="48.48279" lon="6.94041">
        <ele>463.49</ele>
        <time>2016-01-01T14:40:03Z</time>
      </trkpt>
      <trkpt lat="48.48279" lon="6.94039">
        <ele>463.49</ele>
        <time>2016-01-01T14:40:06Z</time>
      </trkpt>
      <trkpt lat="48.48287" lon="6.94015">
        <ele>464.93</ele>
        <time>2016-01-01T14:40:19Z</time>
      </trkpt>
      <trkpt lat="48.48293" lon="6.94001">
        <ele>465.9</ele>
        <time>2016-01-01T14:40:28Z</time>
      </trkpt>
      <trkpt lat="48.48294" lon="6.93999">
        <ele>469.26</ele>
        <time>2016-01-01T14:40:29Z</time>
      </trkpt>
      <trkpt lat="48.48294" lon="6.93997">
        <ele>464.45</ele>
        <time>2016-01-01T14:40:30Z</time>
      </trkpt>
      <trkpt lat="48.48295" lon="6.93994">
        <ele>467.82</ele>
        <time>2016-01-01T14:40:32Z</time>
      </trkpt>
      <trkpt lat="48.48296" lon="6.93993">
        <ele>459.65</ele>
        <time>2016-01-01T14:40:33Z</time>
      </trkpt>
      <trkpt lat="48.48296" lon="6.93992">
        <ele>466.38</ele>
        <time>2016-01-01T14:40:34Z</time>
      </trkpt>
      <trkpt lat="48.48298" lon="6.93987">
        <ele>464.93</ele>
        <time>2016-01-01T14:40:37Z</time>
      </trkpt>
      <trkpt lat="48.48299" lon="6.93983">
        <ele>462.05</ele>
        <time>2016-01-01T14:40:40Z</time>
      </trkpt>
      <trkpt lat="48.483" lon="6.93982">
        <ele>467.34</ele>
        <time>2016-01-01T14:40:41Z</time>
      </trkpt>
      <trkpt lat="48.483" lon="6.93979">
        <ele>460.13</ele>
        <time>2016-01-01T14:40:43Z</time>
      </trkpt>
      <trkpt lat="48.48301" lon="6.93979">
        <ele>467.82</ele>
        <time>2016-01-01T14:40:44Z</time>
      </trkpt>
      <trkpt lat="48.48307" lon="6.93961">
        <ele>468.3</ele>
        <time>2016-01-01T14:40:57Z</time>
      </trkpt>
      <trkpt lat="48.48307" lon="6.93959">
        <ele>459.17</ele>
        <time>2016-01-01T14:40:58Z</time>
      </trkpt>
      <trkpt lat="48.48307" lon="6.93958">
        <ele>468.78</ele>
        <time>2016-01-01T14:40:59Z</time>
      </trkpt>
      <trkpt lat="48.48307" lon="6.93957">
        <ele>463.49</ele>
        <time>2016-01-01T14:41:00Z</time>
      </trkpt>
      <trkpt lat="48.48307" lon="6.93956">
        <ele>466.86</ele>
        <time>2016-01-01T14:41:01Z</time>
      </trkpt>
      <trkpt lat="48.48307" lon="6.93956">
        <ele>470.22</ele>
        <time>2016-01-01T14:41:03Z</time>
      </trkpt>
      <trkpt lat="48.48308" lon="6.93957">
        <ele>463.01</ele>
        <time>2016-01-01T14:41:10Z</time>
      </trkpt>
      <trkpt lat="48.48308" lon="6.93957">
        <ele>469.26</ele>
        <time>2016-01-01T14:41:11Z</time>
      </trkpt>
      <trkpt lat="48.48308" lon="6.93957">
        <ele>463.49</ele>
        <time>2016-01-01T14:41:12Z</time>
      </trkpt>
      <trkpt lat="48.48308" lon="6.93957">
        <ele>469.26</ele>
        <time>2016-01-01T14:41:13Z</time>
      </trkpt>
      <trkpt lat="48.48308" lon="6.93957">
        <ele>463.49</ele>
        <time>2016-01-01T14:41:14Z</time>
      </trkpt>
      <trkpt lat="48.48308" lon="6.93957">
        <ele>467.82</ele>
        <time>2016-01-01T14:41:15Z</time>
      </trkpt>
      <trkpt lat="48.48308" lon="6.93956">
        <ele>469.26</ele>
        <time>2016-01-01T14:41:29Z</time>
      </trkpt>
      <trkpt lat="48.48307" lon="6.93954">
        <ele>468.3</ele>
        <time>2016-01-01T14:41:31Z</time>
      </trkpt>
      <trkpt lat="48.48304" lon="6.93939">
        <ele>465.42</ele>
        <time>2016-01-01T14:41:45Z</time>
      </trkpt>
      <trkpt lat="48.483" lon="6.9393">
        <ele>463.97</ele>
        <time>2016-01-01T14:41:52Z</time>
      </trkpt>
      <trkpt lat="48.48298" lon="6.93925">
        <ele>462.53</ele>
        <time>2016-01-01T14:41:55Z</time>
      </trkpt>
      <trkpt lat="48.48292" lon="6.93913">
        <ele>461.09</ele>
        <time>2016-01-01T14:42:02Z</time>
      </trkpt>
      <trkpt lat="48.48282" lon="6.93899">
        <ele>460.13</ele>
        <time>2016-01-01T14:42:09Z</time>
      </trkpt>
      <trkpt lat="48.48272" lon="6.93895">
        <ele>458.69</ele>
        <time>2016-01-01T14:42:14Z</time>
      </trkpt>
      <trkpt lat="48.48265" lon="6.93895">
        <ele>457.72</ele>
        <time>2016-01-01T14:42:18Z</time>
      </trkpt>
      <trkpt lat="48.4826" lon="6.93896">
        <ele>457.24</ele>
        <time>2016-01-01T14:42:21Z</time>
      </trkpt>
      <trkpt lat="48.48253" lon="6.93899">
        <ele>456.76</ele>
        <time>2016-01-01T14:42:24Z</time>
      </trkpt>
      <trkpt lat="48.48247" lon="6.93899">
        <ele>456.28</ele>
        <time>2016-01-01T14:42:27Z</time>
      </trkpt>
      <trkpt lat="48.48243" lon="6.93899">
        <ele>456.28</ele>
        <time>2016-01-01T14:42:30Z</time>
      </trkpt>
      <trkpt lat="48.48239" lon="6.93903">
        <ele>455.8</ele>
        <time>2016-01-01T14:42:34Z</time>
      </trkpt>
      <trkpt lat="48.48233" lon="6.93905">
        <ele>454.36</ele>
        <time>2016-01-01T14:42:38Z</time>
      </trkpt>
      <trkpt lat="48.48215" lon="6.93905">
        <ele>452.92</ele>
        <time>2016-01-01T14:42:50Z</time>
      </trkpt>
      <trkpt lat="48.48211" lon="6.93903">
        <ele>452.44</ele>
        <time>2016-01-01T14:42:54Z</time>
      </trkpt>
      <trkpt lat="48.48203" lon="6.93901">
        <ele>450.52</ele>
        <time>2016-01-01T14:43:04Z</time>
      </trkpt>
      <trkpt lat="48.48196" lon="6.93899">
        <ele>449.55</ele>
        <time>2016-01-01T14:43:09Z</time>
      </trkpt>
      <trkpt lat="48.48179" lon="6.93898">
        <ele>447.63</ele>
        <time>2016-01-01T14:43:21Z</time>
      </trkpt>
      <trkpt lat="48.48167" lon="6.93898">
        <ele>446.67</ele>
        <time>2016-01-01T14:43:31Z</time>
      </trkpt>
      <trkpt lat="48.48166" lon="6.93896">
        <ele>446.19</ele>
        <time>2016-01-01T14:43:33Z</time>
      </trkpt>
      <trkpt lat="48.48162" lon="6.93892">
        <ele>444.27</ele>
        <time>2016-01-01T14:43:39Z</time>
      </trkpt>
      <trkpt lat="48.48159" lon="6.93887">
        <ele>443.79</ele>
        <time>2016-01-01T14:43:43Z</time>
      </trkpt>
      <trkpt lat="48.48156" lon="6.93886">
        <ele>443.31</ele>
        <time>2016-01-01T14:43:46Z</time>
      </trkpt>
      <trkpt lat="48.48122" lon="6.93905">
        <ele>440.9</ele>
        <time>2016-01-01T14:44:01Z</time>
      </trkpt>
      <trkpt lat="48.48114" lon="6.93905">
        <ele>439.46</ele>
        <time>2016-01-01T14:44:09Z</time>
      </trkpt>
      <trkpt lat="48.4811" lon="6.93906">
        <ele>439.46</ele>
        <time>2016-01-01T14:44:11Z</time>
      </trkpt>
      <trkpt lat="48.48106" lon="6.93907">
        <ele>438.5</ele>
        <time>2016-01-01T14:44:13Z</time>
      </trkpt>
      <trkpt lat="48.48092" lon="6.93909">
        <ele>437.06</ele>
        <time>2016-01-01T14:44:25Z</time>
      </trkpt>
      <trkpt lat="48.4809" lon="6.9391">
        <ele>437.06</ele>
        <time>2016-01-01T14:44:26Z</time>
      </trkpt>
      <trkpt lat="48.48087" lon="6.9391">
        <ele>436.1</ele>
        <time>2016-01-01T14:44:28Z</time>
      </trkpt>
      <trkpt lat="48.48079" lon="6.93913">
        <ele>432.73</ele>
        <time>2016-01-01T14:44:36Z</time>
      </trkpt>
      <trkpt lat="48.48076" lon="6.93915">
        <ele>437.06</ele>
        <time>2016-01-01T14:44:44Z</time>
      </trkpt>
      <trkpt lat="48.48075" lon="6.93915">
        <ele>433.69</ele>
        <time>2016-01-01T14:44:45Z</time>
      </trkpt>
      <trkpt lat="48.48072" lon="6.93914">
        <ele>429.85</ele>
        <time>2016-01-01T14:44:49Z</time>
      </trkpt>
      <trkpt lat="48.4807" lon="6.93914">
        <ele>434.17</ele>
        <time>2016-01-01T14:44:50Z</time>
      </trkpt>
      <trkpt lat="48.48047" lon="6.9392">
        <ele>432.25</ele>
        <time>2016-01-01T14:45:04Z</time>
      </trkpt>
      <trkpt lat="48.48042" lon="6.9392">
        <ele>427.44</ele>
        <time>2016-01-01T14:45:08Z</time>
      </trkpt>
      <trkpt lat="48.48041" lon="6.93919">
        <ele>431.29</ele>
        <time>2016-01-01T14:45:09Z</time>
      </trkpt>
      <trkpt lat="48.48036" lon="6.93922">
        <ele>424.08</ele>
        <time>2016-01-01T14:45:12Z</time>
      </trkpt>
      <trkpt lat="48.48035" lon="6.93923">
        <ele>431.29</ele>
        <time>2016-01-01T14:45:13Z</time>
      </trkpt>
      <trkpt lat="48.48032" lon="6.93924">
        <ele>429.37</ele>
        <time>2016-01-01T14:45:16Z</time>
      </trkpt>
      <trkpt lat="48.48024" lon="6.93928">
        <ele>428.4</ele>
        <time>2016-01-01T14:45:25Z</time>
      </trkpt>
      <trkpt lat="48.48011" lon="6.93932">
        <ele>427.92</ele>
        <time>2016-01-01T14:45:36Z</time>
      </trkpt>
      <trkpt lat="48.48009" lon="6.93932">
        <ele>431.77</ele>
        <time>2016-01-01T14:45:37Z</time>
      </trkpt>
      <trkpt lat="48.48007" lon="6.93932">
        <ele>429.85</ele>
        <time>2016-01-01T14:45:38Z</time>
      </trkpt>
      <trkpt lat="48.48003" lon="6.93932">
        <ele>428.4</ele>
        <time>2016-01-01T14:45:40Z</time>
      </trkpt>
      <trkpt lat="48.47985" lon="6.93931">
        <ele>426.96</ele>
        <time>2016-01-01T14:45:52Z</time>
      </trkpt>
      <trkpt lat="48.47984" lon="6.93931">
        <ele>430.33</ele>
        <time>2016-01-01T14:45:53Z</time>
      </trkpt>
      <trkpt lat="48.47976" lon="6.93928">
        <ele>428.4</ele>
        <time>2016-01-01T14:45:59Z</time>
      </trkpt>
      <trkpt lat="48.4796" lon="6.93929">
        <ele>432.25</ele>
        <time>2016-01-01T14:46:12Z</time>
      </trkpt>
      <trkpt lat="48.47958" lon="6.9393">
        <ele>433.69</ele>
        <time>2016-01-01T14:46:15Z</time>
      </trkpt>
      <trkpt lat="48.47954" lon="6.93931">
        <ele>432.73</ele>
        <time>2016-01-01T14:46:18Z</time>
      </trkpt>
      <trkpt lat="48.47938" lon="6.93933">
        <ele>433.69</ele>
        <time>2016-01-01T14:46:30Z</time>
      </trkpt>
      <trkpt lat="48.47934" lon="6.93933">
        <ele>434.17</ele>
        <time>2016-01-01T14:46:33Z</time>
      </trkpt>
      <trkpt lat="48.47915" lon="6.93935">
        <ele>431.77</ele>
        <time>2016-01-01T14:46:46Z</time>
      </trkpt>
      <trkpt lat="48.47914" lon="6.93935">
        <ele>434.17</ele>
        <time>2016-01-01T14:46:47Z</time>
      </trkpt>
      <trkpt lat="48.479" lon="6.93935">
        <ele>433.69</ele>
        <time>2016-01-01T14:46:56Z</time>
      </trkpt>
      <trkpt lat="48.47893" lon="6.93937">
        <ele>433.69</ele>
        <time>2016-01-01T14:47:00Z</time>
      </trkpt>
      <trkpt lat="48.47888" lon="6.93936">
        <ele>433.21</ele>
        <time>2016-01-01T14:47:02Z</time>
      </trkpt>
      <trkpt lat="48.47884" lon="6.93938">
        <ele>433.69</ele>
        <time>2016-01-01T14:47:04Z</time>
      </trkpt>
      <trkpt lat="48.47881" lon="6.93938">
        <ele>429.85</ele>
        <time>2016-01-01T14:47:06Z</time>
      </trkpt>
      <trkpt lat="48.47879" lon="6.93938">
        <ele>439.94</ele>
        <time>2016-01-01T14:47:07Z</time>
      </trkpt>
      <trkpt lat="48.47878" lon="6.93939">
        <ele>430.81</ele>
        <time>2016-01-01T14:47:08Z</time>
      </trkpt>
      <trkpt lat="48.47875" lon="6.93939">
        <ele>434.17</ele>
        <time>2016-01-01T14:47:10Z</time>
      </trkpt>
      <trkpt lat="48.47873" lon="6.93939">
        <ele>435.13</ele>
        <time>2016-01-01T14:47:12Z</time>
      </trkpt>
      <trkpt lat="48.47871" lon="6.93939">
        <ele>433.69</ele>
        <time>2016-01-01T14:47:13Z</time>
      </trkpt>
      <trkpt lat="48.47866" lon="6.93937">
        <ele>428.4</ele>
        <time>2016-01-01T14:47:17Z</time>
      </trkpt>
      <trkpt lat="48.47865" lon="6.93936">
        <ele>434.65</ele>
        <time>2016-01-01T14:47:18Z</time>
      </trkpt>
      <trkpt lat="48.47863" lon="6.93934">
        <ele>438.98</ele>
        <time>2016-01-01T14:47:20Z</time>
      </trkpt>
      <trkpt lat="48.47861" lon="6.93933">
        <ele>434.17</ele>
        <time>2016-01-01T14:47:21Z</time>
      </trkpt>
      <trkpt lat="48.47855" lon="6.93931">
        <ele>427.44</ele>
        <time>2016-01-01T14:47:25Z</time>
      </trkpt>
      <trkpt lat="48.47854" lon="6.9393">
        <ele>435.13</ele>
        <time>2016-01-01T14:47:26Z</time>
      </trkpt>
      <trkpt lat="48.47846" lon="6.93924">
        <ele>430.81</ele>
        <time>2016-01-01T14:47:32Z</time>
      </trkpt>
      <trkpt lat="48.47846" lon="6.93923">
        <ele>435.61</ele>
        <time>2016-01-01T14:47:33Z</time>
      </trkpt>
      <trkpt lat="48.47845" lon="6.93923">
        <ele>436.1</ele>
        <time>2016-01-01T14:47:34Z</time>
      </trkpt>
      <trkpt lat="48.47842" lon="6.93922">
        <ele>432.25</ele>
        <time>2016-01-01T14:47:36Z</time>
      </trkpt>
      <trkpt lat="48.47841" lon="6.93921">
        <ele>435.61</ele>
        <time>2016-01-01T14:47:37Z</time>
      </trkpt>
      <trkpt lat="48.47826" lon="6.9391">
        <ele>433.69</ele>
        <time>2016-01-01T14:47:50Z</time>
      </trkpt>
      <trkpt lat="48.47824" lon="6.93909">
        <ele>436.58</ele>
        <time>2016-01-01T14:47:51Z</time>
      </trkpt>
      <trkpt lat="48.4781" lon="6.93895">
        <ele>437.06</ele>
        <time>2016-01-01T14:48:01Z</time>
      </trkpt>
      <trkpt lat="48.47804" lon="6.93889">
        <ele>437.54</ele>
        <time>2016-01-01T14:48:04Z</time>
      </trkpt>
      <trkpt lat="48.47795" lon="6.93879">
        <ele>437.54</ele>
        <time>2016-01-01T14:48:09Z</time>
      </trkpt>
      <trkpt lat="48.4779" lon="6.93872">
        <ele>437.06</ele>
        <time>2016-01-01T14:48:12Z</time>
      </trkpt>
      <trkpt lat="48.47775" lon="6.93861">
        <ele>436.58</ele>
        <time>2016-01-01T14:48:19Z</time>
      </trkpt>
      <trkpt lat="48.47767" lon="6.93855">
        <ele>435.61</ele>
        <time>2016-01-01T14:48:23Z</time>
      </trkpt>
      <trkpt lat="48.47755" lon="6.93842">
        <ele>435.13</ele>
        <time>2016-01-01T14:48:29Z</time>
      </trkpt>
      <trkpt lat="48.4775" lon="6.93835">
        <ele>434.65</ele>
        <time>2016-01-01T14:48:31Z</time>
      </trkpt>
      <trkpt lat="48.47744" lon="6.93816">
        <ele>433.69</ele>
        <time>2016-01-01T14:48:37Z</time>
      </trkpt>
      <trkpt lat="48.47735" lon="6.9379">
        <ele>433.21</ele>
        <time>2016-01-01T14:48:48Z</time>
      </trkpt>
      <trkpt lat="48.47733" lon="6.93768">
        <ele>433.21</ele>
        <time>2016-01-01T14:48:56Z</time>
      </trkpt>
      <trkpt lat="48.47732" lon="6.93755">
        <ele>432.73</ele>
        <time>2016-01-01T14:49:01Z</time>
      </trkpt>
      <trkpt lat="48.47727" lon="6.93715">
        <ele>432.25</ele>
        <time>2016-01-01T14:49:11Z</time>
      </trkpt>
      <trkpt lat="48.47725" lon="6.93688">
        <ele>431.77</ele>
        <time>2016-01-01T14:49:19Z</time>
      </trkpt>
      <trkpt lat="48.47723" lon="6.93668">
        <ele>428.89</ele>
        <time>2016-01-01T14:49:28Z</time>
      </trkpt>
      <trkpt lat="48.47723" lon="6.93639">
        <ele>429.37</ele>
        <time>2016-01-01T14:49:40Z</time>
      </trkpt>
      <trkpt lat="48.47724" lon="6.93635">
        <ele>429.37</ele>
        <time>2016-01-01T14:49:42Z</time>
      </trkpt>
      <trkpt lat="48.47723" lon="6.93617">
        <ele>430.33</ele>
        <time>2016-01-01T14:49:49Z</time>
      </trkpt>
      <trkpt lat="48.47722" lon="6.93591">
        <ele>430.81</ele>
        <time>2016-01-01T14:50:00Z</time>
      </trkpt>
      <trkpt lat="48.47723" lon="6.93585">
        <ele>431.29</ele>
        <time>2016-01-01T14:50:03Z</time>
      </trkpt>
      <trkpt lat="48.47722" lon="6.9358">
        <ele>430.81</ele>
        <time>2016-01-01T14:50:04Z</time>
      </trkpt>
      <trkpt lat="48.4772" lon="6.93568">
        <ele>430.81</ele>
        <time>2016-01-01T14:50:09Z</time>
      </trkpt>
      <trkpt lat="48.47715" lon="6.93557">
        <ele>430.33</ele>
        <time>2016-01-01T14:50:14Z</time>
      </trkpt>
      <trkpt lat="48.47704" lon="6.93533">
        <ele>429.85</ele>
        <time>2016-01-01T14:50:25Z</time>
      </trkpt>
      <trkpt lat="48.47688" lon="6.9352">
        <ele>432.73</ele>
        <time>2016-01-01T14:50:37Z</time>
      </trkpt>
      <trkpt lat="48.47669" lon="6.93512">
        <ele>435.13</ele>
        <time>2016-01-01T14:50:47Z</time>
      </trkpt>
      <trkpt lat="48.47662" lon="6.93503">
        <ele>436.1</ele>
        <time>2016-01-01T14:50:53Z</time>
      </trkpt>
      <trkpt lat="48.47643" lon="6.93492">
        <ele>439.46</ele>
        <time>2016-01-01T14:51:07Z</time>
      </trkpt>
      <trkpt lat="48.47638" lon="6.93493">
        <ele>439.94</ele>
        <time>2016-01-01T14:51:10Z</time>
      </trkpt>
      <trkpt lat="48.47621" lon="6.93492">
        <ele>441.86</ele>
        <time>2016-01-01T14:51:22Z</time>
      </trkpt>
      <trkpt lat="48.47619" lon="6.93491">
        <ele>442.82</ele>
        <time>2016-01-01T14:51:25Z</time>
      </trkpt>
      <trkpt lat="48.47614" lon="6.9349">
        <ele>443.31</ele>
        <time>2016-01-01T14:51:29Z</time>
      </trkpt>
      <trkpt lat="48.47604" lon="6.93485">
        <ele>445.71</ele>
        <time>2016-01-01T14:51:40Z</time>
      </trkpt>
      <trkpt lat="48.47604" lon="6.93484">
        <ele>445.71</ele>
        <time>2016-01-01T14:51:41Z</time>
      </trkpt>
      <trkpt lat="48.47601" lon="6.93484">
        <ele>446.19</ele>
        <time>2016-01-01T14:51:43Z</time>
      </trkpt>
      <trkpt lat="48.47591" lon="6.93487">
        <ele>447.63</ele>
        <time>2016-01-01T14:51:52Z</time>
      </trkpt>
      <trkpt lat="48.47585" lon="6.93487">
        <ele>450.03</ele>
        <time>2016-01-01T14:52:02Z</time>
      </trkpt>
      <trkpt lat="48.47584" lon="6.93486">
        <ele>450.52</ele>
        <time>2016-01-01T14:52:05Z</time>
      </trkpt>
      <trkpt lat="48.47583" lon="6.93486">
        <ele>451</ele>
        <time>2016-01-01T14:52:06Z</time>
      </trkpt>
      <trkpt lat="48.47577" lon="6.9349">
        <ele>451.96</ele>
        <time>2016-01-01T14:52:10Z</time>
      </trkpt>
      <trkpt lat="48.47552" lon="6.93502">
        <ele>452.44</ele>
        <time>2016-01-01T14:52:17Z</time>
      </trkpt>
      <trkpt lat="48.47536" lon="6.93508">
        <ele>454.36</ele>
        <time>2016-01-01T14:52:26Z</time>
      </trkpt>
      <trkpt lat="48.47532" lon="6.93508">
        <ele>455.32</ele>
        <time>2016-01-01T14:52:31Z</time>
      </trkpt>
      <trkpt lat="48.47515" lon="6.93522">
        <ele>457.24</ele>
        <time>2016-01-01T14:52:42Z</time>
      </trkpt>
      <trkpt lat="48.47509" lon="6.93525">
        <ele>458.69</ele>
        <time>2016-01-01T14:52:48Z</time>
      </trkpt>
      <trkpt lat="48.47504" lon="6.93527">
        <ele>460.61</ele>
        <time>2016-01-01T14:52:55Z</time>
      </trkpt>
      <trkpt lat="48.47497" lon="6.93535">
        <ele>462.53</ele>
        <time>2016-01-01T14:53:05Z</time>
      </trkpt>
      <trkpt lat="48.47496" lon="6.93535">
        <ele>463.01</ele>
        <time>2016-01-01T14:53:07Z</time>
      </trkpt>
      <trkpt lat="48.47484" lon="6.93548">
        <ele>463.97</ele>
        <time>2016-01-01T14:53:16Z</time>
      </trkpt>
      <trkpt lat="48.47472" lon="6.93561">
        <ele>465.42</ele>
        <time>2016-01-01T14:53:27Z</time>
      </trkpt>
      <trkpt lat="48.47456" lon="6.93589">
        <ele>465.9</ele>
        <time>2016-01-01T14:53:41Z</time>
      </trkpt>
      <trkpt lat="48.47444" lon="6.93601">
        <ele>465.42</ele>
        <time>2016-01-01T14:53:52Z</time>
      </trkpt>
      <trkpt lat="48.4744" lon="6.93602">
        <ele>464.93</ele>
        <time>2016-01-01T14:53:55Z</time>
      </trkpt>
      <trkpt lat="48.47422" lon="6.93609">
        <ele>463.97</ele>
        <time>2016-01-01T14:54:08Z</time>
      </trkpt>
      <trkpt lat="48.47418" lon="6.93608">
        <ele>463.49</ele>
        <time>2016-01-01T14:54:11Z</time>
      </trkpt>
      <trkpt lat="48.47412" lon="6.93605">
        <ele>463.49</ele>
        <time>2016-01-01T14:54:15Z</time>
      </trkpt>
      <trkpt lat="48.4739" lon="6.93603">
        <ele>462.53</ele>
        <time>2016-01-01T14:54:26Z</time>
      </trkpt>
      <trkpt lat="48.47377" lon="6.93603">
        <ele>461.09</ele>
        <time>2016-01-01T14:54:31Z</time>
      </trkpt>
      <trkpt lat="48.47363" lon="6.93596">
        <ele>459.17</ele>
        <time>2016-01-01T14:54:39Z</time>
      </trkpt>
      <trkpt lat="48.47341" lon="6.93582">
        <ele>458.21</ele>
        <time>2016-01-01T14:54:53Z</time>
      </trkpt>
      <trkpt lat="48.47334" lon="6.93576">
        <ele>453.4</ele>
        <time>2016-01-01T14:54:58Z</time>
      </trkpt>
      <trkpt lat="48.47333" lon="6.93575">
        <ele>454.84</ele>
        <time>2016-01-01T14:54:59Z</time>
      </trkpt>
      <trkpt lat="48.4733" lon="6.93572">
        <ele>456.76</ele>
        <time>2016-01-01T14:55:02Z</time>
      </trkpt>
      <trkpt lat="48.47325" lon="6.93562">
        <ele>460.13</ele>
        <time>2016-01-01T14:55:10Z</time>
      </trkpt>
      <trkpt lat="48.47324" lon="6.93562">
        <ele>456.28</ele>
        <time>2016-01-01T14:55:11Z</time>
      </trkpt>
      <trkpt lat="48.47322" lon="6.93561">
        <ele>456.76</ele>
        <time>2016-01-01T14:55:13Z</time>
      </trkpt>
      <trkpt lat="48.47319" lon="6.93557">
        <ele>456.28</ele>
        <time>2016-01-01T14:55:15Z</time>
      </trkpt>
      <trkpt lat="48.47302" lon="6.93543">
        <ele>455.32</ele>
        <time>2016-01-01T14:55:28Z</time>
      </trkpt>
      <trkpt lat="48.47294" lon="6.93537">
        <ele>455.32</ele>
        <time>2016-01-01T14:55:34Z</time>
      </trkpt>
      <trkpt lat="48.47291" lon="6.93535">
        <ele>454.84</ele>
        <time>2016-01-01T14:55:36Z</time>
      </trkpt>
      <trkpt lat="48.47288" lon="6.93533">
        <ele>454.36</ele>
        <time>2016-01-01T14:55:38Z</time>
      </trkpt>
      <trkpt lat="48.47268" lon="6.93521">
        <ele>452.92</ele>
        <time>2016-01-01T14:55:50Z</time>
      </trkpt>
      <trkpt lat="48.47259" lon="6.93516">
        <ele>452.44</ele>
        <time>2016-01-01T14:55:56Z</time>
      </trkpt>
      <trkpt lat="48.47252" lon="6.93502">
        <ele>451.96</ele>
        <time>2016-01-01T14:56:03Z</time>
      </trkpt>
      <trkpt lat="48.47245" lon="6.93498">
        <ele>451.96</ele>
        <time>2016-01-01T14:56:08Z</time>
      </trkpt>
      <trkpt lat="48.47239" lon="6.93493">
        <ele>451.48</ele>
        <time>2016-01-01T14:56:12Z</time>
      </trkpt>
      <trkpt lat="48.47223" lon="6.93473">
        <ele>450.52</ele>
        <time>2016-01-01T14:56:24Z</time>
      </trkpt>
      <trkpt lat="48.47215" lon="6.93468">
        <ele>450.52</ele>
        <time>2016-01-01T14:56:31Z</time>
      </trkpt>
      <trkpt lat="48.47208" lon="6.93457">
        <ele>450.52</ele>
        <time>2016-01-01T14:56:36Z</time>
      </trkpt>
      <trkpt lat="48.47204" lon="6.93453">
        <ele>450.52</ele>
        <time>2016-01-01T14:56:40Z</time>
      </trkpt>
      <trkpt lat="48.47199" lon="6.93438">
        <ele>453.4</ele>
        <time>2016-01-01T14:56:48Z</time>
      </trkpt>
      <trkpt lat="48.47188" lon="6.93413">
        <ele>457.72</ele>
        <time>2016-01-01T14:57:01Z</time>
      </trkpt>
      <trkpt lat="48.47186" lon="6.93401">
        <ele>459.17</ele>
        <time>2016-01-01T14:57:05Z</time>
      </trkpt>
      <trkpt lat="48.47185" lon="6.93395">
        <ele>460.13</ele>
        <time>2016-01-01T14:57:07Z</time>
      </trkpt>
      <trkpt lat="48.47181" lon="6.93386">
        <ele>461.09</ele>
        <time>2016-01-01T14:57:12Z</time>
      </trkpt>
      <trkpt lat="48.47177" lon="6.93377">
        <ele>461.57</ele>
        <time>2016-01-01T14:57:17Z</time>
      </trkpt>
      <trkpt lat="48.47175" lon="6.93365">
        <ele>463.01</ele>
        <time>2016-01-01T14:57:23Z</time>
      </trkpt>
      <trkpt lat="48.4717" lon="6.93351">
        <ele>464.93</ele>
        <time>2016-01-01T14:57:29Z</time>
      </trkpt>
      <trkpt lat="48.47169" lon="6.9335">
        <ele>464.93</ele>
        <time>2016-01-01T14:57:30Z</time>
      </trkpt>
      <trkpt lat="48.47164" lon="6.93339">
        <ele>466.86</ele>
        <time>2016-01-01T14:57:36Z</time>
      </trkpt>
      <trkpt lat="48.47162" lon="6.93335">
        <ele>466.86</ele>
        <time>2016-01-01T14:57:38Z</time>
      </trkpt>
      <trkpt lat="48.47157" lon="6.93325">
        <ele>467.82</ele>
        <time>2016-01-01T14:57:42Z</time>
      </trkpt>
      <trkpt lat="48.47157" lon="6.93321">
        <ele>467.82</ele>
        <time>2016-01-01T14:57:44Z</time>
      </trkpt>
      <trkpt lat="48.47156" lon="6.93315">
        <ele>468.78</ele>
        <time>2016-01-01T14:57:48Z</time>
      </trkpt>
      <trkpt lat="48.47152" lon="6.93305">
        <ele>469.74</ele>
        <time>2016-01-01T14:57:53Z</time>
      </trkpt>
      <trkpt lat="48.47151" lon="6.93296">
        <ele>468.3</ele>
        <time>2016-01-01T14:57:58Z</time>
      </trkpt>
      <trkpt lat="48.47144" lon="6.93284">
        <ele>473.59</ele>
        <time>2016-01-01T14:58:10Z</time>
      </trkpt>
      <trkpt lat="48.47139" lon="6.93276">
        <ele>475.51</ele>
        <time>2016-01-01T14:58:19Z</time>
      </trkpt>
      <trkpt lat="48.47135" lon="6.93263">
        <ele>471.66</ele>
        <time>2016-01-01T14:58:26Z</time>
      </trkpt>
      <trkpt lat="48.47134" lon="6.93261">
        <ele>476.47</ele>
        <time>2016-01-01T14:58:27Z</time>
      </trkpt>
      <trkpt lat="48.47133" lon="6.93252">
        <ele>481.28</ele>
        <time>2016-01-01T14:58:32Z</time>
      </trkpt>
      <trkpt lat="48.47133" lon="6.93251">
        <ele>476.95</ele>
        <time>2016-01-01T14:58:33Z</time>
      </trkpt>
      <trkpt lat="48.47137" lon="6.93239">
        <ele>478.39</ele>
        <time>2016-01-01T14:58:40Z</time>
      </trkpt>
      <trkpt lat="48.47139" lon="6.93228">
        <ele>478.87</ele>
        <time>2016-01-01T14:58:49Z</time>
      </trkpt>
      <trkpt lat="48.47138" lon="6.93223">
        <ele>479.35</ele>
        <time>2016-01-01T14:58:52Z</time>
      </trkpt>
      <trkpt lat="48.47135" lon="6.9321">
        <ele>479.84</ele>
        <time>2016-01-01T14:59:03Z</time>
      </trkpt>
      <trkpt lat="48.47136" lon="6.932">
        <ele>480.8</ele>
        <time>2016-01-01T14:59:10Z</time>
      </trkpt>
      <trkpt lat="48.47134" lon="6.93197">
        <ele>474.07</ele>
        <time>2016-01-01T14:59:13Z</time>
      </trkpt>
      <trkpt lat="48.47133" lon="6.93197">
        <ele>480.32</ele>
        <time>2016-01-01T14:59:14Z</time>
      </trkpt>
      <trkpt lat="48.47133" lon="6.93198">
        <ele>484.16</ele>
        <time>2016-01-01T14:59:16Z</time>
      </trkpt>
      <trkpt lat="48.47132" lon="6.93199">
        <ele>479.35</ele>
        <time>2016-01-01T14:59:17Z</time>
      </trkpt>
      <trkpt lat="48.4713" lon="6.93206">
        <ele>477.91</ele>
        <time>2016-01-01T14:59:22Z</time>
      </trkpt>
      <trkpt lat="48.47124" lon="6.93214">
        <ele>475.99</ele>
        <time>2016-01-01T14:59:31Z</time>
      </trkpt>
      <trkpt lat="48.47124" lon="6.93214">
        <ele>479.35</ele>
        <time>2016-01-01T14:59:32Z</time>
      </trkpt>
      <trkpt lat="48.47126" lon="6.93211">
        <ele>479.35</ele>
        <time>2016-01-01T14:59:44Z</time>
      </trkpt>
      <trkpt lat="48.4713" lon="6.93208">
        <ele>479.84</ele>
        <time>2016-01-01T14:59:51Z</time>
      </trkpt>
      <trkpt lat="48.47134" lon="6.93215">
        <ele>479.84</ele>
        <time>2016-01-01T15:00:03Z</time>
      </trkpt>
      <trkpt lat="48.47133" lon="6.93209">
        <ele>479.35</ele>
        <time>2016-01-01T15:00:14Z</time>
      </trkpt>
      <trkpt lat="48.47133" lon="6.93207">
        <ele>479.35</ele>
        <time>2016-01-01T15:00:27Z</time>
      </trkpt>
      <trkpt lat="48.47133" lon="6.93207">
        <ele>482.72</ele>
        <time>2016-01-01T15:00:28Z</time>
      </trkpt>
      <trkpt lat="48.47133" lon="6.93208">
        <ele>472.14</ele>
        <time>2016-01-01T15:00:29Z</time>
      </trkpt>
      <trkpt lat="48.47133" lon="6.93207">
        <ele>480.32</ele>
        <time>2016-01-01T15:00:30Z</time>
      </trkpt>
      <trkpt lat="48.47132" lon="6.93207">
        <ele>480.32</ele>
        <time>2016-01-01T15:00:39Z</time>
      </trkpt>
      <trkpt lat="48.47126" lon="6.93202">
        <ele>479.84</ele>
        <time>2016-01-01T15:00:44Z</time>
      </trkpt>
      <trkpt lat="48.47117" lon="6.93187">
        <ele>480.32</ele>
        <time>2016-01-01T15:00:57Z</time>
      </trkpt>
      <trkpt lat="48.47114" lon="6.9318">
        <ele>481.28</ele>
        <time>2016-01-01T15:01:03Z</time>
      </trkpt>
      <trkpt lat="48.47107" lon="6.93168">
        <ele>482.72</ele>
        <time>2016-01-01T15:01:11Z</time>
      </trkpt>
      <trkpt lat="48.471" lon="6.93157">
        <ele>482.72</ele>
        <time>2016-01-01T15:01:17Z</time>
      </trkpt>
      <trkpt lat="48.47095" lon="6.93152">
        <ele>483.68</ele>
        <time>2016-01-01T15:01:21Z</time>
      </trkpt>
      <trkpt lat="48.47088" lon="6.93139">
        <ele>484.16</ele>
        <time>2016-01-01T15:01:29Z</time>
      </trkpt>
      <trkpt lat="48.47079" lon="6.93121">
        <ele>485.12</ele>
        <time>2016-01-01T15:01:39Z</time>
      </trkpt>
      <trkpt lat="48.47071" lon="6.93109">
        <ele>485.12</ele>
        <time>2016-01-01T15:01:47Z</time>
      </trkpt>
      <trkpt lat="48.47058" lon="6.93099">
        <ele>487.53</ele>
        <time>2016-01-01T15:01:59Z</time>
      </trkpt>
      <trkpt lat="48.4705" lon="6.93089">
        <ele>488.49</ele>
        <time>2016-01-01T15:02:12Z</time>
      </trkpt>
      <trkpt lat="48.4705" lon="6.9309">
        <ele>488.97</ele>
        <time>2016-01-01T15:02:41Z</time>
      </trkpt>
      <trkpt lat="48.47048" lon="6.93089">
        <ele>488.97</ele>
        <time>2016-01-01T15:03:13Z</time>
      </trkpt>
      <trkpt lat="48.47047" lon="6.93087">
        <ele>488.97</ele>
        <time>2016-01-01T15:03:14Z</time>
      </trkpt>
      <trkpt lat="48.47045" lon="6.93083">
        <ele>488.97</ele>
        <time>2016-01-01T15:03:16Z</time>
      </trkpt>
      <trkpt lat="48.47042" lon="6.93076">
        <ele>489.45</ele>
        <time>2016-01-01T15:03:20Z</time>
      </trkpt>
      <trkpt lat="48.4704" lon="6.93073">
        <ele>489.45</ele>
        <time>2016-01-01T15:03:22Z</time>
      </trkpt>
      <trkpt lat="48.47033" lon="6.93048">
        <ele>491.37</ele>
        <time>2016-01-01T15:03:37Z</time>
      </trkpt>
      <trkpt lat="48.47028" lon="6.93048">
        <ele>494.74</ele>
        <time>2016-01-01T15:03:46Z</time>
      </trkpt>
      <trkpt lat="48.47027" lon="6.93051">
        <ele>496.66</ele>
        <time>2016-01-01T15:03:53Z</time>
      </trkpt>
      <trkpt lat="48.47025" lon="6.93056">
        <ele>499.06</ele>
        <time>2016-01-01T15:04:04Z</time>
      </trkpt>
      <trkpt lat="48.47025" lon="6.93056">
        <ele>499.06</ele>
        <time>2016-01-01T15:04:05Z</time>
      </trkpt>
      <trkpt lat="48.47027" lon="6.93066">
        <ele>500.02</ele>
        <time>2016-01-01T15:04:13Z</time>
      </trkpt>
      <trkpt lat="48.47029" lon="6.93084">
        <ele>501.46</ele>
        <time>2016-01-01T15:04:27Z</time>
      </trkpt>
      <trkpt lat="48.47029" lon="6.93088">
        <ele>501.46</ele>
        <time>2016-01-01T15:04:45Z</time>
      </trkpt>
      <trkpt lat="48.47029" lon="6.93087">
        <ele>501.95</ele>
        <time>2016-01-01T15:04:59Z</time>
      </trkpt>
      <trkpt lat="48.4703" lon="6.93086">
        <ele>501.46</ele>
        <time>2016-01-01T15:05:18Z</time>
      </trkpt>
      <trkpt lat="48.47029" lon="6.93087">
        <ele>501.46</ele>
        <time>2016-01-01T15:05:30Z</time>
      </trkpt>
      <trkpt lat="48.47029" lon="6.93087">
        <ele>502.43</ele>
        <time>2016-01-01T15:05:53Z</time>
      </trkpt>
      <trkpt lat="48.47029" lon="6.93086">
        <ele>501.46</ele>
        <time>2016-01-01T15:06:15Z</time>
      </trkpt>
      <trkpt lat="48.47029" lon="6.93087">
        <ele>501.95</ele>
        <time>2016-01-01T15:06:40Z</time>
      </trkpt>
      <trkpt lat="48.47029" lon="6.93083">
        <ele>501.95</ele>
        <time>2016-01-01T15:06:50Z</time>
      </trkpt>
      <trkpt lat="48.4703" lon="6.93075">
        <ele>500.98</ele>
        <time>2016-01-01T15:07:01Z</time>
      </trkpt>
      <trkpt lat="48.47026" lon="6.9307">
        <ele>500.98</ele>
        <time>2016-01-01T15:07:12Z</time>
      </trkpt>
      <trkpt lat="48.47026" lon="6.93069">
        <ele>500.98</ele>
        <time>2016-01-01T15:07:19Z</time>
      </trkpt>
      <trkpt lat="48.47025" lon="6.93064">
        <ele>500.5</ele>
        <time>2016-01-01T15:07:23Z</time>
      </trkpt>
      <trkpt lat="48.47023" lon="6.93063">
        <ele>500.02</ele>
        <time>2016-01-01T15:07:25Z</time>
      </trkpt>
      <trkpt lat="48.47015" lon="6.93062">
        <ele>500.5</ele>
        <time>2016-01-01T15:07:39Z</time>
      </trkpt>
      <trkpt lat="48.47015" lon="6.93061">
        <ele>500.02</ele>
        <time>2016-01-01T15:07:53Z</time>
      </trkpt>
      <trkpt lat="48.47016" lon="6.9306">
        <ele>500.02</ele>
        <time>2016-01-01T15:08:13Z</time>
      </trkpt>
      <trkpt lat="48.47015" lon="6.93061">
        <ele>500.02</ele>
        <time>2016-01-01T15:08:30Z</time>
      </trkpt>
      <trkpt lat="48.47014" lon="6.9306">
        <ele>500.5</ele>
        <time>2016-01-01T15:08:51Z</time>
      </trkpt>
      <trkpt lat="48.47014" lon="6.9306">
        <ele>500.5</ele>
        <time>2016-01-01T15:09:06Z</time>
      </trkpt>
      <trkpt lat="48.47014" lon="6.9306">
        <ele>500.02</ele>
        <time>2016-01-01T15:09:36Z</time>
      </trkpt>
      <trkpt lat="48.47013" lon="6.9306">
        <ele>500.98</ele>
        <time>2016-01-01T15:09:57Z</time>
      </trkpt>
      <trkpt lat="48.47013" lon="6.93061">
        <ele>500.02</ele>
        <time>2016-01-01T15:10:22Z</time>
      </trkpt>
      <trkpt lat="48.47014" lon="6.93061">
        <ele>499.54</ele>
        <time>2016-01-01T15:10:38Z</time>
      </trkpt>
      <trkpt lat="48.47017" lon="6.93061">
        <ele>500.5</ele>
        <time>2016-01-01T15:10:41Z</time>
      </trkpt>
      <trkpt lat="48.47023" lon="6.93047">
        <ele>499.06</ele>
        <time>2016-01-01T15:10:55Z</time>
      </trkpt>
      <trkpt lat="48.47022" lon="6.93055">
        <ele>500.02</ele>
        <time>2016-01-01T15:11:14Z</time>
      </trkpt>
      <trkpt lat="48.47023" lon="6.93059">
        <ele>500.98</ele>
        <time>2016-01-01T15:11:23Z</time>
      </trkpt>
      <trkpt lat="48.47026" lon="6.93068">
        <ele>501.95</ele>
        <time>2016-01-01T15:11:28Z</time>
      </trkpt>
      <trkpt lat="48.47037" lon="6.93092">
        <ele>502.91</ele>
        <time>2016-01-01T15:11:40Z</time>
      </trkpt>
      <trkpt lat="48.47039" lon="6.93097">
        <ele>501.95</ele>
        <time>2016-01-01T15:11:46Z</time>
      </trkpt>
      <trkpt lat="48.47041" lon="6.93098">
        <ele>502.43</ele>
        <time>2016-01-01T15:11:49Z</time>
      </trkpt>
      <trkpt lat="48.47045" lon="6.931">
        <ele>501.46</ele>
        <time>2016-01-01T15:11:56Z</time>
      </trkpt>
      <trkpt lat="48.47045" lon="6.93099">
        <ele>501.46</ele>
        <time>2016-01-01T15:11:58Z</time>
      </trkpt>
      <trkpt lat="48.47043" lon="6.93096">
        <ele>501.46</ele>
        <time>2016-01-01T15:12:02Z</time>
      </trkpt>
      <trkpt lat="48.47038" lon="6.93089">
        <ele>501.95</ele>
        <time>2016-01-01T15:12:08Z</time>
      </trkpt>
      <trkpt lat="48.4703" lon="6.93072">
        <ele>500.98</ele>
        <time>2016-01-01T15:12:20Z</time>
      </trkpt>
      <trkpt lat="48.47025" lon="6.93066">
        <ele>500.5</ele>
        <time>2016-01-01T15:12:24Z</time>
      </trkpt>
      <trkpt lat="48.47023" lon="6.9306">
        <ele>499.54</ele>
        <time>2016-01-01T15:12:27Z</time>
      </trkpt>
      <trkpt lat="48.47026" lon="6.93051">
        <ele>496.66</ele>
        <time>2016-01-01T15:12:36Z</time>
      </trkpt>
      <trkpt lat="48.47027" lon="6.93046">
        <ele>493.77</ele>
        <time>2016-01-01T15:12:49Z</time>
      </trkpt>
      <trkpt lat="48.47027" lon="6.93045">
        <ele>493.29</ele>
        <time>2016-01-01T15:12:50Z</time>
      </trkpt>
      <trkpt lat="48.4703" lon="6.93042">
        <ele>492.33</ele>
        <time>2016-01-01T15:12:57Z</time>
      </trkpt>
      <trkpt lat="48.47029" lon="6.93033">
        <ele>490.89</ele>
        <time>2016-01-01T15:13:01Z</time>
      </trkpt>
      <trkpt lat="48.47028" lon="6.93025">
        <ele>489.93</ele>
        <time>2016-01-01T15:13:05Z</time>
      </trkpt>
      <trkpt lat="48.47016" lon="6.93013">
        <ele>488.01</ele>
        <time>2016-01-01T15:13:13Z</time>
      </trkpt>
      <trkpt lat="48.47015" lon="6.93009">
        <ele>488.01</ele>
        <time>2016-01-01T15:13:15Z</time>
      </trkpt>
      <trkpt lat="48.4701" lon="6.93005">
        <ele>488.01</ele>
        <time>2016-01-01T15:13:19Z</time>
      </trkpt>
      <trkpt lat="48.47004" lon="6.93008">
        <ele>487.05</ele>
        <time>2016-01-01T15:13:24Z</time>
      </trkpt>
      <trkpt lat="48.47015" lon="6.93009">
        <ele>488.01</ele>
        <time>2016-01-01T15:13:35Z</time>
      </trkpt>
      <trkpt lat="48.47022" lon="6.93021">
        <ele>488.97</ele>
        <time>2016-01-01T15:13:40Z</time>
      </trkpt>
      <trkpt lat="48.47022" lon="6.93042">
        <ele>491.37</ele>
        <time>2016-01-01T15:13:53Z</time>
      </trkpt>
      <trkpt lat="48.47038" lon="6.93067">
        <ele>489.45</ele>
        <time>2016-01-01T15:14:05Z</time>
      </trkpt>
      <trkpt lat="48.47053" lon="6.93086">
        <ele>487.53</ele>
        <time>2016-01-01T15:14:16Z</time>
      </trkpt>
      <trkpt lat="48.47062" lon="6.93102">
        <ele>486.08</ele>
        <time>2016-01-01T15:14:24Z</time>
      </trkpt>
      <trkpt lat="48.47071" lon="6.93113">
        <ele>485.12</ele>
        <time>2016-01-01T15:14:32Z</time>
      </trkpt>
      <trkpt lat="48.47075" lon="6.93118">
        <ele>485.12</ele>
        <time>2016-01-01T15:14:35Z</time>
      </trkpt>
      <trkpt lat="48.47078" lon="6.93124">
        <ele>484.64</ele>
        <time>2016-01-01T15:14:38Z</time>
      </trkpt>
      <trkpt lat="48.47081" lon="6.9313">
        <ele>484.16</ele>
        <time>2016-01-01T15:14:42Z</time>
      </trkpt>
      <trkpt lat="48.47084" lon="6.93134">
        <ele>484.64</ele>
        <time>2016-01-01T15:14:44Z</time>
      </trkpt>
      <trkpt lat="48.47094" lon="6.93153">
        <ele>482.72</ele>
        <time>2016-01-01T15:14:55Z</time>
      </trkpt>
      <trkpt lat="48.47109" lon="6.93175">
        <ele>480.32</ele>
        <time>2016-01-01T15:15:07Z</time>
      </trkpt>
      <trkpt lat="48.47117" lon="6.93195">
        <ele>479.84</ele>
        <time>2016-01-01T15:15:17Z</time>
      </trkpt>
      <trkpt lat="48.47121" lon="6.93213">
        <ele>478.87</ele>
        <time>2016-01-01T15:15:25Z</time>
      </trkpt>
      <trkpt lat="48.47109" lon="6.93218">
        <ele>475.99</ele>
        <time>2016-01-01T15:15:37Z</time>
      </trkpt>
      <trkpt lat="48.471" lon="6.93219">
        <ele>474.07</ele>
        <time>2016-01-01T15:15:43Z</time>
      </trkpt>
      <trkpt lat="48.47095" lon="6.93219">
        <ele>473.59</ele>
        <time>2016-01-01T15:15:46Z</time>
      </trkpt>
      <trkpt lat="48.47092" lon="6.9322">
        <ele>472.63</ele>
        <time>2016-01-01T15:15:49Z</time>
      </trkpt>
      <trkpt lat="48.47087" lon="6.93218">
        <ele>470.22</ele>
        <time>2016-01-01T15:15:54Z</time>
      </trkpt>
      <trkpt lat="48.47083" lon="6.93215">
        <ele>469.26</ele>
        <time>2016-01-01T15:15:57Z</time>
      </trkpt>
      <trkpt lat="48.47072" lon="6.93215">
        <ele>467.34</ele>
        <time>2016-01-01T15:16:07Z</time>
      </trkpt>
      <trkpt lat="48.47067" lon="6.93217">
        <ele>466.86</ele>
        <time>2016-01-01T15:16:21Z</time>
      </trkpt>
      <trkpt lat="48.47065" lon="6.93217">
        <ele>466.86</ele>
        <time>2016-01-01T15:16:44Z</time>
      </trkpt>
      <trkpt lat="48.47065" lon="6.93218">
        <ele>466.86</ele>
        <time>2016-01-01T15:16:48Z</time>
      </trkpt>
      <trkpt lat="48.47062" lon="6.93219">
        <ele>464.93</ele>
        <time>2016-01-01T15:16:52Z</time>
      </trkpt>
      <trkpt lat="48.47053" lon="6.93216">
        <ele>462.05</ele>
        <time>2016-01-01T15:17:00Z</time>
      </trkpt>
      <trkpt lat="48.47044" lon="6.93214">
        <ele>459.65</ele>
        <time>2016-01-01T15:17:06Z</time>
      </trkpt>
      <trkpt lat="48.4704" lon="6.93215">
        <ele>457.72</ele>
        <time>2016-01-01T15:17:11Z</time>
      </trkpt>
      <trkpt lat="48.47027" lon="6.93217">
        <ele>453.4</ele>
        <time>2016-01-01T15:17:21Z</time>
      </trkpt>
      <trkpt lat="48.47021" lon="6.93216">
        <ele>448.59</ele>
        <time>2016-01-01T15:17:27Z</time>
      </trkpt>
      <trkpt lat="48.47012" lon="6.93219">
        <ele>449.07</ele>
        <time>2016-01-01T15:17:35Z</time>
      </trkpt>
      <trkpt lat="48.47002" lon="6.93216">
        <ele>446.67</ele>
        <time>2016-01-01T15:17:47Z</time>
      </trkpt>
      <trkpt lat="48.46992" lon="6.93219">
        <ele>447.15</ele>
        <time>2016-01-01T15:17:56Z</time>
      </trkpt>
      <trkpt lat="48.46976" lon="6.9322">
        <ele>441.86</ele>
        <time>2016-01-01T15:18:09Z</time>
      </trkpt>
      <trkpt lat="48.46965" lon="6.93219">
        <ele>437.06</ele>
        <time>2016-01-01T15:18:16Z</time>
      </trkpt>
      <trkpt lat="48.4696" lon="6.9322">
        <ele>438.5</ele>
        <time>2016-01-01T15:18:20Z</time>
      </trkpt>
      <trkpt lat="48.46951" lon="6.93221">
        <ele>437.54</ele>
        <time>2016-01-01T15:18:27Z</time>
      </trkpt>
      <trkpt lat="48.46952" lon="6.93227">
        <ele>438.02</ele>
        <time>2016-01-01T15:18:39Z</time>
      </trkpt>
      <trkpt lat="48.46952" lon="6.93222">
        <ele>438.02</ele>
        <time>2016-01-01T15:18:45Z</time>
      </trkpt>
      <trkpt lat="48.46949" lon="6.93219">
        <ele>436.1</ele>
        <time>2016-01-01T15:18:48Z</time>
      </trkpt>
      <trkpt lat="48.46946" lon="6.93216">
        <ele>439.46</ele>
        <time>2016-01-01T15:18:50Z</time>
      </trkpt>
      <trkpt lat="48.46942" lon="6.93213">
        <ele>436.58</ele>
        <time>2016-01-01T15:18:53Z</time>
      </trkpt>
      <trkpt lat="48.46941" lon="6.93213">
        <ele>440.9</ele>
        <time>2016-01-01T15:18:54Z</time>
      </trkpt>
      <trkpt lat="48.4694" lon="6.93212">
        <ele>436.1</ele>
        <time>2016-01-01T15:18:55Z</time>
      </trkpt>
      <trkpt lat="48.46937" lon="6.93211">
        <ele>435.61</ele>
        <time>2016-01-01T15:18:57Z</time>
      </trkpt>
      <trkpt lat="48.46926" lon="6.93211">
        <ele>434.17</ele>
        <time>2016-01-01T15:19:06Z</time>
      </trkpt>
      <trkpt lat="48.46917" lon="6.93205">
        <ele>433.69</ele>
        <time>2016-01-01T15:19:13Z</time>
      </trkpt>
      <trkpt lat="48.46908" lon="6.93199">
        <ele>432.25</ele>
        <time>2016-01-01T15:19:26Z</time>
      </trkpt>
      <trkpt lat="48.46908" lon="6.93198">
        <ele>435.13</ele>
        <time>2016-01-01T15:19:28Z</time>
      </trkpt>
    </trkseg>
  </trk>
</gpx>